<?xml version="1.0" encoding="UTF-8" standalone="no" ?>
<gpx xmlns="http://www.topografix.com/GPX/1/1" xmlns:xsi="http://www.w3.org/2001/XMLSchema-instance" xsi:schemaLocation="http://www.topografix.com/GPX/1/1 http://www.topografix.com/GPX/1/1/gpx.xsd" version="1.1" creator="VisuGPX - https://www.visugpx.com">
  <metadata>
    <name>mrt 07 03 2016</name>
    <desc><![CDATA[bon repos,st gelven]]></desc>
  </metadata>
  <trk>
    <name><![CDATA[mrt 07 03 2016_1]]></name>
    <trkseg>
      <trkpt lat="48.21351" lon="-3.12797">
        <ele>129</ele>
        <time>2016-03-07T13:33:23Z</time>
      </trkpt>
      <trkpt lat="48.21377" lon="-3.12782">
        <ele>127</ele>
        <time>2016-03-07T13:33:41Z</time>
      </trkpt>
      <trkpt lat="48.21383" lon="-3.12779">
        <ele>126</ele>
        <time>2016-03-07T13:33:45Z</time>
      </trkpt>
      <trkpt lat="48.21386" lon="-3.12777">
        <ele>126</ele>
        <time>2016-03-07T13:33:48Z</time>
      </trkpt>
      <trkpt lat="48.21392" lon="-3.12772">
        <ele>126</ele>
        <time>2016-03-07T13:33:53Z</time>
      </trkpt>
      <trkpt lat="48.21396" lon="-3.12769">
        <ele>126</ele>
        <time>2016-03-07T13:33:57Z</time>
      </trkpt>
      <trkpt lat="48.21399" lon="-3.12766">
        <ele>126</ele>
        <time>2016-03-07T13:34:00Z</time>
      </trkpt>
      <trkpt lat="48.21402" lon="-3.12764">
        <ele>126</ele>
        <time>2016-03-07T13:34:03Z</time>
      </trkpt>
      <trkpt lat="48.21406" lon="-3.12761">
        <ele>126</ele>
        <time>2016-03-07T13:34:07Z</time>
      </trkpt>
      <trkpt lat="48.21409" lon="-3.12758">
        <ele>126</ele>
        <time>2016-03-07T13:34:10Z</time>
      </trkpt>
      <trkpt lat="48.21414" lon="-3.12755">
        <ele>126</ele>
        <time>2016-03-07T13:34:15Z</time>
      </trkpt>
      <trkpt lat="48.21418" lon="-3.12751">
        <ele>126</ele>
        <time>2016-03-07T13:34:19Z</time>
      </trkpt>
      <trkpt lat="48.21421" lon="-3.12749">
        <ele>126</ele>
        <time>2016-03-07T13:34:22Z</time>
      </trkpt>
      <trkpt lat="48.21424" lon="-3.12747">
        <ele>126</ele>
        <time>2016-03-07T13:34:25Z</time>
      </trkpt>
      <trkpt lat="48.21427" lon="-3.12745">
        <ele>126</ele>
        <time>2016-03-07T13:34:28Z</time>
      </trkpt>
      <trkpt lat="48.21431" lon="-3.12742">
        <ele>126</ele>
        <time>2016-03-07T13:34:32Z</time>
      </trkpt>
      <trkpt lat="48.21434" lon="-3.1274">
        <ele>126</ele>
        <time>2016-03-07T13:34:35Z</time>
      </trkpt>
      <trkpt lat="48.21436" lon="-3.12736">
        <ele>126</ele>
        <time>2016-03-07T13:34:39Z</time>
      </trkpt>
      <trkpt lat="48.2144" lon="-3.12733">
        <ele>126</ele>
        <time>2016-03-07T13:34:43Z</time>
      </trkpt>
      <trkpt lat="48.21442" lon="-3.12732">
        <ele>126</ele>
        <time>2016-03-07T13:34:46Z</time>
      </trkpt>
      <trkpt lat="48.21445" lon="-3.12729">
        <ele>126</ele>
        <time>2016-03-07T13:34:50Z</time>
      </trkpt>
      <trkpt lat="48.21451" lon="-3.12725">
        <ele>126</ele>
        <time>2016-03-07T13:34:55Z</time>
      </trkpt>
      <trkpt lat="48.21455" lon="-3.12722">
        <ele>126</ele>
        <time>2016-03-07T13:34:59Z</time>
      </trkpt>
      <trkpt lat="48.2146" lon="-3.1272">
        <ele>126</ele>
        <time>2016-03-07T13:35:03Z</time>
      </trkpt>
      <trkpt lat="48.21463" lon="-3.12718">
        <ele>126</ele>
        <time>2016-03-07T13:35:06Z</time>
      </trkpt>
      <trkpt lat="48.21466" lon="-3.12716">
        <ele>126</ele>
        <time>2016-03-07T13:35:09Z</time>
      </trkpt>
      <trkpt lat="48.21469" lon="-3.12713">
        <ele>126</ele>
        <time>2016-03-07T13:35:14Z</time>
      </trkpt>
      <trkpt lat="48.21474" lon="-3.12711">
        <ele>126</ele>
        <time>2016-03-07T13:35:18Z</time>
      </trkpt>
      <trkpt lat="48.21477" lon="-3.12711">
        <ele>126</ele>
        <time>2016-03-07T13:35:21Z</time>
      </trkpt>
      <trkpt lat="48.2148" lon="-3.12712">
        <ele>126</ele>
        <time>2016-03-07T13:35:25Z</time>
      </trkpt>
      <trkpt lat="48.21482" lon="-3.12717">
        <ele>126</ele>
        <time>2016-03-07T13:35:29Z</time>
      </trkpt>
      <trkpt lat="48.21482" lon="-3.12721">
        <ele>126</ele>
        <time>2016-03-07T13:35:33Z</time>
      </trkpt>
      <trkpt lat="48.21483" lon="-3.12726">
        <ele>126</ele>
        <time>2016-03-07T13:35:37Z</time>
      </trkpt>
      <trkpt lat="48.21484" lon="-3.12731">
        <ele>126</ele>
        <time>2016-03-07T13:35:41Z</time>
      </trkpt>
      <trkpt lat="48.21486" lon="-3.12736">
        <ele>126</ele>
        <time>2016-03-07T13:35:45Z</time>
      </trkpt>
      <trkpt lat="48.21489" lon="-3.1274">
        <ele>126</ele>
        <time>2016-03-07T13:35:48Z</time>
      </trkpt>
      <trkpt lat="48.21491" lon="-3.12745">
        <ele>126</ele>
        <time>2016-03-07T13:35:51Z</time>
      </trkpt>
      <trkpt lat="48.21492" lon="-3.12752">
        <ele>126</ele>
        <time>2016-03-07T13:35:55Z</time>
      </trkpt>
      <trkpt lat="48.21492" lon="-3.12757">
        <ele>126</ele>
        <time>2016-03-07T13:35:58Z</time>
      </trkpt>
      <trkpt lat="48.21492" lon="-3.12766">
        <ele>126</ele>
        <time>2016-03-07T13:36:03Z</time>
      </trkpt>
      <trkpt lat="48.21493" lon="-3.12771">
        <ele>126</ele>
        <time>2016-03-07T13:36:06Z</time>
      </trkpt>
      <trkpt lat="48.21494" lon="-3.12778">
        <ele>126</ele>
        <time>2016-03-07T13:36:10Z</time>
      </trkpt>
      <trkpt lat="48.21495" lon="-3.12782">
        <ele>126</ele>
        <time>2016-03-07T13:36:13Z</time>
      </trkpt>
      <trkpt lat="48.21496" lon="-3.12787">
        <ele>126</ele>
        <time>2016-03-07T13:36:16Z</time>
      </trkpt>
      <trkpt lat="48.21498" lon="-3.1279">
        <ele>126</ele>
        <time>2016-03-07T13:36:21Z</time>
      </trkpt>
      <trkpt lat="48.21501" lon="-3.12791">
        <ele>126</ele>
        <time>2016-03-07T13:36:24Z</time>
      </trkpt>
      <trkpt lat="48.21504" lon="-3.12792">
        <ele>126</ele>
        <time>2016-03-07T13:36:28Z</time>
      </trkpt>
      <trkpt lat="48.21509" lon="-3.12793">
        <ele>126</ele>
        <time>2016-03-07T13:36:32Z</time>
      </trkpt>
      <trkpt lat="48.21513" lon="-3.12792">
        <ele>126</ele>
        <time>2016-03-07T13:36:36Z</time>
      </trkpt>
      <trkpt lat="48.21517" lon="-3.12793">
        <ele>126</ele>
        <time>2016-03-07T13:36:39Z</time>
      </trkpt>
      <trkpt lat="48.21521" lon="-3.12793">
        <ele>126</ele>
        <time>2016-03-07T13:36:43Z</time>
      </trkpt>
      <trkpt lat="48.21524" lon="-3.12793">
        <ele>126</ele>
        <time>2016-03-07T13:36:46Z</time>
      </trkpt>
      <trkpt lat="48.21527" lon="-3.12792">
        <ele>126</ele>
        <time>2016-03-07T13:36:49Z</time>
      </trkpt>
      <trkpt lat="48.21532" lon="-3.12793">
        <ele>126</ele>
        <time>2016-03-07T13:36:52Z</time>
      </trkpt>
      <trkpt lat="48.21535" lon="-3.12793">
        <ele>126</ele>
        <time>2016-03-07T13:36:55Z</time>
      </trkpt>
      <trkpt lat="48.21539" lon="-3.12794">
        <ele>126</ele>
        <time>2016-03-07T13:36:58Z</time>
      </trkpt>
      <trkpt lat="48.21542" lon="-3.12793">
        <ele>126</ele>
        <time>2016-03-07T13:37:01Z</time>
      </trkpt>
      <trkpt lat="48.21546" lon="-3.12794">
        <ele>127</ele>
        <time>2016-03-07T13:37:05Z</time>
      </trkpt>
      <trkpt lat="48.2155" lon="-3.12794">
        <ele>127</ele>
        <time>2016-03-07T13:37:09Z</time>
      </trkpt>
      <trkpt lat="48.21555" lon="-3.12794">
        <ele>127</ele>
        <time>2016-03-07T13:37:13Z</time>
      </trkpt>
      <trkpt lat="48.21558" lon="-3.12794">
        <ele>127</ele>
        <time>2016-03-07T13:37:16Z</time>
      </trkpt>
      <trkpt lat="48.21561" lon="-3.12794">
        <ele>127</ele>
        <time>2016-03-07T13:37:19Z</time>
      </trkpt>
      <trkpt lat="48.21565" lon="-3.12795">
        <ele>128</ele>
        <time>2016-03-07T13:37:22Z</time>
      </trkpt>
      <trkpt lat="48.21569" lon="-3.12794">
        <ele>128</ele>
        <time>2016-03-07T13:37:26Z</time>
      </trkpt>
      <trkpt lat="48.21572" lon="-3.12795">
        <ele>128</ele>
        <time>2016-03-07T13:37:29Z</time>
      </trkpt>
      <trkpt lat="48.21577" lon="-3.12795">
        <ele>129</ele>
        <time>2016-03-07T13:37:34Z</time>
      </trkpt>
      <trkpt lat="48.21582" lon="-3.12796">
        <ele>129</ele>
        <time>2016-03-07T13:37:39Z</time>
      </trkpt>
      <trkpt lat="48.21586" lon="-3.12797">
        <ele>129</ele>
        <time>2016-03-07T13:37:42Z</time>
      </trkpt>
      <trkpt lat="48.21589" lon="-3.12798">
        <ele>130</ele>
        <time>2016-03-07T13:37:45Z</time>
      </trkpt>
      <trkpt lat="48.21593" lon="-3.128">
        <ele>130</ele>
        <time>2016-03-07T13:37:49Z</time>
      </trkpt>
      <trkpt lat="48.21597" lon="-3.12803">
        <ele>131</ele>
        <time>2016-03-07T13:37:53Z</time>
      </trkpt>
      <trkpt lat="48.216" lon="-3.12807">
        <ele>131</ele>
        <time>2016-03-07T13:37:57Z</time>
      </trkpt>
      <trkpt lat="48.21602" lon="-3.12812">
        <ele>131</ele>
        <time>2016-03-07T13:38:01Z</time>
      </trkpt>
      <trkpt lat="48.21604" lon="-3.12817">
        <ele>132</ele>
        <time>2016-03-07T13:38:05Z</time>
      </trkpt>
      <trkpt lat="48.21605" lon="-3.12822">
        <ele>132</ele>
        <time>2016-03-07T13:38:09Z</time>
      </trkpt>
      <trkpt lat="48.21605" lon="-3.12824">
        <ele>132</ele>
        <time>2016-03-07T13:38:12Z</time>
      </trkpt>
      <trkpt lat="48.21606" lon="-3.12829">
        <ele>133</ele>
        <time>2016-03-07T13:38:16Z</time>
      </trkpt>
      <trkpt lat="48.21606" lon="-3.12835">
        <ele>134</ele>
        <time>2016-03-07T13:38:20Z</time>
      </trkpt>
      <trkpt lat="48.21606" lon="-3.1284">
        <ele>134</ele>
        <time>2016-03-07T13:38:24Z</time>
      </trkpt>
      <trkpt lat="48.21606" lon="-3.12844">
        <ele>135</ele>
        <time>2016-03-07T13:38:28Z</time>
      </trkpt>
      <trkpt lat="48.21605" lon="-3.12849">
        <ele>135</ele>
        <time>2016-03-07T13:38:32Z</time>
      </trkpt>
      <trkpt lat="48.21605" lon="-3.12853">
        <ele>136</ele>
        <time>2016-03-07T13:38:36Z</time>
      </trkpt>
      <trkpt lat="48.21603" lon="-3.12856">
        <ele>136</ele>
        <time>2016-03-07T13:38:42Z</time>
      </trkpt>
      <trkpt lat="48.21603" lon="-3.12859">
        <ele>136</ele>
        <time>2016-03-07T13:38:52Z</time>
      </trkpt>
      <trkpt lat="48.21602" lon="-3.12864">
        <ele>137</ele>
        <time>2016-03-07T13:38:56Z</time>
      </trkpt>
      <trkpt lat="48.21602" lon="-3.12869">
        <ele>137</ele>
        <time>2016-03-07T13:39:00Z</time>
      </trkpt>
      <trkpt lat="48.21602" lon="-3.12874">
        <ele>138</ele>
        <time>2016-03-07T13:39:05Z</time>
      </trkpt>
      <trkpt lat="48.21604" lon="-3.12877">
        <ele>139</ele>
        <time>2016-03-07T13:39:08Z</time>
      </trkpt>
      <trkpt lat="48.21608" lon="-3.12878">
        <ele>139</ele>
        <time>2016-03-07T13:39:12Z</time>
      </trkpt>
      <trkpt lat="48.2161" lon="-3.12875">
        <ele>139</ele>
        <time>2016-03-07T13:39:16Z</time>
      </trkpt>
      <trkpt lat="48.21613" lon="-3.12872">
        <ele>140</ele>
        <time>2016-03-07T13:39:20Z</time>
      </trkpt>
      <trkpt lat="48.21616" lon="-3.12869">
        <ele>140</ele>
        <time>2016-03-07T13:39:24Z</time>
      </trkpt>
      <trkpt lat="48.21619" lon="-3.12866">
        <ele>140</ele>
        <time>2016-03-07T13:39:28Z</time>
      </trkpt>
      <trkpt lat="48.21621" lon="-3.12863">
        <ele>140</ele>
        <time>2016-03-07T13:39:32Z</time>
      </trkpt>
      <trkpt lat="48.21623" lon="-3.1286">
        <ele>140</ele>
        <time>2016-03-07T13:39:36Z</time>
      </trkpt>
      <trkpt lat="48.21626" lon="-3.12856">
        <ele>140</ele>
        <time>2016-03-07T13:39:40Z</time>
      </trkpt>
      <trkpt lat="48.21629" lon="-3.12853">
        <ele>140</ele>
        <time>2016-03-07T13:39:44Z</time>
      </trkpt>
      <trkpt lat="48.21632" lon="-3.12849">
        <ele>140</ele>
        <time>2016-03-07T13:39:48Z</time>
      </trkpt>
      <trkpt lat="48.21635" lon="-3.12845">
        <ele>140</ele>
        <time>2016-03-07T13:39:52Z</time>
      </trkpt>
      <trkpt lat="48.21638" lon="-3.12841">
        <ele>140</ele>
        <time>2016-03-07T13:39:56Z</time>
      </trkpt>
      <trkpt lat="48.2164" lon="-3.12837">
        <ele>140</ele>
        <time>2016-03-07T13:40:00Z</time>
      </trkpt>
      <trkpt lat="48.21643" lon="-3.12833">
        <ele>140</ele>
        <time>2016-03-07T13:40:04Z</time>
      </trkpt>
      <trkpt lat="48.21645" lon="-3.12829">
        <ele>140</ele>
        <time>2016-03-07T13:40:07Z</time>
      </trkpt>
      <trkpt lat="48.21648" lon="-3.12826">
        <ele>140</ele>
        <time>2016-03-07T13:40:11Z</time>
      </trkpt>
      <trkpt lat="48.2165" lon="-3.12822">
        <ele>140</ele>
        <time>2016-03-07T13:40:15Z</time>
      </trkpt>
      <trkpt lat="48.21651" lon="-3.12818">
        <ele>140</ele>
        <time>2016-03-07T13:40:19Z</time>
      </trkpt>
      <trkpt lat="48.21654" lon="-3.12813">
        <ele>141</ele>
        <time>2016-03-07T13:40:23Z</time>
      </trkpt>
      <trkpt lat="48.21656" lon="-3.12809">
        <ele>141</ele>
        <time>2016-03-07T13:40:27Z</time>
      </trkpt>
      <trkpt lat="48.21661" lon="-3.12804">
        <ele>141</ele>
        <time>2016-03-07T13:40:31Z</time>
      </trkpt>
      <trkpt lat="48.21663" lon="-3.12799">
        <ele>141</ele>
        <time>2016-03-07T13:40:35Z</time>
      </trkpt>
      <trkpt lat="48.21666" lon="-3.12794">
        <ele>142</ele>
        <time>2016-03-07T13:40:39Z</time>
      </trkpt>
      <trkpt lat="48.21669" lon="-3.12789">
        <ele>142</ele>
        <time>2016-03-07T13:40:43Z</time>
      </trkpt>
      <trkpt lat="48.21669" lon="-3.12785">
        <ele>142</ele>
        <time>2016-03-07T13:40:48Z</time>
      </trkpt>
      <trkpt lat="48.2167" lon="-3.1278">
        <ele>143</ele>
        <time>2016-03-07T13:40:51Z</time>
      </trkpt>
      <trkpt lat="48.21672" lon="-3.12776">
        <ele>143</ele>
        <time>2016-03-07T13:40:55Z</time>
      </trkpt>
      <trkpt lat="48.21674" lon="-3.12772">
        <ele>143</ele>
        <time>2016-03-07T13:41:03Z</time>
      </trkpt>
      <trkpt lat="48.21675" lon="-3.1277">
        <ele>143</ele>
        <time>2016-03-07T13:41:08Z</time>
      </trkpt>
      <trkpt lat="48.21676" lon="-3.12766">
        <ele>143</ele>
        <time>2016-03-07T13:41:13Z</time>
      </trkpt>
      <trkpt lat="48.21677" lon="-3.12761">
        <ele>143</ele>
        <time>2016-03-07T13:41:18Z</time>
      </trkpt>
      <trkpt lat="48.21679" lon="-3.12757">
        <ele>143</ele>
        <time>2016-03-07T13:41:22Z</time>
      </trkpt>
      <trkpt lat="48.2168" lon="-3.12752">
        <ele>143</ele>
        <time>2016-03-07T13:41:26Z</time>
      </trkpt>
      <trkpt lat="48.21682" lon="-3.12748">
        <ele>143</ele>
        <time>2016-03-07T13:41:41Z</time>
      </trkpt>
      <trkpt lat="48.21683" lon="-3.12743">
        <ele>143</ele>
        <time>2016-03-07T13:41:45Z</time>
      </trkpt>
      <trkpt lat="48.21686" lon="-3.12738">
        <ele>143</ele>
        <time>2016-03-07T13:41:49Z</time>
      </trkpt>
      <trkpt lat="48.21688" lon="-3.12732">
        <ele>143</ele>
        <time>2016-03-07T13:41:53Z</time>
      </trkpt>
      <trkpt lat="48.2169" lon="-3.12724">
        <ele>143</ele>
        <time>2016-03-07T13:41:58Z</time>
      </trkpt>
      <trkpt lat="48.21692" lon="-3.12719">
        <ele>143</ele>
        <time>2016-03-07T13:42:01Z</time>
      </trkpt>
      <trkpt lat="48.21693" lon="-3.12714">
        <ele>143</ele>
        <time>2016-03-07T13:42:04Z</time>
      </trkpt>
      <trkpt lat="48.21696" lon="-3.12708">
        <ele>143</ele>
        <time>2016-03-07T13:42:08Z</time>
      </trkpt>
      <trkpt lat="48.21699" lon="-3.12704">
        <ele>143</ele>
        <time>2016-03-07T13:42:11Z</time>
      </trkpt>
      <trkpt lat="48.21701" lon="-3.12697">
        <ele>143</ele>
        <time>2016-03-07T13:42:15Z</time>
      </trkpt>
      <trkpt lat="48.21704" lon="-3.12691">
        <ele>143</ele>
        <time>2016-03-07T13:42:20Z</time>
      </trkpt>
      <trkpt lat="48.21706" lon="-3.12687">
        <ele>143</ele>
        <time>2016-03-07T13:42:23Z</time>
      </trkpt>
      <trkpt lat="48.21709" lon="-3.12681">
        <ele>143</ele>
        <time>2016-03-07T13:42:27Z</time>
      </trkpt>
      <trkpt lat="48.21711" lon="-3.12677">
        <ele>143</ele>
        <time>2016-03-07T13:42:30Z</time>
      </trkpt>
      <trkpt lat="48.21714" lon="-3.12672">
        <ele>143</ele>
        <time>2016-03-07T13:42:33Z</time>
      </trkpt>
      <trkpt lat="48.21716" lon="-3.12667">
        <ele>143</ele>
        <time>2016-03-07T13:42:37Z</time>
      </trkpt>
      <trkpt lat="48.21717" lon="-3.1266">
        <ele>143</ele>
        <time>2016-03-07T13:42:40Z</time>
      </trkpt>
      <trkpt lat="48.21719" lon="-3.12654">
        <ele>143</ele>
        <time>2016-03-07T13:42:44Z</time>
      </trkpt>
      <trkpt lat="48.21721" lon="-3.12649">
        <ele>143</ele>
        <time>2016-03-07T13:42:47Z</time>
      </trkpt>
      <trkpt lat="48.21723" lon="-3.12645">
        <ele>143</ele>
        <time>2016-03-07T13:42:50Z</time>
      </trkpt>
      <trkpt lat="48.21725" lon="-3.12641">
        <ele>143</ele>
        <time>2016-03-07T13:42:53Z</time>
      </trkpt>
      <trkpt lat="48.21728" lon="-3.12633">
        <ele>144</ele>
        <time>2016-03-07T13:42:58Z</time>
      </trkpt>
      <trkpt lat="48.21731" lon="-3.12628">
        <ele>144</ele>
        <time>2016-03-07T13:43:02Z</time>
      </trkpt>
      <trkpt lat="48.21732" lon="-3.12622">
        <ele>144</ele>
        <time>2016-03-07T13:43:06Z</time>
      </trkpt>
      <trkpt lat="48.21735" lon="-3.12617">
        <ele>145</ele>
        <time>2016-03-07T13:43:10Z</time>
      </trkpt>
      <trkpt lat="48.21737" lon="-3.12613">
        <ele>146</ele>
        <time>2016-03-07T13:43:13Z</time>
      </trkpt>
      <trkpt lat="48.21738" lon="-3.12608">
        <ele>147</ele>
        <time>2016-03-07T13:43:16Z</time>
      </trkpt>
      <trkpt lat="48.2174" lon="-3.12603">
        <ele>147</ele>
        <time>2016-03-07T13:43:19Z</time>
      </trkpt>
      <trkpt lat="48.21742" lon="-3.12598">
        <ele>147</ele>
        <time>2016-03-07T13:43:23Z</time>
      </trkpt>
      <trkpt lat="48.21745" lon="-3.12594">
        <ele>147</ele>
        <time>2016-03-07T13:43:27Z</time>
      </trkpt>
      <trkpt lat="48.21746" lon="-3.1259">
        <ele>147</ele>
        <time>2016-03-07T13:43:30Z</time>
      </trkpt>
      <trkpt lat="48.21748" lon="-3.12584">
        <ele>147</ele>
        <time>2016-03-07T13:43:34Z</time>
      </trkpt>
      <trkpt lat="48.21752" lon="-3.12579">
        <ele>147</ele>
        <time>2016-03-07T13:43:39Z</time>
      </trkpt>
      <trkpt lat="48.21754" lon="-3.12572">
        <ele>147</ele>
        <time>2016-03-07T13:43:44Z</time>
      </trkpt>
      <trkpt lat="48.21758" lon="-3.12569">
        <ele>148</ele>
        <time>2016-03-07T13:43:47Z</time>
      </trkpt>
      <trkpt lat="48.21761" lon="-3.12565">
        <ele>149</ele>
        <time>2016-03-07T13:43:51Z</time>
      </trkpt>
      <trkpt lat="48.21764" lon="-3.12561">
        <ele>149</ele>
        <time>2016-03-07T13:43:55Z</time>
      </trkpt>
      <trkpt lat="48.21766" lon="-3.12558">
        <ele>149</ele>
        <time>2016-03-07T13:43:59Z</time>
      </trkpt>
      <trkpt lat="48.21768" lon="-3.12553">
        <ele>149</ele>
        <time>2016-03-07T13:44:03Z</time>
      </trkpt>
      <trkpt lat="48.21772" lon="-3.1255">
        <ele>149</ele>
        <time>2016-03-07T13:44:06Z</time>
      </trkpt>
      <trkpt lat="48.21774" lon="-3.12546">
        <ele>150</ele>
        <time>2016-03-07T13:44:09Z</time>
      </trkpt>
      <trkpt lat="48.21777" lon="-3.12543">
        <ele>150</ele>
        <time>2016-03-07T13:44:13Z</time>
      </trkpt>
      <trkpt lat="48.2178" lon="-3.12538">
        <ele>150</ele>
        <time>2016-03-07T13:44:17Z</time>
      </trkpt>
      <trkpt lat="48.21783" lon="-3.12532">
        <ele>150</ele>
        <time>2016-03-07T13:44:21Z</time>
      </trkpt>
      <trkpt lat="48.21786" lon="-3.12527">
        <ele>150</ele>
        <time>2016-03-07T13:44:25Z</time>
      </trkpt>
      <trkpt lat="48.21789" lon="-3.12523">
        <ele>150</ele>
        <time>2016-03-07T13:44:29Z</time>
      </trkpt>
      <trkpt lat="48.21792" lon="-3.12519">
        <ele>150</ele>
        <time>2016-03-07T13:44:33Z</time>
      </trkpt>
      <trkpt lat="48.21797" lon="-3.12513">
        <ele>150</ele>
        <time>2016-03-07T13:44:38Z</time>
      </trkpt>
      <trkpt lat="48.218" lon="-3.12508">
        <ele>150</ele>
        <time>2016-03-07T13:44:42Z</time>
      </trkpt>
      <trkpt lat="48.21802" lon="-3.12503">
        <ele>150</ele>
        <time>2016-03-07T13:44:46Z</time>
      </trkpt>
      <trkpt lat="48.21804" lon="-3.12497">
        <ele>150</ele>
        <time>2016-03-07T13:44:50Z</time>
      </trkpt>
      <trkpt lat="48.21806" lon="-3.12492">
        <ele>150</ele>
        <time>2016-03-07T13:44:54Z</time>
      </trkpt>
      <trkpt lat="48.21808" lon="-3.12487">
        <ele>150</ele>
        <time>2016-03-07T13:44:58Z</time>
      </trkpt>
      <trkpt lat="48.21811" lon="-3.12481">
        <ele>150</ele>
        <time>2016-03-07T13:45:02Z</time>
      </trkpt>
      <trkpt lat="48.21813" lon="-3.12476">
        <ele>150</ele>
        <time>2016-03-07T13:45:06Z</time>
      </trkpt>
      <trkpt lat="48.21815" lon="-3.12471">
        <ele>150</ele>
        <time>2016-03-07T13:45:10Z</time>
      </trkpt>
      <trkpt lat="48.21818" lon="-3.12465">
        <ele>150</ele>
        <time>2016-03-07T13:45:14Z</time>
      </trkpt>
      <trkpt lat="48.21821" lon="-3.12459">
        <ele>150</ele>
        <time>2016-03-07T13:45:18Z</time>
      </trkpt>
      <trkpt lat="48.21824" lon="-3.12453">
        <ele>149</ele>
        <time>2016-03-07T13:45:22Z</time>
      </trkpt>
      <trkpt lat="48.21826" lon="-3.12444">
        <ele>148</ele>
        <time>2016-03-07T13:45:27Z</time>
      </trkpt>
      <trkpt lat="48.21828" lon="-3.12438">
        <ele>148</ele>
        <time>2016-03-07T13:45:31Z</time>
      </trkpt>
      <trkpt lat="48.21829" lon="-3.12433">
        <ele>148</ele>
        <time>2016-03-07T13:45:34Z</time>
      </trkpt>
      <trkpt lat="48.21832" lon="-3.12427">
        <ele>148</ele>
        <time>2016-03-07T13:45:38Z</time>
      </trkpt>
      <trkpt lat="48.21833" lon="-3.12422">
        <ele>147</ele>
        <time>2016-03-07T13:45:42Z</time>
      </trkpt>
      <trkpt lat="48.21835" lon="-3.12417">
        <ele>146</ele>
        <time>2016-03-07T13:45:46Z</time>
      </trkpt>
      <trkpt lat="48.21836" lon="-3.12412">
        <ele>146</ele>
        <time>2016-03-07T13:45:51Z</time>
      </trkpt>
      <trkpt lat="48.21838" lon="-3.12408">
        <ele>146</ele>
        <time>2016-03-07T13:45:55Z</time>
      </trkpt>
      <trkpt lat="48.21838" lon="-3.12406">
        <ele>146</ele>
        <time>2016-03-07T13:46:01Z</time>
      </trkpt>
      <trkpt lat="48.21835" lon="-3.12403">
        <ele>146</ele>
        <time>2016-03-07T13:46:07Z</time>
      </trkpt>
      <trkpt lat="48.21835" lon="-3.12401">
        <ele>148</ele>
        <time>2016-03-07T13:46:16Z</time>
      </trkpt>
      <trkpt lat="48.21835" lon="-3.12399">
        <ele>148</ele>
        <time>2016-03-07T13:46:19Z</time>
      </trkpt>
      <trkpt lat="48.21837" lon="-3.12395">
        <ele>148</ele>
        <time>2016-03-07T13:46:23Z</time>
      </trkpt>
      <trkpt lat="48.21838" lon="-3.1239">
        <ele>148</ele>
        <time>2016-03-07T13:46:27Z</time>
      </trkpt>
      <trkpt lat="48.21838" lon="-3.12384">
        <ele>148</ele>
        <time>2016-03-07T13:46:32Z</time>
      </trkpt>
      <trkpt lat="48.21839" lon="-3.12379">
        <ele>148</ele>
        <time>2016-03-07T13:46:36Z</time>
      </trkpt>
      <trkpt lat="48.21839" lon="-3.12375">
        <ele>148</ele>
        <time>2016-03-07T13:46:39Z</time>
      </trkpt>
      <trkpt lat="48.2184" lon="-3.12368">
        <ele>148</ele>
        <time>2016-03-07T13:46:43Z</time>
      </trkpt>
      <trkpt lat="48.2184" lon="-3.12363">
        <ele>148</ele>
        <time>2016-03-07T13:46:47Z</time>
      </trkpt>
      <trkpt lat="48.21841" lon="-3.12358">
        <ele>148</ele>
        <time>2016-03-07T13:46:50Z</time>
      </trkpt>
      <trkpt lat="48.21841" lon="-3.12353">
        <ele>148</ele>
        <time>2016-03-07T13:46:54Z</time>
      </trkpt>
      <trkpt lat="48.21841" lon="-3.12347">
        <ele>148</ele>
        <time>2016-03-07T13:46:58Z</time>
      </trkpt>
      <trkpt lat="48.2184" lon="-3.12342">
        <ele>148</ele>
        <time>2016-03-07T13:47:03Z</time>
      </trkpt>
      <trkpt lat="48.2184" lon="-3.1234">
        <ele>148</ele>
        <time>2016-03-07T13:47:11Z</time>
      </trkpt>
      <trkpt lat="48.21841" lon="-3.12339">
        <ele>148</ele>
        <time>2016-03-07T13:47:18Z</time>
      </trkpt>
      <trkpt lat="48.21841" lon="-3.12337">
        <ele>148</ele>
        <time>2016-03-07T13:47:23Z</time>
      </trkpt>
      <trkpt lat="48.2184" lon="-3.12333">
        <ele>148</ele>
        <time>2016-03-07T13:47:28Z</time>
      </trkpt>
      <trkpt lat="48.2184" lon="-3.12331">
        <ele>148</ele>
        <time>2016-03-07T13:47:31Z</time>
      </trkpt>
      <trkpt lat="48.2184" lon="-3.12327">
        <ele>148</ele>
        <time>2016-03-07T13:47:39Z</time>
      </trkpt>
      <trkpt lat="48.2184" lon="-3.12321">
        <ele>148</ele>
        <time>2016-03-07T13:47:44Z</time>
      </trkpt>
      <trkpt lat="48.21841" lon="-3.12317">
        <ele>148</ele>
        <time>2016-03-07T13:47:48Z</time>
      </trkpt>
      <trkpt lat="48.2184" lon="-3.12313">
        <ele>148</ele>
        <time>2016-03-07T13:47:52Z</time>
      </trkpt>
      <trkpt lat="48.21841" lon="-3.12307">
        <ele>148</ele>
        <time>2016-03-07T13:47:56Z</time>
      </trkpt>
      <trkpt lat="48.21841" lon="-3.12305">
        <ele>148</ele>
        <time>2016-03-07T13:47:59Z</time>
      </trkpt>
      <trkpt lat="48.21841" lon="-3.12304">
        <ele>148</ele>
        <time>2016-03-07T13:48:02Z</time>
      </trkpt>
      <trkpt lat="48.21842" lon="-3.12299">
        <ele>149</ele>
        <time>2016-03-07T13:48:07Z</time>
      </trkpt>
      <trkpt lat="48.21842" lon="-3.12294">
        <ele>149</ele>
        <time>2016-03-07T13:48:12Z</time>
      </trkpt>
      <trkpt lat="48.21842" lon="-3.1229">
        <ele>149</ele>
        <time>2016-03-07T13:48:16Z</time>
      </trkpt>
      <trkpt lat="48.21841" lon="-3.12285">
        <ele>149</ele>
        <time>2016-03-07T13:48:20Z</time>
      </trkpt>
      <trkpt lat="48.21841" lon="-3.12281">
        <ele>149</ele>
        <time>2016-03-07T13:48:24Z</time>
      </trkpt>
      <trkpt lat="48.21839" lon="-3.12275">
        <ele>149</ele>
        <time>2016-03-07T13:48:28Z</time>
      </trkpt>
      <trkpt lat="48.21839" lon="-3.12272">
        <ele>149</ele>
        <time>2016-03-07T13:48:31Z</time>
      </trkpt>
      <trkpt lat="48.21838" lon="-3.12267">
        <ele>149</ele>
        <time>2016-03-07T13:48:35Z</time>
      </trkpt>
      <trkpt lat="48.21838" lon="-3.12263">
        <ele>149</ele>
        <time>2016-03-07T13:48:39Z</time>
      </trkpt>
      <trkpt lat="48.21836" lon="-3.12258">
        <ele>149</ele>
        <time>2016-03-07T13:48:43Z</time>
      </trkpt>
      <trkpt lat="48.21835" lon="-3.12252">
        <ele>149</ele>
        <time>2016-03-07T13:48:47Z</time>
      </trkpt>
      <trkpt lat="48.21835" lon="-3.12247">
        <ele>149</ele>
        <time>2016-03-07T13:48:50Z</time>
      </trkpt>
      <trkpt lat="48.21834" lon="-3.12242">
        <ele>149</ele>
        <time>2016-03-07T13:48:54Z</time>
      </trkpt>
      <trkpt lat="48.21835" lon="-3.12238">
        <ele>149</ele>
        <time>2016-03-07T13:48:58Z</time>
      </trkpt>
      <trkpt lat="48.21834" lon="-3.12233">
        <ele>149</ele>
        <time>2016-03-07T13:49:02Z</time>
      </trkpt>
      <trkpt lat="48.21833" lon="-3.12231">
        <ele>149</ele>
        <time>2016-03-07T13:49:05Z</time>
      </trkpt>
      <trkpt lat="48.21832" lon="-3.12227">
        <ele>149</ele>
        <time>2016-03-07T13:49:09Z</time>
      </trkpt>
      <trkpt lat="48.21831" lon="-3.12225">
        <ele>149</ele>
        <time>2016-03-07T13:49:12Z</time>
      </trkpt>
      <trkpt lat="48.2183" lon="-3.12222">
        <ele>149</ele>
        <time>2016-03-07T13:49:17Z</time>
      </trkpt>
      <trkpt lat="48.21829" lon="-3.12217">
        <ele>149</ele>
        <time>2016-03-07T13:49:21Z</time>
      </trkpt>
      <trkpt lat="48.21828" lon="-3.12213">
        <ele>149</ele>
        <time>2016-03-07T13:49:25Z</time>
      </trkpt>
      <trkpt lat="48.21826" lon="-3.12208">
        <ele>149</ele>
        <time>2016-03-07T13:49:29Z</time>
      </trkpt>
      <trkpt lat="48.21824" lon="-3.12203">
        <ele>149</ele>
        <time>2016-03-07T13:49:33Z</time>
      </trkpt>
      <trkpt lat="48.21822" lon="-3.12198">
        <ele>149</ele>
        <time>2016-03-07T13:49:37Z</time>
      </trkpt>
      <trkpt lat="48.2182" lon="-3.12194">
        <ele>149</ele>
        <time>2016-03-07T13:49:40Z</time>
      </trkpt>
      <trkpt lat="48.21818" lon="-3.1219">
        <ele>149</ele>
        <time>2016-03-07T13:49:44Z</time>
      </trkpt>
      <trkpt lat="48.21815" lon="-3.1219">
        <ele>150</ele>
        <time>2016-03-07T13:49:48Z</time>
      </trkpt>
      <trkpt lat="48.21815" lon="-3.12187">
        <ele>151</ele>
        <time>2016-03-07T13:49:52Z</time>
      </trkpt>
      <trkpt lat="48.21814" lon="-3.12185">
        <ele>151</ele>
        <time>2016-03-07T13:49:55Z</time>
      </trkpt>
      <trkpt lat="48.21812" lon="-3.12182">
        <ele>153</ele>
        <time>2016-03-07T13:49:59Z</time>
      </trkpt>
      <trkpt lat="48.21809" lon="-3.12177">
        <ele>154</ele>
        <time>2016-03-07T13:50:03Z</time>
      </trkpt>
      <trkpt lat="48.21807" lon="-3.12172">
        <ele>155</ele>
        <time>2016-03-07T13:50:07Z</time>
      </trkpt>
      <trkpt lat="48.21804" lon="-3.12167">
        <ele>155</ele>
        <time>2016-03-07T13:50:11Z</time>
      </trkpt>
      <trkpt lat="48.21802" lon="-3.12161">
        <ele>155</ele>
        <time>2016-03-07T13:50:16Z</time>
      </trkpt>
      <trkpt lat="48.21799" lon="-3.12156">
        <ele>155</ele>
        <time>2016-03-07T13:50:19Z</time>
      </trkpt>
      <trkpt lat="48.21796" lon="-3.12151">
        <ele>155</ele>
        <time>2016-03-07T13:50:23Z</time>
      </trkpt>
      <trkpt lat="48.21793" lon="-3.12146">
        <ele>155</ele>
        <time>2016-03-07T13:50:27Z</time>
      </trkpt>
      <trkpt lat="48.21791" lon="-3.12142">
        <ele>155</ele>
        <time>2016-03-07T13:50:30Z</time>
      </trkpt>
      <trkpt lat="48.21789" lon="-3.12138">
        <ele>155</ele>
        <time>2016-03-07T13:50:34Z</time>
      </trkpt>
      <trkpt lat="48.21785" lon="-3.12131">
        <ele>155</ele>
        <time>2016-03-07T13:50:38Z</time>
      </trkpt>
      <trkpt lat="48.21782" lon="-3.12126">
        <ele>155</ele>
        <time>2016-03-07T13:50:42Z</time>
      </trkpt>
      <trkpt lat="48.21779" lon="-3.12122">
        <ele>155</ele>
        <time>2016-03-07T13:50:46Z</time>
      </trkpt>
      <trkpt lat="48.21775" lon="-3.12118">
        <ele>155</ele>
        <time>2016-03-07T13:50:50Z</time>
      </trkpt>
      <trkpt lat="48.21773" lon="-3.12112">
        <ele>155</ele>
        <time>2016-03-07T13:50:54Z</time>
      </trkpt>
      <trkpt lat="48.2177" lon="-3.12108">
        <ele>155</ele>
        <time>2016-03-07T13:50:58Z</time>
      </trkpt>
      <trkpt lat="48.21767" lon="-3.12105">
        <ele>155</ele>
        <time>2016-03-07T13:51:01Z</time>
      </trkpt>
      <trkpt lat="48.21765" lon="-3.121">
        <ele>155</ele>
        <time>2016-03-07T13:51:05Z</time>
      </trkpt>
      <trkpt lat="48.21762" lon="-3.12096">
        <ele>155</ele>
        <time>2016-03-07T13:51:09Z</time>
      </trkpt>
      <trkpt lat="48.2176" lon="-3.12091">
        <ele>155</ele>
        <time>2016-03-07T13:51:13Z</time>
      </trkpt>
      <trkpt lat="48.21757" lon="-3.12087">
        <ele>155</ele>
        <time>2016-03-07T13:51:17Z</time>
      </trkpt>
      <trkpt lat="48.21754" lon="-3.12082">
        <ele>155</ele>
        <time>2016-03-07T13:51:21Z</time>
      </trkpt>
      <trkpt lat="48.21751" lon="-3.12078">
        <ele>155</ele>
        <time>2016-03-07T13:51:25Z</time>
      </trkpt>
      <trkpt lat="48.21748" lon="-3.12073">
        <ele>155</ele>
        <time>2016-03-07T13:51:29Z</time>
      </trkpt>
      <trkpt lat="48.21746" lon="-3.12068">
        <ele>155</ele>
        <time>2016-03-07T13:51:33Z</time>
      </trkpt>
      <trkpt lat="48.21743" lon="-3.12065">
        <ele>155</ele>
        <time>2016-03-07T13:51:36Z</time>
      </trkpt>
      <trkpt lat="48.21739" lon="-3.1206">
        <ele>155</ele>
        <time>2016-03-07T13:51:39Z</time>
      </trkpt>
      <trkpt lat="48.21735" lon="-3.12055">
        <ele>156</ele>
        <time>2016-03-07T13:51:43Z</time>
      </trkpt>
      <trkpt lat="48.21733" lon="-3.12051">
        <ele>156</ele>
        <time>2016-03-07T13:51:47Z</time>
      </trkpt>
      <trkpt lat="48.2173" lon="-3.12047">
        <ele>156</ele>
        <time>2016-03-07T13:51:51Z</time>
      </trkpt>
      <trkpt lat="48.21727" lon="-3.12042">
        <ele>156</ele>
        <time>2016-03-07T13:51:55Z</time>
      </trkpt>
      <trkpt lat="48.21724" lon="-3.12039">
        <ele>156</ele>
        <time>2016-03-07T13:51:59Z</time>
      </trkpt>
      <trkpt lat="48.21722" lon="-3.12034">
        <ele>156</ele>
        <time>2016-03-07T13:52:03Z</time>
      </trkpt>
      <trkpt lat="48.21719" lon="-3.1203">
        <ele>156</ele>
        <time>2016-03-07T13:52:06Z</time>
      </trkpt>
      <trkpt lat="48.21717" lon="-3.12025">
        <ele>156</ele>
        <time>2016-03-07T13:52:10Z</time>
      </trkpt>
      <trkpt lat="48.21715" lon="-3.12021">
        <ele>156</ele>
        <time>2016-03-07T13:52:14Z</time>
      </trkpt>
      <trkpt lat="48.21712" lon="-3.12016">
        <ele>156</ele>
        <time>2016-03-07T13:52:18Z</time>
      </trkpt>
      <trkpt lat="48.2171" lon="-3.12012">
        <ele>156</ele>
        <time>2016-03-07T13:52:22Z</time>
      </trkpt>
      <trkpt lat="48.21708" lon="-3.12008">
        <ele>156</ele>
        <time>2016-03-07T13:52:26Z</time>
      </trkpt>
      <trkpt lat="48.21706" lon="-3.12003">
        <ele>156</ele>
        <time>2016-03-07T13:52:31Z</time>
      </trkpt>
      <trkpt lat="48.21703" lon="-3.12">
        <ele>156</ele>
        <time>2016-03-07T13:52:35Z</time>
      </trkpt>
      <trkpt lat="48.21701" lon="-3.11996">
        <ele>156</ele>
        <time>2016-03-07T13:52:39Z</time>
      </trkpt>
      <trkpt lat="48.21699" lon="-3.11992">
        <ele>156</ele>
        <time>2016-03-07T13:52:43Z</time>
      </trkpt>
      <trkpt lat="48.21696" lon="-3.11987">
        <ele>156</ele>
        <time>2016-03-07T13:52:47Z</time>
      </trkpt>
      <trkpt lat="48.21693" lon="-3.11983">
        <ele>156</ele>
        <time>2016-03-07T13:52:52Z</time>
      </trkpt>
      <trkpt lat="48.21691" lon="-3.1198">
        <ele>156</ele>
        <time>2016-03-07T13:52:56Z</time>
      </trkpt>
      <trkpt lat="48.21688" lon="-3.11975">
        <ele>156</ele>
        <time>2016-03-07T13:53:00Z</time>
      </trkpt>
      <trkpt lat="48.21684" lon="-3.11971">
        <ele>156</ele>
        <time>2016-03-07T13:53:04Z</time>
      </trkpt>
      <trkpt lat="48.21681" lon="-3.11966">
        <ele>156</ele>
        <time>2016-03-07T13:53:08Z</time>
      </trkpt>
      <trkpt lat="48.21679" lon="-3.11962">
        <ele>156</ele>
        <time>2016-03-07T13:53:12Z</time>
      </trkpt>
      <trkpt lat="48.21677" lon="-3.1196">
        <ele>156</ele>
        <time>2016-03-07T13:53:16Z</time>
      </trkpt>
      <trkpt lat="48.21676" lon="-3.11955">
        <ele>156</ele>
        <time>2016-03-07T13:53:20Z</time>
      </trkpt>
      <trkpt lat="48.21673" lon="-3.11951">
        <ele>156</ele>
        <time>2016-03-07T13:53:24Z</time>
      </trkpt>
      <trkpt lat="48.2167" lon="-3.11946">
        <ele>156</ele>
        <time>2016-03-07T13:53:29Z</time>
      </trkpt>
      <trkpt lat="48.21668" lon="-3.11942">
        <ele>156</ele>
        <time>2016-03-07T13:53:32Z</time>
      </trkpt>
      <trkpt lat="48.21665" lon="-3.11937">
        <ele>156</ele>
        <time>2016-03-07T13:53:36Z</time>
      </trkpt>
      <trkpt lat="48.21662" lon="-3.11932">
        <ele>156</ele>
        <time>2016-03-07T13:53:40Z</time>
      </trkpt>
      <trkpt lat="48.21659" lon="-3.11926">
        <ele>156</ele>
        <time>2016-03-07T13:53:44Z</time>
      </trkpt>
      <trkpt lat="48.21657" lon="-3.11923">
        <ele>156</ele>
        <time>2016-03-07T13:53:48Z</time>
      </trkpt>
      <trkpt lat="48.21655" lon="-3.11917">
        <ele>156</ele>
        <time>2016-03-07T13:53:52Z</time>
      </trkpt>
      <trkpt lat="48.21654" lon="-3.11914">
        <ele>156</ele>
        <time>2016-03-07T13:53:57Z</time>
      </trkpt>
      <trkpt lat="48.21653" lon="-3.11912">
        <ele>156</ele>
        <time>2016-03-07T13:54:02Z</time>
      </trkpt>
      <trkpt lat="48.21652" lon="-3.1191">
        <ele>156</ele>
        <time>2016-03-07T13:54:06Z</time>
      </trkpt>
      <trkpt lat="48.21649" lon="-3.11906">
        <ele>156</ele>
        <time>2016-03-07T13:54:10Z</time>
      </trkpt>
      <trkpt lat="48.21647" lon="-3.119">
        <ele>156</ele>
        <time>2016-03-07T13:54:14Z</time>
      </trkpt>
      <trkpt lat="48.21644" lon="-3.11896">
        <ele>156</ele>
        <time>2016-03-07T13:54:18Z</time>
      </trkpt>
      <trkpt lat="48.21641" lon="-3.11892">
        <ele>156</ele>
        <time>2016-03-07T13:54:22Z</time>
      </trkpt>
      <trkpt lat="48.21638" lon="-3.11888">
        <ele>156</ele>
        <time>2016-03-07T13:54:26Z</time>
      </trkpt>
      <trkpt lat="48.21636" lon="-3.11884">
        <ele>157</ele>
        <time>2016-03-07T13:54:30Z</time>
      </trkpt>
      <trkpt lat="48.21634" lon="-3.11882">
        <ele>157</ele>
        <time>2016-03-07T13:54:34Z</time>
      </trkpt>
      <trkpt lat="48.21633" lon="-3.1188">
        <ele>157</ele>
        <time>2016-03-07T13:54:38Z</time>
      </trkpt>
      <trkpt lat="48.21632" lon="-3.11876">
        <ele>157</ele>
        <time>2016-03-07T13:54:42Z</time>
      </trkpt>
      <trkpt lat="48.21628" lon="-3.11871">
        <ele>158</ele>
        <time>2016-03-07T13:54:47Z</time>
      </trkpt>
      <trkpt lat="48.21629" lon="-3.11873">
        <ele>158</ele>
        <time>2016-03-07T13:54:50Z</time>
      </trkpt>
      <trkpt lat="48.21631" lon="-3.11875">
        <ele>159</ele>
        <time>2016-03-07T13:54:55Z</time>
      </trkpt>
      <trkpt lat="48.21631" lon="-3.11873">
        <ele>160</ele>
        <time>2016-03-07T13:55:04Z</time>
      </trkpt>
      <trkpt lat="48.21629" lon="-3.11872">
        <ele>160</ele>
        <time>2016-03-07T13:55:07Z</time>
      </trkpt>
      <trkpt lat="48.21627" lon="-3.11866">
        <ele>161</ele>
        <time>2016-03-07T13:55:11Z</time>
      </trkpt>
      <trkpt lat="48.21627" lon="-3.11864">
        <ele>161</ele>
        <time>2016-03-07T13:55:16Z</time>
      </trkpt>
      <trkpt lat="48.21624" lon="-3.11858">
        <ele>161</ele>
        <time>2016-03-07T13:55:21Z</time>
      </trkpt>
      <trkpt lat="48.21622" lon="-3.11854">
        <ele>161</ele>
        <time>2016-03-07T13:55:24Z</time>
      </trkpt>
      <trkpt lat="48.21619" lon="-3.11847">
        <ele>161</ele>
        <time>2016-03-07T13:55:28Z</time>
      </trkpt>
      <trkpt lat="48.21616" lon="-3.11841">
        <ele>161</ele>
        <time>2016-03-07T13:55:32Z</time>
      </trkpt>
      <trkpt lat="48.21614" lon="-3.11836">
        <ele>161</ele>
        <time>2016-03-07T13:55:35Z</time>
      </trkpt>
      <trkpt lat="48.21613" lon="-3.1183">
        <ele>161</ele>
        <time>2016-03-07T13:55:38Z</time>
      </trkpt>
      <trkpt lat="48.21609" lon="-3.11821">
        <ele>161</ele>
        <time>2016-03-07T13:55:43Z</time>
      </trkpt>
      <trkpt lat="48.21606" lon="-3.11816">
        <ele>161</ele>
        <time>2016-03-07T13:55:46Z</time>
      </trkpt>
      <trkpt lat="48.21603" lon="-3.11809">
        <ele>161</ele>
        <time>2016-03-07T13:55:50Z</time>
      </trkpt>
      <trkpt lat="48.21601" lon="-3.11804">
        <ele>161</ele>
        <time>2016-03-07T13:55:53Z</time>
      </trkpt>
      <trkpt lat="48.21598" lon="-3.11798">
        <ele>161</ele>
        <time>2016-03-07T13:55:57Z</time>
      </trkpt>
      <trkpt lat="48.21595" lon="-3.11792">
        <ele>161</ele>
        <time>2016-03-07T13:56:01Z</time>
      </trkpt>
      <trkpt lat="48.21594" lon="-3.11787">
        <ele>161</ele>
        <time>2016-03-07T13:56:04Z</time>
      </trkpt>
      <trkpt lat="48.21592" lon="-3.11781">
        <ele>161</ele>
        <time>2016-03-07T13:56:08Z</time>
      </trkpt>
      <trkpt lat="48.2159" lon="-3.11775">
        <ele>161</ele>
        <time>2016-03-07T13:56:11Z</time>
      </trkpt>
      <trkpt lat="48.21587" lon="-3.11769">
        <ele>161</ele>
        <time>2016-03-07T13:56:15Z</time>
      </trkpt>
      <trkpt lat="48.21585" lon="-3.11764">
        <ele>161</ele>
        <time>2016-03-07T13:56:18Z</time>
      </trkpt>
      <trkpt lat="48.21582" lon="-3.11758">
        <ele>161</ele>
        <time>2016-03-07T13:56:22Z</time>
      </trkpt>
      <trkpt lat="48.21581" lon="-3.11753">
        <ele>161</ele>
        <time>2016-03-07T13:56:25Z</time>
      </trkpt>
      <trkpt lat="48.21579" lon="-3.11746">
        <ele>161</ele>
        <time>2016-03-07T13:56:29Z</time>
      </trkpt>
      <trkpt lat="48.21577" lon="-3.1174">
        <ele>161</ele>
        <time>2016-03-07T13:56:33Z</time>
      </trkpt>
      <trkpt lat="48.21574" lon="-3.11733">
        <ele>161</ele>
        <time>2016-03-07T13:56:36Z</time>
      </trkpt>
      <trkpt lat="48.21572" lon="-3.11727">
        <ele>161</ele>
        <time>2016-03-07T13:56:39Z</time>
      </trkpt>
      <trkpt lat="48.2157" lon="-3.11721">
        <ele>161</ele>
        <time>2016-03-07T13:56:43Z</time>
      </trkpt>
      <trkpt lat="48.21569" lon="-3.11717">
        <ele>161</ele>
        <time>2016-03-07T13:56:46Z</time>
      </trkpt>
      <trkpt lat="48.21567" lon="-3.11712">
        <ele>161</ele>
        <time>2016-03-07T13:56:50Z</time>
      </trkpt>
      <trkpt lat="48.21566" lon="-3.11706">
        <ele>161</ele>
        <time>2016-03-07T13:56:54Z</time>
      </trkpt>
      <trkpt lat="48.21564" lon="-3.117">
        <ele>161</ele>
        <time>2016-03-07T13:56:58Z</time>
      </trkpt>
      <trkpt lat="48.21563" lon="-3.11695">
        <ele>161</ele>
        <time>2016-03-07T13:57:02Z</time>
      </trkpt>
      <trkpt lat="48.21561" lon="-3.11689">
        <ele>161</ele>
        <time>2016-03-07T13:57:06Z</time>
      </trkpt>
      <trkpt lat="48.2156" lon="-3.11684">
        <ele>161</ele>
        <time>2016-03-07T13:57:09Z</time>
      </trkpt>
      <trkpt lat="48.21558" lon="-3.1168">
        <ele>161</ele>
        <time>2016-03-07T13:57:12Z</time>
      </trkpt>
      <trkpt lat="48.21556" lon="-3.11672">
        <ele>161</ele>
        <time>2016-03-07T13:57:17Z</time>
      </trkpt>
      <trkpt lat="48.21554" lon="-3.11666">
        <ele>161</ele>
        <time>2016-03-07T13:57:21Z</time>
      </trkpt>
      <trkpt lat="48.21553" lon="-3.11661">
        <ele>161</ele>
        <time>2016-03-07T13:57:25Z</time>
      </trkpt>
      <trkpt lat="48.21551" lon="-3.11656">
        <ele>161</ele>
        <time>2016-03-07T13:57:28Z</time>
      </trkpt>
      <trkpt lat="48.2155" lon="-3.11652">
        <ele>161</ele>
        <time>2016-03-07T13:57:31Z</time>
      </trkpt>
      <trkpt lat="48.21549" lon="-3.11647">
        <ele>161</ele>
        <time>2016-03-07T13:57:34Z</time>
      </trkpt>
      <trkpt lat="48.21547" lon="-3.11641">
        <ele>161</ele>
        <time>2016-03-07T13:57:38Z</time>
      </trkpt>
      <trkpt lat="48.21546" lon="-3.11635">
        <ele>161</ele>
        <time>2016-03-07T13:57:42Z</time>
      </trkpt>
      <trkpt lat="48.21545" lon="-3.1163">
        <ele>161</ele>
        <time>2016-03-07T13:57:46Z</time>
      </trkpt>
      <trkpt lat="48.21544" lon="-3.11625">
        <ele>161</ele>
        <time>2016-03-07T13:57:49Z</time>
      </trkpt>
      <trkpt lat="48.21542" lon="-3.11617">
        <ele>161</ele>
        <time>2016-03-07T13:57:54Z</time>
      </trkpt>
      <trkpt lat="48.21542" lon="-3.11612">
        <ele>161</ele>
        <time>2016-03-07T13:57:57Z</time>
      </trkpt>
      <trkpt lat="48.2154" lon="-3.11608">
        <ele>161</ele>
        <time>2016-03-07T13:58:00Z</time>
      </trkpt>
      <trkpt lat="48.21539" lon="-3.11601">
        <ele>161</ele>
        <time>2016-03-07T13:58:04Z</time>
      </trkpt>
      <trkpt lat="48.21538" lon="-3.11596">
        <ele>161</ele>
        <time>2016-03-07T13:58:07Z</time>
      </trkpt>
      <trkpt lat="48.21537" lon="-3.11589">
        <ele>161</ele>
        <time>2016-03-07T13:58:11Z</time>
      </trkpt>
      <trkpt lat="48.21536" lon="-3.11583">
        <ele>161</ele>
        <time>2016-03-07T13:58:15Z</time>
      </trkpt>
      <trkpt lat="48.21534" lon="-3.11578">
        <ele>161</ele>
        <time>2016-03-07T13:58:18Z</time>
      </trkpt>
      <trkpt lat="48.21534" lon="-3.11573">
        <ele>161</ele>
        <time>2016-03-07T13:58:21Z</time>
      </trkpt>
      <trkpt lat="48.21532" lon="-3.11568">
        <ele>161</ele>
        <time>2016-03-07T13:58:24Z</time>
      </trkpt>
      <trkpt lat="48.21532" lon="-3.11563">
        <ele>161</ele>
        <time>2016-03-07T13:58:28Z</time>
      </trkpt>
      <trkpt lat="48.21531" lon="-3.11558">
        <ele>161</ele>
        <time>2016-03-07T13:58:32Z</time>
      </trkpt>
      <trkpt lat="48.21531" lon="-3.11552">
        <ele>161</ele>
        <time>2016-03-07T13:58:36Z</time>
      </trkpt>
      <trkpt lat="48.21531" lon="-3.11548">
        <ele>161</ele>
        <time>2016-03-07T13:58:39Z</time>
      </trkpt>
      <trkpt lat="48.2153" lon="-3.11543">
        <ele>161</ele>
        <time>2016-03-07T13:58:42Z</time>
      </trkpt>
      <trkpt lat="48.21528" lon="-3.11536">
        <ele>161</ele>
        <time>2016-03-07T13:58:47Z</time>
      </trkpt>
      <trkpt lat="48.21527" lon="-3.1153">
        <ele>161</ele>
        <time>2016-03-07T13:58:50Z</time>
      </trkpt>
      <trkpt lat="48.21527" lon="-3.11524">
        <ele>161</ele>
        <time>2016-03-07T13:58:54Z</time>
      </trkpt>
      <trkpt lat="48.21527" lon="-3.1152">
        <ele>161</ele>
        <time>2016-03-07T13:58:57Z</time>
      </trkpt>
      <trkpt lat="48.21526" lon="-3.11513">
        <ele>161</ele>
        <time>2016-03-07T13:59:01Z</time>
      </trkpt>
      <trkpt lat="48.21524" lon="-3.11506">
        <ele>161</ele>
        <time>2016-03-07T13:59:06Z</time>
      </trkpt>
      <trkpt lat="48.21523" lon="-3.115">
        <ele>161</ele>
        <time>2016-03-07T13:59:10Z</time>
      </trkpt>
      <trkpt lat="48.21522" lon="-3.11494">
        <ele>162</ele>
        <time>2016-03-07T13:59:14Z</time>
      </trkpt>
      <trkpt lat="48.21521" lon="-3.11487">
        <ele>162</ele>
        <time>2016-03-07T13:59:19Z</time>
      </trkpt>
      <trkpt lat="48.21521" lon="-3.11481">
        <ele>162</ele>
        <time>2016-03-07T13:59:23Z</time>
      </trkpt>
      <trkpt lat="48.21521" lon="-3.11474">
        <ele>162</ele>
        <time>2016-03-07T13:59:28Z</time>
      </trkpt>
      <trkpt lat="48.21521" lon="-3.11468">
        <ele>162</ele>
        <time>2016-03-07T13:59:32Z</time>
      </trkpt>
      <trkpt lat="48.21521" lon="-3.11461">
        <ele>162</ele>
        <time>2016-03-07T13:59:36Z</time>
      </trkpt>
      <trkpt lat="48.2152" lon="-3.11457">
        <ele>162</ele>
        <time>2016-03-07T13:59:39Z</time>
      </trkpt>
      <trkpt lat="48.21519" lon="-3.1145">
        <ele>162</ele>
        <time>2016-03-07T13:59:43Z</time>
      </trkpt>
      <trkpt lat="48.21519" lon="-3.11444">
        <ele>162</ele>
        <time>2016-03-07T13:59:47Z</time>
      </trkpt>
      <trkpt lat="48.21518" lon="-3.11437">
        <ele>162</ele>
        <time>2016-03-07T13:59:51Z</time>
      </trkpt>
      <trkpt lat="48.21517" lon="-3.11431">
        <ele>162</ele>
        <time>2016-03-07T13:59:54Z</time>
      </trkpt>
      <trkpt lat="48.21516" lon="-3.11425">
        <ele>162</ele>
        <time>2016-03-07T13:59:57Z</time>
      </trkpt>
      <trkpt lat="48.21515" lon="-3.11419">
        <ele>162</ele>
        <time>2016-03-07T14:00:01Z</time>
      </trkpt>
      <trkpt lat="48.21513" lon="-3.11413">
        <ele>163</ele>
        <time>2016-03-07T14:00:05Z</time>
      </trkpt>
      <trkpt lat="48.21513" lon="-3.11408">
        <ele>164</ele>
        <time>2016-03-07T14:00:08Z</time>
      </trkpt>
      <trkpt lat="48.21513" lon="-3.114">
        <ele>164</ele>
        <time>2016-03-07T14:00:12Z</time>
      </trkpt>
      <trkpt lat="48.21514" lon="-3.11394">
        <ele>164</ele>
        <time>2016-03-07T14:00:16Z</time>
      </trkpt>
      <trkpt lat="48.21514" lon="-3.11389">
        <ele>164</ele>
        <time>2016-03-07T14:00:19Z</time>
      </trkpt>
      <trkpt lat="48.21513" lon="-3.11382">
        <ele>164</ele>
        <time>2016-03-07T14:00:23Z</time>
      </trkpt>
      <trkpt lat="48.21513" lon="-3.11378">
        <ele>164</ele>
        <time>2016-03-07T14:00:26Z</time>
      </trkpt>
      <trkpt lat="48.21513" lon="-3.11373">
        <ele>164</ele>
        <time>2016-03-07T14:00:29Z</time>
      </trkpt>
      <trkpt lat="48.21513" lon="-3.11368">
        <ele>164</ele>
        <time>2016-03-07T14:00:33Z</time>
      </trkpt>
      <trkpt lat="48.21513" lon="-3.11363">
        <ele>164</ele>
        <time>2016-03-07T14:00:36Z</time>
      </trkpt>
      <trkpt lat="48.21511" lon="-3.11354">
        <ele>164</ele>
        <time>2016-03-07T14:00:40Z</time>
      </trkpt>
      <trkpt lat="48.21511" lon="-3.11348">
        <ele>164</ele>
        <time>2016-03-07T14:00:44Z</time>
      </trkpt>
      <trkpt lat="48.21511" lon="-3.11342">
        <ele>164</ele>
        <time>2016-03-07T14:00:48Z</time>
      </trkpt>
      <trkpt lat="48.21511" lon="-3.11336">
        <ele>164</ele>
        <time>2016-03-07T14:00:52Z</time>
      </trkpt>
      <trkpt lat="48.21511" lon="-3.11332">
        <ele>164</ele>
        <time>2016-03-07T14:00:56Z</time>
      </trkpt>
      <trkpt lat="48.2151" lon="-3.11327">
        <ele>164</ele>
        <time>2016-03-07T14:00:59Z</time>
      </trkpt>
      <trkpt lat="48.2151" lon="-3.11319">
        <ele>164</ele>
        <time>2016-03-07T14:01:04Z</time>
      </trkpt>
      <trkpt lat="48.2151" lon="-3.11311">
        <ele>164</ele>
        <time>2016-03-07T14:01:09Z</time>
      </trkpt>
      <trkpt lat="48.2151" lon="-3.11304">
        <ele>164</ele>
        <time>2016-03-07T14:01:13Z</time>
      </trkpt>
      <trkpt lat="48.21509" lon="-3.11299">
        <ele>164</ele>
        <time>2016-03-07T14:01:16Z</time>
      </trkpt>
      <trkpt lat="48.21509" lon="-3.11293">
        <ele>164</ele>
        <time>2016-03-07T14:01:19Z</time>
      </trkpt>
      <trkpt lat="48.21508" lon="-3.11286">
        <ele>164</ele>
        <time>2016-03-07T14:01:23Z</time>
      </trkpt>
      <trkpt lat="48.21507" lon="-3.1128">
        <ele>164</ele>
        <time>2016-03-07T14:01:26Z</time>
      </trkpt>
      <trkpt lat="48.21507" lon="-3.11274">
        <ele>164</ele>
        <time>2016-03-07T14:01:29Z</time>
      </trkpt>
      <trkpt lat="48.21506" lon="-3.11267">
        <ele>164</ele>
        <time>2016-03-07T14:01:33Z</time>
      </trkpt>
      <trkpt lat="48.21506" lon="-3.11261">
        <ele>164</ele>
        <time>2016-03-07T14:01:36Z</time>
      </trkpt>
      <trkpt lat="48.21505" lon="-3.11255">
        <ele>164</ele>
        <time>2016-03-07T14:01:40Z</time>
      </trkpt>
      <trkpt lat="48.21505" lon="-3.11248">
        <ele>164</ele>
        <time>2016-03-07T14:01:44Z</time>
      </trkpt>
      <trkpt lat="48.21503" lon="-3.11242">
        <ele>164</ele>
        <time>2016-03-07T14:01:47Z</time>
      </trkpt>
      <trkpt lat="48.21502" lon="-3.11235">
        <ele>164</ele>
        <time>2016-03-07T14:01:51Z</time>
      </trkpt>
      <trkpt lat="48.21502" lon="-3.1123">
        <ele>164</ele>
        <time>2016-03-07T14:01:54Z</time>
      </trkpt>
      <trkpt lat="48.21501" lon="-3.11225">
        <ele>164</ele>
        <time>2016-03-07T14:01:57Z</time>
      </trkpt>
      <trkpt lat="48.215" lon="-3.11217">
        <ele>164</ele>
        <time>2016-03-07T14:02:02Z</time>
      </trkpt>
      <trkpt lat="48.21498" lon="-3.1121">
        <ele>164</ele>
        <time>2016-03-07T14:02:06Z</time>
      </trkpt>
      <trkpt lat="48.21497" lon="-3.11205">
        <ele>164</ele>
        <time>2016-03-07T14:02:09Z</time>
      </trkpt>
      <trkpt lat="48.21496" lon="-3.112">
        <ele>164</ele>
        <time>2016-03-07T14:02:12Z</time>
      </trkpt>
      <trkpt lat="48.21494" lon="-3.11193">
        <ele>164</ele>
        <time>2016-03-07T14:02:16Z</time>
      </trkpt>
      <trkpt lat="48.21493" lon="-3.11189">
        <ele>164</ele>
        <time>2016-03-07T14:02:19Z</time>
      </trkpt>
      <trkpt lat="48.21491" lon="-3.11182">
        <ele>164</ele>
        <time>2016-03-07T14:02:24Z</time>
      </trkpt>
      <trkpt lat="48.2149" lon="-3.11176">
        <ele>164</ele>
        <time>2016-03-07T14:02:28Z</time>
      </trkpt>
      <trkpt lat="48.21488" lon="-3.11171">
        <ele>164</ele>
        <time>2016-03-07T14:02:32Z</time>
      </trkpt>
      <trkpt lat="48.21486" lon="-3.11165">
        <ele>164</ele>
        <time>2016-03-07T14:02:36Z</time>
      </trkpt>
      <trkpt lat="48.21484" lon="-3.11159">
        <ele>164</ele>
        <time>2016-03-07T14:02:40Z</time>
      </trkpt>
      <trkpt lat="48.21482" lon="-3.11153">
        <ele>164</ele>
        <time>2016-03-07T14:02:45Z</time>
      </trkpt>
      <trkpt lat="48.21479" lon="-3.11147">
        <ele>164</ele>
        <time>2016-03-07T14:02:49Z</time>
      </trkpt>
      <trkpt lat="48.21478" lon="-3.11142">
        <ele>164</ele>
        <time>2016-03-07T14:02:53Z</time>
      </trkpt>
      <trkpt lat="48.21476" lon="-3.11137">
        <ele>164</ele>
        <time>2016-03-07T14:02:57Z</time>
      </trkpt>
      <trkpt lat="48.21474" lon="-3.11132">
        <ele>164</ele>
        <time>2016-03-07T14:03:00Z</time>
      </trkpt>
      <trkpt lat="48.21473" lon="-3.11127">
        <ele>164</ele>
        <time>2016-03-07T14:03:04Z</time>
      </trkpt>
      <trkpt lat="48.2147" lon="-3.11122">
        <ele>164</ele>
        <time>2016-03-07T14:03:08Z</time>
      </trkpt>
      <trkpt lat="48.21468" lon="-3.11117">
        <ele>164</ele>
        <time>2016-03-07T14:03:12Z</time>
      </trkpt>
      <trkpt lat="48.21464" lon="-3.11112">
        <ele>164</ele>
        <time>2016-03-07T14:03:15Z</time>
      </trkpt>
      <trkpt lat="48.21461" lon="-3.11107">
        <ele>164</ele>
        <time>2016-03-07T14:03:19Z</time>
      </trkpt>
      <trkpt lat="48.21459" lon="-3.11103">
        <ele>164</ele>
        <time>2016-03-07T14:03:23Z</time>
      </trkpt>
      <trkpt lat="48.21456" lon="-3.11098">
        <ele>164</ele>
        <time>2016-03-07T14:03:27Z</time>
      </trkpt>
      <trkpt lat="48.21452" lon="-3.11093">
        <ele>164</ele>
        <time>2016-03-07T14:03:31Z</time>
      </trkpt>
      <trkpt lat="48.21449" lon="-3.11087">
        <ele>164</ele>
        <time>2016-03-07T14:03:35Z</time>
      </trkpt>
      <trkpt lat="48.21446" lon="-3.11083">
        <ele>164</ele>
        <time>2016-03-07T14:03:39Z</time>
      </trkpt>
      <trkpt lat="48.21443" lon="-3.11078">
        <ele>164</ele>
        <time>2016-03-07T14:03:43Z</time>
      </trkpt>
      <trkpt lat="48.21439" lon="-3.11073">
        <ele>166</ele>
        <time>2016-03-07T14:03:47Z</time>
      </trkpt>
      <trkpt lat="48.21437" lon="-3.11069">
        <ele>167</ele>
        <time>2016-03-07T14:03:51Z</time>
      </trkpt>
      <trkpt lat="48.21434" lon="-3.11064">
        <ele>167</ele>
        <time>2016-03-07T14:03:55Z</time>
      </trkpt>
      <trkpt lat="48.21432" lon="-3.11059">
        <ele>167</ele>
        <time>2016-03-07T14:03:59Z</time>
      </trkpt>
      <trkpt lat="48.2143" lon="-3.11055">
        <ele>168</ele>
        <time>2016-03-07T14:04:04Z</time>
      </trkpt>
      <trkpt lat="48.21428" lon="-3.11051">
        <ele>168</ele>
        <time>2016-03-07T14:04:08Z</time>
      </trkpt>
      <trkpt lat="48.21424" lon="-3.11047">
        <ele>168</ele>
        <time>2016-03-07T14:04:12Z</time>
      </trkpt>
      <trkpt lat="48.21421" lon="-3.11042">
        <ele>169</ele>
        <time>2016-03-07T14:04:16Z</time>
      </trkpt>
      <trkpt lat="48.21419" lon="-3.11038">
        <ele>169</ele>
        <time>2016-03-07T14:04:20Z</time>
      </trkpt>
      <trkpt lat="48.21416" lon="-3.11034">
        <ele>170</ele>
        <time>2016-03-07T14:04:24Z</time>
      </trkpt>
      <trkpt lat="48.21414" lon="-3.11029">
        <ele>170</ele>
        <time>2016-03-07T14:04:28Z</time>
      </trkpt>
      <trkpt lat="48.21412" lon="-3.11025">
        <ele>170</ele>
        <time>2016-03-07T14:04:32Z</time>
      </trkpt>
      <trkpt lat="48.21409" lon="-3.1102">
        <ele>170</ele>
        <time>2016-03-07T14:04:36Z</time>
      </trkpt>
      <trkpt lat="48.21407" lon="-3.11016">
        <ele>170</ele>
        <time>2016-03-07T14:04:40Z</time>
      </trkpt>
      <trkpt lat="48.21405" lon="-3.11013">
        <ele>170</ele>
        <time>2016-03-07T14:04:45Z</time>
      </trkpt>
      <trkpt lat="48.21404" lon="-3.11012">
        <ele>170</ele>
        <time>2016-03-07T14:04:49Z</time>
      </trkpt>
      <trkpt lat="48.21401" lon="-3.11011">
        <ele>173</ele>
        <time>2016-03-07T14:04:58Z</time>
      </trkpt>
      <trkpt lat="48.214" lon="-3.1101">
        <ele>174</ele>
        <time>2016-03-07T14:05:02Z</time>
      </trkpt>
      <trkpt lat="48.21398" lon="-3.11008">
        <ele>175</ele>
        <time>2016-03-07T14:05:06Z</time>
      </trkpt>
      <trkpt lat="48.21397" lon="-3.11007">
        <ele>175</ele>
        <time>2016-03-07T14:05:09Z</time>
      </trkpt>
      <trkpt lat="48.21396" lon="-3.11004">
        <ele>176</ele>
        <time>2016-03-07T14:05:12Z</time>
      </trkpt>
      <trkpt lat="48.21394" lon="-3.10999">
        <ele>176</ele>
        <time>2016-03-07T14:05:17Z</time>
      </trkpt>
      <trkpt lat="48.21391" lon="-3.10992">
        <ele>176</ele>
        <time>2016-03-07T14:05:21Z</time>
      </trkpt>
      <trkpt lat="48.21389" lon="-3.10988">
        <ele>176</ele>
        <time>2016-03-07T14:05:25Z</time>
      </trkpt>
      <trkpt lat="48.21386" lon="-3.10983">
        <ele>176</ele>
        <time>2016-03-07T14:05:29Z</time>
      </trkpt>
      <trkpt lat="48.21384" lon="-3.10979">
        <ele>176</ele>
        <time>2016-03-07T14:05:33Z</time>
      </trkpt>
      <trkpt lat="48.21382" lon="-3.10975">
        <ele>176</ele>
        <time>2016-03-07T14:05:37Z</time>
      </trkpt>
      <trkpt lat="48.2138" lon="-3.1097">
        <ele>176</ele>
        <time>2016-03-07T14:05:41Z</time>
      </trkpt>
      <trkpt lat="48.21377" lon="-3.10964">
        <ele>176</ele>
        <time>2016-03-07T14:05:45Z</time>
      </trkpt>
      <trkpt lat="48.21375" lon="-3.10959">
        <ele>176</ele>
        <time>2016-03-07T14:05:49Z</time>
      </trkpt>
      <trkpt lat="48.21372" lon="-3.10955">
        <ele>176</ele>
        <time>2016-03-07T14:05:53Z</time>
      </trkpt>
      <trkpt lat="48.2137" lon="-3.1095">
        <ele>176</ele>
        <time>2016-03-07T14:05:57Z</time>
      </trkpt>
      <trkpt lat="48.21367" lon="-3.10946">
        <ele>176</ele>
        <time>2016-03-07T14:06:01Z</time>
      </trkpt>
      <trkpt lat="48.21364" lon="-3.10942">
        <ele>176</ele>
        <time>2016-03-07T14:06:05Z</time>
      </trkpt>
      <trkpt lat="48.21362" lon="-3.10938">
        <ele>176</ele>
        <time>2016-03-07T14:06:09Z</time>
      </trkpt>
      <trkpt lat="48.21358" lon="-3.10935">
        <ele>176</ele>
        <time>2016-03-07T14:06:13Z</time>
      </trkpt>
      <trkpt lat="48.21355" lon="-3.10932">
        <ele>176</ele>
        <time>2016-03-07T14:06:16Z</time>
      </trkpt>
      <trkpt lat="48.21352" lon="-3.10929">
        <ele>176</ele>
        <time>2016-03-07T14:06:19Z</time>
      </trkpt>
      <trkpt lat="48.2135" lon="-3.10927">
        <ele>176</ele>
        <time>2016-03-07T14:06:22Z</time>
      </trkpt>
      <trkpt lat="48.21347" lon="-3.10922">
        <ele>176</ele>
        <time>2016-03-07T14:06:26Z</time>
      </trkpt>
      <trkpt lat="48.21344" lon="-3.10918">
        <ele>176</ele>
        <time>2016-03-07T14:06:30Z</time>
      </trkpt>
      <trkpt lat="48.21341" lon="-3.10914">
        <ele>176</ele>
        <time>2016-03-07T14:06:34Z</time>
      </trkpt>
      <trkpt lat="48.21339" lon="-3.1091">
        <ele>176</ele>
        <time>2016-03-07T14:06:38Z</time>
      </trkpt>
      <trkpt lat="48.21336" lon="-3.10905">
        <ele>176</ele>
        <time>2016-03-07T14:06:42Z</time>
      </trkpt>
      <trkpt lat="48.21332" lon="-3.10901">
        <ele>176</ele>
        <time>2016-03-07T14:06:46Z</time>
      </trkpt>
      <trkpt lat="48.21328" lon="-3.10898">
        <ele>176</ele>
        <time>2016-03-07T14:06:50Z</time>
      </trkpt>
      <trkpt lat="48.21326" lon="-3.10895">
        <ele>176</ele>
        <time>2016-03-07T14:06:56Z</time>
      </trkpt>
      <trkpt lat="48.21327" lon="-3.10895">
        <ele>176</ele>
        <time>2016-03-07T14:07:31Z</time>
      </trkpt>
      <trkpt lat="48.21327" lon="-3.10897">
        <ele>176</ele>
        <time>2016-03-07T14:07:54Z</time>
      </trkpt>
      <trkpt lat="48.21326" lon="-3.10899">
        <ele>176</ele>
        <time>2016-03-07T14:08:04Z</time>
      </trkpt>
      <trkpt lat="48.21327" lon="-3.10899">
        <ele>176</ele>
        <time>2016-03-07T14:08:09Z</time>
      </trkpt>
      <trkpt lat="48.21328" lon="-3.10899">
        <ele>176</ele>
        <time>2016-03-07T14:08:14Z</time>
      </trkpt>
      <trkpt lat="48.21329" lon="-3.10901">
        <ele>176</ele>
        <time>2016-03-07T14:08:28Z</time>
      </trkpt>
      <trkpt lat="48.21328" lon="-3.10901">
        <ele>176</ele>
        <time>2016-03-07T14:08:40Z</time>
      </trkpt>
      <trkpt lat="48.21326" lon="-3.109">
        <ele>176</ele>
        <time>2016-03-07T14:08:45Z</time>
      </trkpt>
      <trkpt lat="48.21323" lon="-3.109">
        <ele>176</ele>
        <time>2016-03-07T14:08:52Z</time>
      </trkpt>
      <trkpt lat="48.21322" lon="-3.10901">
        <ele>176</ele>
        <time>2016-03-07T14:09:00Z</time>
      </trkpt>
      <trkpt lat="48.2132" lon="-3.10904">
        <ele>176</ele>
        <time>2016-03-07T14:09:04Z</time>
      </trkpt>
      <trkpt lat="48.21318" lon="-3.10907">
        <ele>176</ele>
        <time>2016-03-07T14:09:08Z</time>
      </trkpt>
      <trkpt lat="48.21317" lon="-3.10909">
        <ele>176</ele>
        <time>2016-03-07T14:09:11Z</time>
      </trkpt>
      <trkpt lat="48.21316" lon="-3.10913">
        <ele>176</ele>
        <time>2016-03-07T14:09:15Z</time>
      </trkpt>
      <trkpt lat="48.21315" lon="-3.10917">
        <ele>176</ele>
        <time>2016-03-07T14:09:19Z</time>
      </trkpt>
      <trkpt lat="48.21314" lon="-3.10922">
        <ele>176</ele>
        <time>2016-03-07T14:09:23Z</time>
      </trkpt>
      <trkpt lat="48.21312" lon="-3.10927">
        <ele>176</ele>
        <time>2016-03-07T14:09:27Z</time>
      </trkpt>
      <trkpt lat="48.2131" lon="-3.10931">
        <ele>176</ele>
        <time>2016-03-07T14:09:31Z</time>
      </trkpt>
      <trkpt lat="48.21308" lon="-3.10936">
        <ele>175</ele>
        <time>2016-03-07T14:09:35Z</time>
      </trkpt>
      <trkpt lat="48.21306" lon="-3.10941">
        <ele>175</ele>
        <time>2016-03-07T14:09:39Z</time>
      </trkpt>
      <trkpt lat="48.21304" lon="-3.10945">
        <ele>174</ele>
        <time>2016-03-07T14:09:43Z</time>
      </trkpt>
      <trkpt lat="48.21302" lon="-3.1095">
        <ele>174</ele>
        <time>2016-03-07T14:09:47Z</time>
      </trkpt>
      <trkpt lat="48.213" lon="-3.10954">
        <ele>173</ele>
        <time>2016-03-07T14:09:51Z</time>
      </trkpt>
      <trkpt lat="48.21298" lon="-3.1096">
        <ele>173</ele>
        <time>2016-03-07T14:09:55Z</time>
      </trkpt>
      <trkpt lat="48.21295" lon="-3.10965">
        <ele>173</ele>
        <time>2016-03-07T14:09:59Z</time>
      </trkpt>
      <trkpt lat="48.21293" lon="-3.1097">
        <ele>173</ele>
        <time>2016-03-07T14:10:03Z</time>
      </trkpt>
      <trkpt lat="48.21291" lon="-3.10974">
        <ele>173</ele>
        <time>2016-03-07T14:10:07Z</time>
      </trkpt>
      <trkpt lat="48.2129" lon="-3.10976">
        <ele>173</ele>
        <time>2016-03-07T14:10:10Z</time>
      </trkpt>
      <trkpt lat="48.21288" lon="-3.1098">
        <ele>173</ele>
        <time>2016-03-07T14:10:15Z</time>
      </trkpt>
      <trkpt lat="48.21287" lon="-3.10981">
        <ele>173</ele>
        <time>2016-03-07T14:10:19Z</time>
      </trkpt>
      <trkpt lat="48.21284" lon="-3.10986">
        <ele>173</ele>
        <time>2016-03-07T14:10:23Z</time>
      </trkpt>
      <trkpt lat="48.21282" lon="-3.10991">
        <ele>173</ele>
        <time>2016-03-07T14:10:27Z</time>
      </trkpt>
      <trkpt lat="48.2128" lon="-3.10996">
        <ele>173</ele>
        <time>2016-03-07T14:10:31Z</time>
      </trkpt>
      <trkpt lat="48.21278" lon="-3.11001">
        <ele>173</ele>
        <time>2016-03-07T14:10:35Z</time>
      </trkpt>
      <trkpt lat="48.21276" lon="-3.11006">
        <ele>173</ele>
        <time>2016-03-07T14:10:39Z</time>
      </trkpt>
      <trkpt lat="48.21274" lon="-3.11011">
        <ele>173</ele>
        <time>2016-03-07T14:10:43Z</time>
      </trkpt>
      <trkpt lat="48.2127" lon="-3.11014">
        <ele>173</ele>
        <time>2016-03-07T14:10:47Z</time>
      </trkpt>
      <trkpt lat="48.21267" lon="-3.11016">
        <ele>173</ele>
        <time>2016-03-07T14:10:50Z</time>
      </trkpt>
      <trkpt lat="48.21264" lon="-3.11016">
        <ele>173</ele>
        <time>2016-03-07T14:10:53Z</time>
      </trkpt>
      <trkpt lat="48.2126" lon="-3.11015">
        <ele>173</ele>
        <time>2016-03-07T14:10:56Z</time>
      </trkpt>
      <trkpt lat="48.21257" lon="-3.11014">
        <ele>173</ele>
        <time>2016-03-07T14:11:00Z</time>
      </trkpt>
      <trkpt lat="48.21254" lon="-3.11013">
        <ele>173</ele>
        <time>2016-03-07T14:11:05Z</time>
      </trkpt>
      <trkpt lat="48.2125" lon="-3.11011">
        <ele>173</ele>
        <time>2016-03-07T14:11:27Z</time>
      </trkpt>
      <trkpt lat="48.21246" lon="-3.1101">
        <ele>173</ele>
        <time>2016-03-07T14:11:31Z</time>
      </trkpt>
      <trkpt lat="48.21243" lon="-3.11008">
        <ele>173</ele>
        <time>2016-03-07T14:11:34Z</time>
      </trkpt>
      <trkpt lat="48.21238" lon="-3.11006">
        <ele>173</ele>
        <time>2016-03-07T14:11:38Z</time>
      </trkpt>
      <trkpt lat="48.21236" lon="-3.11006">
        <ele>173</ele>
        <time>2016-03-07T14:11:41Z</time>
      </trkpt>
      <trkpt lat="48.21233" lon="-3.11004">
        <ele>173</ele>
        <time>2016-03-07T14:11:45Z</time>
      </trkpt>
      <trkpt lat="48.21229" lon="-3.11003">
        <ele>173</ele>
        <time>2016-03-07T14:11:48Z</time>
      </trkpt>
      <trkpt lat="48.21225" lon="-3.11003">
        <ele>173</ele>
        <time>2016-03-07T14:11:52Z</time>
      </trkpt>
      <trkpt lat="48.21223" lon="-3.11004">
        <ele>173</ele>
        <time>2016-03-07T14:11:55Z</time>
      </trkpt>
      <trkpt lat="48.2122" lon="-3.11006">
        <ele>174</ele>
        <time>2016-03-07T14:12:04Z</time>
      </trkpt>
      <trkpt lat="48.2122" lon="-3.11008">
        <ele>174</ele>
        <time>2016-03-07T14:12:19Z</time>
      </trkpt>
      <trkpt lat="48.2122" lon="-3.1101">
        <ele>174</ele>
        <time>2016-03-07T14:12:29Z</time>
      </trkpt>
      <trkpt lat="48.2122" lon="-3.11014">
        <ele>174</ele>
        <time>2016-03-07T14:12:33Z</time>
      </trkpt>
      <trkpt lat="48.21219" lon="-3.11018">
        <ele>174</ele>
        <time>2016-03-07T14:12:38Z</time>
      </trkpt>
      <trkpt lat="48.21219" lon="-3.1102">
        <ele>174</ele>
        <time>2016-03-07T14:12:42Z</time>
      </trkpt>
      <trkpt lat="48.21218" lon="-3.11022">
        <ele>174</ele>
        <time>2016-03-07T14:12:47Z</time>
      </trkpt>
      <trkpt lat="48.21218" lon="-3.11027">
        <ele>174</ele>
        <time>2016-03-07T14:12:51Z</time>
      </trkpt>
      <trkpt lat="48.21218" lon="-3.11032">
        <ele>174</ele>
        <time>2016-03-07T14:12:55Z</time>
      </trkpt>
      <trkpt lat="48.21217" lon="-3.11036">
        <ele>174</ele>
        <time>2016-03-07T14:12:59Z</time>
      </trkpt>
      <trkpt lat="48.21215" lon="-3.1104">
        <ele>174</ele>
        <time>2016-03-07T14:13:03Z</time>
      </trkpt>
      <trkpt lat="48.21212" lon="-3.11041">
        <ele>174</ele>
        <time>2016-03-07T14:13:08Z</time>
      </trkpt>
      <trkpt lat="48.2121" lon="-3.11039">
        <ele>174</ele>
        <time>2016-03-07T14:13:11Z</time>
      </trkpt>
      <trkpt lat="48.21208" lon="-3.11038">
        <ele>175</ele>
        <time>2016-03-07T14:13:14Z</time>
      </trkpt>
      <trkpt lat="48.21204" lon="-3.11036">
        <ele>176</ele>
        <time>2016-03-07T14:13:18Z</time>
      </trkpt>
      <trkpt lat="48.21201" lon="-3.11033">
        <ele>177</ele>
        <time>2016-03-07T14:13:23Z</time>
      </trkpt>
      <trkpt lat="48.21199" lon="-3.1103">
        <ele>177</ele>
        <time>2016-03-07T14:13:27Z</time>
      </trkpt>
      <trkpt lat="48.21197" lon="-3.11027">
        <ele>177</ele>
        <time>2016-03-07T14:13:31Z</time>
      </trkpt>
      <trkpt lat="48.21194" lon="-3.11027">
        <ele>177</ele>
        <time>2016-03-07T14:13:35Z</time>
      </trkpt>
      <trkpt lat="48.21191" lon="-3.1103">
        <ele>178</ele>
        <time>2016-03-07T14:13:38Z</time>
      </trkpt>
      <trkpt lat="48.21188" lon="-3.11031">
        <ele>178</ele>
        <time>2016-03-07T14:13:41Z</time>
      </trkpt>
      <trkpt lat="48.21185" lon="-3.11033">
        <ele>178</ele>
        <time>2016-03-07T14:13:45Z</time>
      </trkpt>
      <trkpt lat="48.21183" lon="-3.11034">
        <ele>178</ele>
        <time>2016-03-07T14:13:48Z</time>
      </trkpt>
      <trkpt lat="48.21181" lon="-3.11035">
        <ele>178</ele>
        <time>2016-03-07T14:13:52Z</time>
      </trkpt>
      <trkpt lat="48.21178" lon="-3.11038">
        <ele>178</ele>
        <time>2016-03-07T14:13:57Z</time>
      </trkpt>
      <trkpt lat="48.21177" lon="-3.11039">
        <ele>178</ele>
        <time>2016-03-07T14:14:00Z</time>
      </trkpt>
      <trkpt lat="48.21173" lon="-3.11041">
        <ele>178</ele>
        <time>2016-03-07T14:14:04Z</time>
      </trkpt>
      <trkpt lat="48.2117" lon="-3.11044">
        <ele>178</ele>
        <time>2016-03-07T14:14:08Z</time>
      </trkpt>
      <trkpt lat="48.21167" lon="-3.11047">
        <ele>178</ele>
        <time>2016-03-07T14:14:12Z</time>
      </trkpt>
      <trkpt lat="48.21164" lon="-3.11049">
        <ele>178</ele>
        <time>2016-03-07T14:14:15Z</time>
      </trkpt>
      <trkpt lat="48.2116" lon="-3.11051">
        <ele>178</ele>
        <time>2016-03-07T14:14:19Z</time>
      </trkpt>
      <trkpt lat="48.21156" lon="-3.11054">
        <ele>178</ele>
        <time>2016-03-07T14:14:23Z</time>
      </trkpt>
      <trkpt lat="48.21152" lon="-3.11056">
        <ele>178</ele>
        <time>2016-03-07T14:14:26Z</time>
      </trkpt>
      <trkpt lat="48.21149" lon="-3.11059">
        <ele>178</ele>
        <time>2016-03-07T14:14:29Z</time>
      </trkpt>
      <trkpt lat="48.21146" lon="-3.1106">
        <ele>178</ele>
        <time>2016-03-07T14:14:32Z</time>
      </trkpt>
      <trkpt lat="48.21142" lon="-3.11063">
        <ele>178</ele>
        <time>2016-03-07T14:14:36Z</time>
      </trkpt>
      <trkpt lat="48.21138" lon="-3.11066">
        <ele>178</ele>
        <time>2016-03-07T14:14:40Z</time>
      </trkpt>
      <trkpt lat="48.21135" lon="-3.11068">
        <ele>178</ele>
        <time>2016-03-07T14:14:44Z</time>
      </trkpt>
      <trkpt lat="48.21131" lon="-3.1107">
        <ele>178</ele>
        <time>2016-03-07T14:14:47Z</time>
      </trkpt>
      <trkpt lat="48.21127" lon="-3.11073">
        <ele>178</ele>
        <time>2016-03-07T14:14:51Z</time>
      </trkpt>
      <trkpt lat="48.21124" lon="-3.11076">
        <ele>178</ele>
        <time>2016-03-07T14:14:55Z</time>
      </trkpt>
      <trkpt lat="48.21121" lon="-3.11079">
        <ele>178</ele>
        <time>2016-03-07T14:14:59Z</time>
      </trkpt>
      <trkpt lat="48.21119" lon="-3.1108">
        <ele>178</ele>
        <time>2016-03-07T14:15:02Z</time>
      </trkpt>
      <trkpt lat="48.21118" lon="-3.11081">
        <ele>178</ele>
        <time>2016-03-07T14:15:08Z</time>
      </trkpt>
      <trkpt lat="48.21117" lon="-3.11082">
        <ele>178</ele>
        <time>2016-03-07T14:15:25Z</time>
      </trkpt>
      <trkpt lat="48.21116" lon="-3.11083">
        <ele>178</ele>
        <time>2016-03-07T14:15:40Z</time>
      </trkpt>
      <trkpt lat="48.21114" lon="-3.11083">
        <ele>178</ele>
        <time>2016-03-07T14:15:44Z</time>
      </trkpt>
      <trkpt lat="48.21113" lon="-3.11084">
        <ele>178</ele>
        <time>2016-03-07T14:15:51Z</time>
      </trkpt>
      <trkpt lat="48.21112" lon="-3.11084">
        <ele>178</ele>
        <time>2016-03-07T14:16:00Z</time>
      </trkpt>
      <trkpt lat="48.21111" lon="-3.11085">
        <ele>178</ele>
        <time>2016-03-07T14:16:05Z</time>
      </trkpt>
      <trkpt lat="48.2111" lon="-3.11086">
        <ele>178</ele>
        <time>2016-03-07T14:16:13Z</time>
      </trkpt>
      <trkpt lat="48.2111" lon="-3.11088">
        <ele>178</ele>
        <time>2016-03-07T14:16:21Z</time>
      </trkpt>
      <trkpt lat="48.21108" lon="-3.11088">
        <ele>178</ele>
        <time>2016-03-07T14:16:24Z</time>
      </trkpt>
      <trkpt lat="48.21107" lon="-3.11087">
        <ele>178</ele>
        <time>2016-03-07T14:16:35Z</time>
      </trkpt>
      <trkpt lat="48.21104" lon="-3.11087">
        <ele>178</ele>
        <time>2016-03-07T14:16:39Z</time>
      </trkpt>
      <trkpt lat="48.21101" lon="-3.11089">
        <ele>178</ele>
        <time>2016-03-07T14:16:44Z</time>
      </trkpt>
      <trkpt lat="48.21098" lon="-3.11091">
        <ele>178</ele>
        <time>2016-03-07T14:16:48Z</time>
      </trkpt>
      <trkpt lat="48.21094" lon="-3.11094">
        <ele>178</ele>
        <time>2016-03-07T14:16:52Z</time>
      </trkpt>
      <trkpt lat="48.2109" lon="-3.11095">
        <ele>178</ele>
        <time>2016-03-07T14:16:56Z</time>
      </trkpt>
      <trkpt lat="48.21087" lon="-3.11097">
        <ele>178</ele>
        <time>2016-03-07T14:17:00Z</time>
      </trkpt>
      <trkpt lat="48.21083" lon="-3.11099">
        <ele>178</ele>
        <time>2016-03-07T14:17:04Z</time>
      </trkpt>
      <trkpt lat="48.21082" lon="-3.11101">
        <ele>178</ele>
        <time>2016-03-07T14:17:07Z</time>
      </trkpt>
      <trkpt lat="48.21078" lon="-3.11102">
        <ele>178</ele>
        <time>2016-03-07T14:17:11Z</time>
      </trkpt>
      <trkpt lat="48.21074" lon="-3.11104">
        <ele>178</ele>
        <time>2016-03-07T14:17:15Z</time>
      </trkpt>
      <trkpt lat="48.21072" lon="-3.11106">
        <ele>178</ele>
        <time>2016-03-07T14:17:18Z</time>
      </trkpt>
      <trkpt lat="48.21069" lon="-3.11108">
        <ele>178</ele>
        <time>2016-03-07T14:17:23Z</time>
      </trkpt>
      <trkpt lat="48.21067" lon="-3.11109">
        <ele>178</ele>
        <time>2016-03-07T14:17:26Z</time>
      </trkpt>
      <trkpt lat="48.21064" lon="-3.11112">
        <ele>178</ele>
        <time>2016-03-07T14:17:30Z</time>
      </trkpt>
      <trkpt lat="48.2106" lon="-3.11114">
        <ele>178</ele>
        <time>2016-03-07T14:17:33Z</time>
      </trkpt>
      <trkpt lat="48.21056" lon="-3.11118">
        <ele>178</ele>
        <time>2016-03-07T14:17:36Z</time>
      </trkpt>
      <trkpt lat="48.21054" lon="-3.11119">
        <ele>177</ele>
        <time>2016-03-07T14:17:40Z</time>
      </trkpt>
      <trkpt lat="48.21051" lon="-3.1112">
        <ele>177</ele>
        <time>2016-03-07T14:17:44Z</time>
      </trkpt>
      <trkpt lat="48.21048" lon="-3.11121">
        <ele>176</ele>
        <time>2016-03-07T14:17:48Z</time>
      </trkpt>
      <trkpt lat="48.21045" lon="-3.11123">
        <ele>176</ele>
        <time>2016-03-07T14:17:51Z</time>
      </trkpt>
      <trkpt lat="48.21041" lon="-3.11125">
        <ele>176</ele>
        <time>2016-03-07T14:17:55Z</time>
      </trkpt>
      <trkpt lat="48.21038" lon="-3.11127">
        <ele>176</ele>
        <time>2016-03-07T14:17:58Z</time>
      </trkpt>
      <trkpt lat="48.21036" lon="-3.11129">
        <ele>176</ele>
        <time>2016-03-07T14:18:02Z</time>
      </trkpt>
      <trkpt lat="48.21033" lon="-3.11129">
        <ele>176</ele>
        <time>2016-03-07T14:18:07Z</time>
      </trkpt>
      <trkpt lat="48.2103" lon="-3.11132">
        <ele>176</ele>
        <time>2016-03-07T14:18:12Z</time>
      </trkpt>
      <trkpt lat="48.21027" lon="-3.11134">
        <ele>176</ele>
        <time>2016-03-07T14:18:15Z</time>
      </trkpt>
      <trkpt lat="48.21024" lon="-3.11135">
        <ele>176</ele>
        <time>2016-03-07T14:18:18Z</time>
      </trkpt>
      <trkpt lat="48.21022" lon="-3.11136">
        <ele>176</ele>
        <time>2016-03-07T14:18:21Z</time>
      </trkpt>
      <trkpt lat="48.21021" lon="-3.11138">
        <ele>176</ele>
        <time>2016-03-07T14:18:24Z</time>
      </trkpt>
      <trkpt lat="48.21017" lon="-3.11139">
        <ele>175</ele>
        <time>2016-03-07T14:18:28Z</time>
      </trkpt>
      <trkpt lat="48.21014" lon="-3.11141">
        <ele>173</ele>
        <time>2016-03-07T14:18:32Z</time>
      </trkpt>
      <trkpt lat="48.21013" lon="-3.11142">
        <ele>173</ele>
        <time>2016-03-07T14:18:35Z</time>
      </trkpt>
      <trkpt lat="48.21011" lon="-3.11144">
        <ele>173</ele>
        <time>2016-03-07T14:18:39Z</time>
      </trkpt>
      <trkpt lat="48.21008" lon="-3.11144">
        <ele>173</ele>
        <time>2016-03-07T14:18:43Z</time>
      </trkpt>
      <trkpt lat="48.21005" lon="-3.11147">
        <ele>173</ele>
        <time>2016-03-07T14:18:46Z</time>
      </trkpt>
      <trkpt lat="48.21003" lon="-3.11149">
        <ele>173</ele>
        <time>2016-03-07T14:18:49Z</time>
      </trkpt>
      <trkpt lat="48.21" lon="-3.11152">
        <ele>173</ele>
        <time>2016-03-07T14:18:52Z</time>
      </trkpt>
      <trkpt lat="48.20996" lon="-3.11154">
        <ele>172</ele>
        <time>2016-03-07T14:18:55Z</time>
      </trkpt>
      <trkpt lat="48.20992" lon="-3.11156">
        <ele>170</ele>
        <time>2016-03-07T14:18:59Z</time>
      </trkpt>
      <trkpt lat="48.20989" lon="-3.11158">
        <ele>169</ele>
        <time>2016-03-07T14:19:03Z</time>
      </trkpt>
      <trkpt lat="48.20986" lon="-3.1116">
        <ele>168</ele>
        <time>2016-03-07T14:19:07Z</time>
      </trkpt>
      <trkpt lat="48.20984" lon="-3.11163">
        <ele>167</ele>
        <time>2016-03-07T14:19:10Z</time>
      </trkpt>
      <trkpt lat="48.20981" lon="-3.11166">
        <ele>167</ele>
        <time>2016-03-07T14:19:15Z</time>
      </trkpt>
      <trkpt lat="48.20978" lon="-3.11168">
        <ele>167</ele>
        <time>2016-03-07T14:19:18Z</time>
      </trkpt>
      <trkpt lat="48.20974" lon="-3.11171">
        <ele>167</ele>
        <time>2016-03-07T14:19:22Z</time>
      </trkpt>
      <trkpt lat="48.20972" lon="-3.11173">
        <ele>167</ele>
        <time>2016-03-07T14:19:25Z</time>
      </trkpt>
      <trkpt lat="48.20969" lon="-3.11175">
        <ele>167</ele>
        <time>2016-03-07T14:19:29Z</time>
      </trkpt>
      <trkpt lat="48.20965" lon="-3.11176">
        <ele>167</ele>
        <time>2016-03-07T14:19:32Z</time>
      </trkpt>
      <trkpt lat="48.20962" lon="-3.11179">
        <ele>167</ele>
        <time>2016-03-07T14:19:36Z</time>
      </trkpt>
      <trkpt lat="48.2096" lon="-3.11181">
        <ele>167</ele>
        <time>2016-03-07T14:19:39Z</time>
      </trkpt>
      <trkpt lat="48.20958" lon="-3.11182">
        <ele>165</ele>
        <time>2016-03-07T14:19:42Z</time>
      </trkpt>
      <trkpt lat="48.20956" lon="-3.11184">
        <ele>165</ele>
        <time>2016-03-07T14:19:47Z</time>
      </trkpt>
      <trkpt lat="48.20953" lon="-3.11186">
        <ele>165</ele>
        <time>2016-03-07T14:19:51Z</time>
      </trkpt>
      <trkpt lat="48.2095" lon="-3.11189">
        <ele>166</ele>
        <time>2016-03-07T14:19:55Z</time>
      </trkpt>
      <trkpt lat="48.20945" lon="-3.11192">
        <ele>166</ele>
        <time>2016-03-07T14:19:59Z</time>
      </trkpt>
      <trkpt lat="48.20943" lon="-3.11193">
        <ele>166</ele>
        <time>2016-03-07T14:20:03Z</time>
      </trkpt>
      <trkpt lat="48.2094" lon="-3.11197">
        <ele>166</ele>
        <time>2016-03-07T14:20:07Z</time>
      </trkpt>
      <trkpt lat="48.20937" lon="-3.11199">
        <ele>166</ele>
        <time>2016-03-07T14:20:12Z</time>
      </trkpt>
      <trkpt lat="48.20934" lon="-3.11202">
        <ele>166</ele>
        <time>2016-03-07T14:20:16Z</time>
      </trkpt>
      <trkpt lat="48.20931" lon="-3.11204">
        <ele>165</ele>
        <time>2016-03-07T14:20:19Z</time>
      </trkpt>
      <trkpt lat="48.20928" lon="-3.11206">
        <ele>165</ele>
        <time>2016-03-07T14:20:24Z</time>
      </trkpt>
      <trkpt lat="48.20924" lon="-3.11209">
        <ele>165</ele>
        <time>2016-03-07T14:20:27Z</time>
      </trkpt>
      <trkpt lat="48.2092" lon="-3.11212">
        <ele>165</ele>
        <time>2016-03-07T14:20:31Z</time>
      </trkpt>
      <trkpt lat="48.20917" lon="-3.11214">
        <ele>165</ele>
        <time>2016-03-07T14:20:35Z</time>
      </trkpt>
      <trkpt lat="48.20914" lon="-3.11215">
        <ele>165</ele>
        <time>2016-03-07T14:20:39Z</time>
      </trkpt>
      <trkpt lat="48.20911" lon="-3.11215">
        <ele>165</ele>
        <time>2016-03-07T14:20:43Z</time>
      </trkpt>
      <trkpt lat="48.20908" lon="-3.11216">
        <ele>165</ele>
        <time>2016-03-07T14:20:46Z</time>
      </trkpt>
      <trkpt lat="48.20905" lon="-3.11217">
        <ele>165</ele>
        <time>2016-03-07T14:20:52Z</time>
      </trkpt>
      <trkpt lat="48.20903" lon="-3.11219">
        <ele>165</ele>
        <time>2016-03-07T14:20:56Z</time>
      </trkpt>
      <trkpt lat="48.20902" lon="-3.11219">
        <ele>165</ele>
        <time>2016-03-07T14:20:59Z</time>
      </trkpt>
      <trkpt lat="48.20901" lon="-3.1122">
        <ele>165</ele>
        <time>2016-03-07T14:21:02Z</time>
      </trkpt>
      <trkpt lat="48.20898" lon="-3.11221">
        <ele>165</ele>
        <time>2016-03-07T14:21:06Z</time>
      </trkpt>
      <trkpt lat="48.20895" lon="-3.11222">
        <ele>165</ele>
        <time>2016-03-07T14:21:10Z</time>
      </trkpt>
      <trkpt lat="48.20892" lon="-3.11223">
        <ele>165</ele>
        <time>2016-03-07T14:21:14Z</time>
      </trkpt>
      <trkpt lat="48.2089" lon="-3.11224">
        <ele>165</ele>
        <time>2016-03-07T14:21:19Z</time>
      </trkpt>
      <trkpt lat="48.20887" lon="-3.11224">
        <ele>165</ele>
        <time>2016-03-07T14:21:23Z</time>
      </trkpt>
      <trkpt lat="48.20883" lon="-3.11225">
        <ele>165</ele>
        <time>2016-03-07T14:21:27Z</time>
      </trkpt>
      <trkpt lat="48.20879" lon="-3.11225">
        <ele>165</ele>
        <time>2016-03-07T14:21:31Z</time>
      </trkpt>
      <trkpt lat="48.20876" lon="-3.11227">
        <ele>165</ele>
        <time>2016-03-07T14:21:35Z</time>
      </trkpt>
      <trkpt lat="48.20873" lon="-3.11228">
        <ele>165</ele>
        <time>2016-03-07T14:21:39Z</time>
      </trkpt>
      <trkpt lat="48.20871" lon="-3.11229">
        <ele>165</ele>
        <time>2016-03-07T14:21:43Z</time>
      </trkpt>
      <trkpt lat="48.20868" lon="-3.11229">
        <ele>165</ele>
        <time>2016-03-07T14:21:46Z</time>
      </trkpt>
      <trkpt lat="48.20865" lon="-3.11231">
        <ele>165</ele>
        <time>2016-03-07T14:21:49Z</time>
      </trkpt>
      <trkpt lat="48.20861" lon="-3.11232">
        <ele>165</ele>
        <time>2016-03-07T14:21:52Z</time>
      </trkpt>
      <trkpt lat="48.20858" lon="-3.11233">
        <ele>164</ele>
        <time>2016-03-07T14:21:56Z</time>
      </trkpt>
      <trkpt lat="48.20855" lon="-3.11233">
        <ele>164</ele>
        <time>2016-03-07T14:22:00Z</time>
      </trkpt>
      <trkpt lat="48.20852" lon="-3.11234">
        <ele>164</ele>
        <time>2016-03-07T14:22:03Z</time>
      </trkpt>
      <trkpt lat="48.20848" lon="-3.11236">
        <ele>164</ele>
        <time>2016-03-07T14:22:07Z</time>
      </trkpt>
      <trkpt lat="48.20845" lon="-3.11237">
        <ele>164</ele>
        <time>2016-03-07T14:22:11Z</time>
      </trkpt>
      <trkpt lat="48.20842" lon="-3.11239">
        <ele>164</ele>
        <time>2016-03-07T14:22:14Z</time>
      </trkpt>
      <trkpt lat="48.20837" lon="-3.11241">
        <ele>163</ele>
        <time>2016-03-07T14:22:18Z</time>
      </trkpt>
      <trkpt lat="48.20834" lon="-3.11242">
        <ele>162</ele>
        <time>2016-03-07T14:22:21Z</time>
      </trkpt>
      <trkpt lat="48.2083" lon="-3.11244">
        <ele>162</ele>
        <time>2016-03-07T14:22:25Z</time>
      </trkpt>
      <trkpt lat="48.20828" lon="-3.11244">
        <ele>162</ele>
        <time>2016-03-07T14:22:28Z</time>
      </trkpt>
      <trkpt lat="48.20825" lon="-3.11243">
        <ele>162</ele>
        <time>2016-03-07T14:22:32Z</time>
      </trkpt>
      <trkpt lat="48.20822" lon="-3.11242">
        <ele>162</ele>
        <time>2016-03-07T14:22:36Z</time>
      </trkpt>
      <trkpt lat="48.20817" lon="-3.11239">
        <ele>162</ele>
        <time>2016-03-07T14:22:40Z</time>
      </trkpt>
      <trkpt lat="48.20814" lon="-3.11236">
        <ele>162</ele>
        <time>2016-03-07T14:22:44Z</time>
      </trkpt>
      <trkpt lat="48.20811" lon="-3.11233">
        <ele>162</ele>
        <time>2016-03-07T14:22:48Z</time>
      </trkpt>
      <trkpt lat="48.20808" lon="-3.1123">
        <ele>162</ele>
        <time>2016-03-07T14:22:52Z</time>
      </trkpt>
      <trkpt lat="48.20804" lon="-3.11227">
        <ele>162</ele>
        <time>2016-03-07T14:22:56Z</time>
      </trkpt>
      <trkpt lat="48.20801" lon="-3.11223">
        <ele>162</ele>
        <time>2016-03-07T14:23:00Z</time>
      </trkpt>
      <trkpt lat="48.20799" lon="-3.11219">
        <ele>161</ele>
        <time>2016-03-07T14:23:04Z</time>
      </trkpt>
      <trkpt lat="48.20797" lon="-3.11215">
        <ele>161</ele>
        <time>2016-03-07T14:23:08Z</time>
      </trkpt>
      <trkpt lat="48.20795" lon="-3.11212">
        <ele>161</ele>
        <time>2016-03-07T14:23:12Z</time>
      </trkpt>
      <trkpt lat="48.20793" lon="-3.1121">
        <ele>161</ele>
        <time>2016-03-07T14:23:15Z</time>
      </trkpt>
      <trkpt lat="48.20791" lon="-3.11207">
        <ele>161</ele>
        <time>2016-03-07T14:23:19Z</time>
      </trkpt>
      <trkpt lat="48.20789" lon="-3.11202">
        <ele>161</ele>
        <time>2016-03-07T14:23:23Z</time>
      </trkpt>
      <trkpt lat="48.20787" lon="-3.11197">
        <ele>160</ele>
        <time>2016-03-07T14:23:27Z</time>
      </trkpt>
      <trkpt lat="48.20786" lon="-3.11192">
        <ele>159</ele>
        <time>2016-03-07T14:23:31Z</time>
      </trkpt>
      <trkpt lat="48.20785" lon="-3.11188">
        <ele>158</ele>
        <time>2016-03-07T14:23:35Z</time>
      </trkpt>
      <trkpt lat="48.20784" lon="-3.11182">
        <ele>157</ele>
        <time>2016-03-07T14:23:39Z</time>
      </trkpt>
      <trkpt lat="48.20783" lon="-3.11177">
        <ele>157</ele>
        <time>2016-03-07T14:23:43Z</time>
      </trkpt>
      <trkpt lat="48.20782" lon="-3.11172">
        <ele>156</ele>
        <time>2016-03-07T14:23:47Z</time>
      </trkpt>
      <trkpt lat="48.20782" lon="-3.11167">
        <ele>155</ele>
        <time>2016-03-07T14:23:51Z</time>
      </trkpt>
      <trkpt lat="48.20781" lon="-3.11164">
        <ele>154</ele>
        <time>2016-03-07T14:24:02Z</time>
      </trkpt>
      <trkpt lat="48.20781" lon="-3.11162">
        <ele>154</ele>
        <time>2016-03-07T14:24:18Z</time>
      </trkpt>
      <trkpt lat="48.20782" lon="-3.1116">
        <ele>154</ele>
        <time>2016-03-07T14:24:21Z</time>
      </trkpt>
      <trkpt lat="48.20782" lon="-3.11154">
        <ele>154</ele>
        <time>2016-03-07T14:24:25Z</time>
      </trkpt>
      <trkpt lat="48.20782" lon="-3.11152">
        <ele>153</ele>
        <time>2016-03-07T14:24:29Z</time>
      </trkpt>
      <trkpt lat="48.20782" lon="-3.11147">
        <ele>152</ele>
        <time>2016-03-07T14:24:33Z</time>
      </trkpt>
      <trkpt lat="48.20783" lon="-3.11142">
        <ele>150</ele>
        <time>2016-03-07T14:24:37Z</time>
      </trkpt>
      <trkpt lat="48.20785" lon="-3.11139">
        <ele>148</ele>
        <time>2016-03-07T14:24:41Z</time>
      </trkpt>
      <trkpt lat="48.20786" lon="-3.11135">
        <ele>147</ele>
        <time>2016-03-07T14:24:50Z</time>
      </trkpt>
      <trkpt lat="48.20787" lon="-3.11133">
        <ele>147</ele>
        <time>2016-03-07T14:25:00Z</time>
      </trkpt>
      <trkpt lat="48.20787" lon="-3.11132">
        <ele>147</ele>
        <time>2016-03-07T14:25:03Z</time>
      </trkpt>
      <trkpt lat="48.20789" lon="-3.11127">
        <ele>147</ele>
        <time>2016-03-07T14:25:06Z</time>
      </trkpt>
      <trkpt lat="48.2079" lon="-3.11125">
        <ele>147</ele>
        <time>2016-03-07T14:25:10Z</time>
      </trkpt>
      <trkpt lat="48.20792" lon="-3.11121">
        <ele>147</ele>
        <time>2016-03-07T14:25:14Z</time>
      </trkpt>
      <trkpt lat="48.20794" lon="-3.11116">
        <ele>147</ele>
        <time>2016-03-07T14:25:18Z</time>
      </trkpt>
      <trkpt lat="48.20793" lon="-3.11112">
        <ele>147</ele>
        <time>2016-03-07T14:25:22Z</time>
      </trkpt>
      <trkpt lat="48.20792" lon="-3.11108">
        <ele>146</ele>
        <time>2016-03-07T14:25:26Z</time>
      </trkpt>
      <trkpt lat="48.2079" lon="-3.11105">
        <ele>145</ele>
        <time>2016-03-07T14:25:30Z</time>
      </trkpt>
      <trkpt lat="48.20787" lon="-3.11103">
        <ele>145</ele>
        <time>2016-03-07T14:25:34Z</time>
      </trkpt>
      <trkpt lat="48.20784" lon="-3.11101">
        <ele>145</ele>
        <time>2016-03-07T14:25:38Z</time>
      </trkpt>
      <trkpt lat="48.20781" lon="-3.11099">
        <ele>145</ele>
        <time>2016-03-07T14:25:42Z</time>
      </trkpt>
      <trkpt lat="48.20778" lon="-3.11097">
        <ele>145</ele>
        <time>2016-03-07T14:25:46Z</time>
      </trkpt>
      <trkpt lat="48.20776" lon="-3.11094">
        <ele>145</ele>
        <time>2016-03-07T14:25:50Z</time>
      </trkpt>
      <trkpt lat="48.20775" lon="-3.11092">
        <ele>145</ele>
        <time>2016-03-07T14:25:53Z</time>
      </trkpt>
      <trkpt lat="48.20774" lon="-3.11089">
        <ele>144</ele>
        <time>2016-03-07T14:25:57Z</time>
      </trkpt>
      <trkpt lat="48.20774" lon="-3.11085">
        <ele>142</ele>
        <time>2016-03-07T14:26:01Z</time>
      </trkpt>
      <trkpt lat="48.20775" lon="-3.11081">
        <ele>141</ele>
        <time>2016-03-07T14:26:05Z</time>
      </trkpt>
      <trkpt lat="48.20776" lon="-3.11077">
        <ele>140</ele>
        <time>2016-03-07T14:26:09Z</time>
      </trkpt>
      <trkpt lat="48.20777" lon="-3.11075">
        <ele>140</ele>
        <time>2016-03-07T14:26:12Z</time>
      </trkpt>
      <trkpt lat="48.20778" lon="-3.11073">
        <ele>139</ele>
        <time>2016-03-07T14:26:15Z</time>
      </trkpt>
      <trkpt lat="48.20779" lon="-3.11071">
        <ele>138</ele>
        <time>2016-03-07T14:26:30Z</time>
      </trkpt>
      <trkpt lat="48.2078" lon="-3.11067">
        <ele>137</ele>
        <time>2016-03-07T14:26:34Z</time>
      </trkpt>
      <trkpt lat="48.20781" lon="-3.11066">
        <ele>137</ele>
        <time>2016-03-07T14:26:38Z</time>
      </trkpt>
      <trkpt lat="48.20782" lon="-3.11063">
        <ele>136</ele>
        <time>2016-03-07T14:26:41Z</time>
      </trkpt>
      <trkpt lat="48.20784" lon="-3.11059">
        <ele>135</ele>
        <time>2016-03-07T14:26:45Z</time>
      </trkpt>
      <trkpt lat="48.20786" lon="-3.11055">
        <ele>135</ele>
        <time>2016-03-07T14:26:49Z</time>
      </trkpt>
      <trkpt lat="48.20788" lon="-3.11052">
        <ele>135</ele>
        <time>2016-03-07T14:26:54Z</time>
      </trkpt>
      <trkpt lat="48.2079" lon="-3.11049">
        <ele>134</ele>
        <time>2016-03-07T14:26:57Z</time>
      </trkpt>
      <trkpt lat="48.20791" lon="-3.11047">
        <ele>133</ele>
        <time>2016-03-07T14:27:00Z</time>
      </trkpt>
      <trkpt lat="48.20791" lon="-3.11045">
        <ele>132</ele>
        <time>2016-03-07T14:27:03Z</time>
      </trkpt>
      <trkpt lat="48.20792" lon="-3.11042">
        <ele>131</ele>
        <time>2016-03-07T14:27:06Z</time>
      </trkpt>
      <trkpt lat="48.20791" lon="-3.1104">
        <ele>130</ele>
        <time>2016-03-07T14:27:09Z</time>
      </trkpt>
      <trkpt lat="48.2079" lon="-3.11035">
        <ele>129</ele>
        <time>2016-03-07T14:27:13Z</time>
      </trkpt>
      <trkpt lat="48.20789" lon="-3.11031">
        <ele>128</ele>
        <time>2016-03-07T14:27:17Z</time>
      </trkpt>
      <trkpt lat="48.20788" lon="-3.11026">
        <ele>127</ele>
        <time>2016-03-07T14:27:21Z</time>
      </trkpt>
      <trkpt lat="48.20786" lon="-3.11023">
        <ele>126</ele>
        <time>2016-03-07T14:27:24Z</time>
      </trkpt>
      <trkpt lat="48.20784" lon="-3.11019">
        <ele>126</ele>
        <time>2016-03-07T14:27:28Z</time>
      </trkpt>
      <trkpt lat="48.20784" lon="-3.11015">
        <ele>126</ele>
        <time>2016-03-07T14:27:33Z</time>
      </trkpt>
      <trkpt lat="48.20784" lon="-3.11013">
        <ele>126</ele>
        <time>2016-03-07T14:27:38Z</time>
      </trkpt>
      <trkpt lat="48.20784" lon="-3.11011">
        <ele>126</ele>
        <time>2016-03-07T14:27:45Z</time>
      </trkpt>
      <trkpt lat="48.20783" lon="-3.1101">
        <ele>126</ele>
        <time>2016-03-07T14:27:55Z</time>
      </trkpt>
      <trkpt lat="48.20781" lon="-3.11009">
        <ele>126</ele>
        <time>2016-03-07T14:28:00Z</time>
      </trkpt>
      <trkpt lat="48.20779" lon="-3.11006">
        <ele>126</ele>
        <time>2016-03-07T14:28:08Z</time>
      </trkpt>
      <trkpt lat="48.20777" lon="-3.11005">
        <ele>126</ele>
        <time>2016-03-07T14:28:12Z</time>
      </trkpt>
      <trkpt lat="48.20776" lon="-3.11003">
        <ele>126</ele>
        <time>2016-03-07T14:28:15Z</time>
      </trkpt>
      <trkpt lat="48.20775" lon="-3.11003">
        <ele>126</ele>
        <time>2016-03-07T14:28:29Z</time>
      </trkpt>
      <trkpt lat="48.20775" lon="-3.11001">
        <ele>126</ele>
        <time>2016-03-07T14:28:38Z</time>
      </trkpt>
      <trkpt lat="48.20775" lon="-3.10999">
        <ele>126</ele>
        <time>2016-03-07T14:29:00Z</time>
      </trkpt>
      <trkpt lat="48.20776" lon="-3.11">
        <ele>126</ele>
        <time>2016-03-07T14:29:12Z</time>
      </trkpt>
      <trkpt lat="48.20776" lon="-3.11001">
        <ele>126</ele>
        <time>2016-03-07T14:29:17Z</time>
      </trkpt>
      <trkpt lat="48.20777" lon="-3.11001">
        <ele>126</ele>
        <time>2016-03-07T14:29:30Z</time>
      </trkpt>
      <trkpt lat="48.20776" lon="-3.10999">
        <ele>128</ele>
        <time>2016-03-07T14:30:08Z</time>
      </trkpt>
      <trkpt lat="48.20776" lon="-3.10998">
        <ele>128</ele>
        <time>2016-03-07T14:30:15Z</time>
      </trkpt>
      <trkpt lat="48.20775" lon="-3.10996">
        <ele>128</ele>
        <time>2016-03-07T14:30:36Z</time>
      </trkpt>
      <trkpt lat="48.20774" lon="-3.10998">
        <ele>130</ele>
        <time>2016-03-07T14:30:51Z</time>
      </trkpt>
      <trkpt lat="48.20771" lon="-3.10997">
        <ele>131</ele>
        <time>2016-03-07T14:30:54Z</time>
      </trkpt>
      <trkpt lat="48.20768" lon="-3.10998">
        <ele>131</ele>
        <time>2016-03-07T14:30:58Z</time>
      </trkpt>
      <trkpt lat="48.20765" lon="-3.10999">
        <ele>131</ele>
        <time>2016-03-07T14:31:02Z</time>
      </trkpt>
      <trkpt lat="48.20762" lon="-3.10998">
        <ele>131</ele>
        <time>2016-03-07T14:31:10Z</time>
      </trkpt>
      <trkpt lat="48.20759" lon="-3.10998">
        <ele>131</ele>
        <time>2016-03-07T14:31:14Z</time>
      </trkpt>
      <trkpt lat="48.20757" lon="-3.10996">
        <ele>131</ele>
        <time>2016-03-07T14:31:18Z</time>
      </trkpt>
      <trkpt lat="48.20755" lon="-3.10991">
        <ele>131</ele>
        <time>2016-03-07T14:31:21Z</time>
      </trkpt>
      <trkpt lat="48.20753" lon="-3.10986">
        <ele>131</ele>
        <time>2016-03-07T14:31:24Z</time>
      </trkpt>
      <trkpt lat="48.20751" lon="-3.10982">
        <ele>130</ele>
        <time>2016-03-07T14:31:28Z</time>
      </trkpt>
      <trkpt lat="48.20749" lon="-3.1098">
        <ele>128</ele>
        <time>2016-03-07T14:31:34Z</time>
      </trkpt>
      <trkpt lat="48.20748" lon="-3.10978">
        <ele>127</ele>
        <time>2016-03-07T14:31:53Z</time>
      </trkpt>
      <trkpt lat="48.20747" lon="-3.10977">
        <ele>127</ele>
        <time>2016-03-07T14:31:57Z</time>
      </trkpt>
      <trkpt lat="48.20745" lon="-3.10977">
        <ele>127</ele>
        <time>2016-03-07T14:32:00Z</time>
      </trkpt>
      <trkpt lat="48.20744" lon="-3.10979">
        <ele>127</ele>
        <time>2016-03-07T14:32:03Z</time>
      </trkpt>
      <trkpt lat="48.20741" lon="-3.10981">
        <ele>127</ele>
        <time>2016-03-07T14:32:07Z</time>
      </trkpt>
      <trkpt lat="48.20738" lon="-3.10982">
        <ele>127</ele>
        <time>2016-03-07T14:32:11Z</time>
      </trkpt>
      <trkpt lat="48.20734" lon="-3.10983">
        <ele>127</ele>
        <time>2016-03-07T14:32:15Z</time>
      </trkpt>
      <trkpt lat="48.2073" lon="-3.10984">
        <ele>127</ele>
        <time>2016-03-07T14:32:18Z</time>
      </trkpt>
      <trkpt lat="48.20727" lon="-3.10982">
        <ele>127</ele>
        <time>2016-03-07T14:32:22Z</time>
      </trkpt>
      <trkpt lat="48.20724" lon="-3.10982">
        <ele>127</ele>
        <time>2016-03-07T14:32:26Z</time>
      </trkpt>
      <trkpt lat="48.20722" lon="-3.10985">
        <ele>127</ele>
        <time>2016-03-07T14:32:30Z</time>
      </trkpt>
      <trkpt lat="48.20718" lon="-3.1099">
        <ele>127</ele>
        <time>2016-03-07T14:32:34Z</time>
      </trkpt>
      <trkpt lat="48.20714" lon="-3.10992">
        <ele>127</ele>
        <time>2016-03-07T14:32:37Z</time>
      </trkpt>
      <trkpt lat="48.20713" lon="-3.10991">
        <ele>127</ele>
        <time>2016-03-07T14:32:40Z</time>
      </trkpt>
      <trkpt lat="48.20712" lon="-3.1099">
        <ele>127</ele>
        <time>2016-03-07T14:32:53Z</time>
      </trkpt>
      <trkpt lat="48.2071" lon="-3.10991">
        <ele>126</ele>
        <time>2016-03-07T14:33:16Z</time>
      </trkpt>
      <trkpt lat="48.20707" lon="-3.10992">
        <ele>126</ele>
        <time>2016-03-07T14:33:20Z</time>
      </trkpt>
      <trkpt lat="48.20704" lon="-3.10994">
        <ele>125</ele>
        <time>2016-03-07T14:33:24Z</time>
      </trkpt>
      <trkpt lat="48.20702" lon="-3.10995">
        <ele>125</ele>
        <time>2016-03-07T14:33:27Z</time>
      </trkpt>
      <trkpt lat="48.20701" lon="-3.10996">
        <ele>125</ele>
        <time>2016-03-07T14:33:30Z</time>
      </trkpt>
      <trkpt lat="48.207" lon="-3.10997">
        <ele>125</ele>
        <time>2016-03-07T14:33:44Z</time>
      </trkpt>
      <trkpt lat="48.20699" lon="-3.10997">
        <ele>125</ele>
        <time>2016-03-07T14:33:48Z</time>
      </trkpt>
      <trkpt lat="48.207" lon="-3.10997">
        <ele>120</ele>
        <time>2016-03-07T14:33:58Z</time>
      </trkpt>
      <trkpt lat="48.20701" lon="-3.10999">
        <ele>119</ele>
        <time>2016-03-07T14:34:05Z</time>
      </trkpt>
      <trkpt lat="48.207" lon="-3.10998">
        <ele>119</ele>
        <time>2016-03-07T14:35:01Z</time>
      </trkpt>
      <trkpt lat="48.20701" lon="-3.11">
        <ele>121</ele>
        <time>2016-03-07T14:35:18Z</time>
      </trkpt>
      <trkpt lat="48.207" lon="-3.10998">
        <ele>123</ele>
        <time>2016-03-07T14:35:48Z</time>
      </trkpt>
      <trkpt lat="48.207" lon="-3.11">
        <ele>123</ele>
        <time>2016-03-07T14:36:12Z</time>
      </trkpt>
      <trkpt lat="48.20699" lon="-3.11004">
        <ele>123</ele>
        <time>2016-03-07T14:36:16Z</time>
      </trkpt>
      <trkpt lat="48.20698" lon="-3.11006">
        <ele>123</ele>
        <time>2016-03-07T14:36:22Z</time>
      </trkpt>
      <trkpt lat="48.20695" lon="-3.11008">
        <ele>123</ele>
        <time>2016-03-07T14:36:26Z</time>
      </trkpt>
      <trkpt lat="48.20693" lon="-3.1101">
        <ele>123</ele>
        <time>2016-03-07T14:36:30Z</time>
      </trkpt>
      <trkpt lat="48.2069" lon="-3.11011">
        <ele>123</ele>
        <time>2016-03-07T14:36:34Z</time>
      </trkpt>
      <trkpt lat="48.20688" lon="-3.11013">
        <ele>123</ele>
        <time>2016-03-07T14:36:38Z</time>
      </trkpt>
      <trkpt lat="48.20685" lon="-3.11015">
        <ele>123</ele>
        <time>2016-03-07T14:36:42Z</time>
      </trkpt>
      <trkpt lat="48.20682" lon="-3.11017">
        <ele>123</ele>
        <time>2016-03-07T14:36:46Z</time>
      </trkpt>
      <trkpt lat="48.20678" lon="-3.11018">
        <ele>123</ele>
        <time>2016-03-07T14:36:50Z</time>
      </trkpt>
      <trkpt lat="48.20675" lon="-3.1102">
        <ele>123</ele>
        <time>2016-03-07T14:36:54Z</time>
      </trkpt>
      <trkpt lat="48.20672" lon="-3.11021">
        <ele>123</ele>
        <time>2016-03-07T14:36:58Z</time>
      </trkpt>
      <trkpt lat="48.20668" lon="-3.11023">
        <ele>123</ele>
        <time>2016-03-07T14:37:02Z</time>
      </trkpt>
      <trkpt lat="48.20665" lon="-3.11024">
        <ele>123</ele>
        <time>2016-03-07T14:37:06Z</time>
      </trkpt>
      <trkpt lat="48.20664" lon="-3.11026">
        <ele>123</ele>
        <time>2016-03-07T14:37:09Z</time>
      </trkpt>
      <trkpt lat="48.20661" lon="-3.11027">
        <ele>123</ele>
        <time>2016-03-07T14:37:13Z</time>
      </trkpt>
      <trkpt lat="48.20658" lon="-3.11028">
        <ele>123</ele>
        <time>2016-03-07T14:37:17Z</time>
      </trkpt>
      <trkpt lat="48.20656" lon="-3.1103">
        <ele>123</ele>
        <time>2016-03-07T14:37:21Z</time>
      </trkpt>
      <trkpt lat="48.20652" lon="-3.11031">
        <ele>123</ele>
        <time>2016-03-07T14:37:25Z</time>
      </trkpt>
      <trkpt lat="48.20649" lon="-3.11032">
        <ele>123</ele>
        <time>2016-03-07T14:37:29Z</time>
      </trkpt>
      <trkpt lat="48.20646" lon="-3.11033">
        <ele>123</ele>
        <time>2016-03-07T14:37:32Z</time>
      </trkpt>
      <trkpt lat="48.20644" lon="-3.11031">
        <ele>123</ele>
        <time>2016-03-07T14:37:36Z</time>
      </trkpt>
      <trkpt lat="48.20643" lon="-3.11032">
        <ele>123</ele>
        <time>2016-03-07T14:37:40Z</time>
      </trkpt>
      <trkpt lat="48.20639" lon="-3.11034">
        <ele>123</ele>
        <time>2016-03-07T14:37:44Z</time>
      </trkpt>
      <trkpt lat="48.20636" lon="-3.11036">
        <ele>123</ele>
        <time>2016-03-07T14:37:48Z</time>
      </trkpt>
      <trkpt lat="48.20631" lon="-3.11037">
        <ele>123</ele>
        <time>2016-03-07T14:37:52Z</time>
      </trkpt>
      <trkpt lat="48.20627" lon="-3.11039">
        <ele>123</ele>
        <time>2016-03-07T14:37:56Z</time>
      </trkpt>
      <trkpt lat="48.20624" lon="-3.11039">
        <ele>123</ele>
        <time>2016-03-07T14:38:00Z</time>
      </trkpt>
      <trkpt lat="48.20621" lon="-3.1104">
        <ele>123</ele>
        <time>2016-03-07T14:38:03Z</time>
      </trkpt>
      <trkpt lat="48.20618" lon="-3.11041">
        <ele>123</ele>
        <time>2016-03-07T14:38:07Z</time>
      </trkpt>
      <trkpt lat="48.20615" lon="-3.11042">
        <ele>123</ele>
        <time>2016-03-07T14:38:10Z</time>
      </trkpt>
      <trkpt lat="48.20612" lon="-3.11042">
        <ele>123</ele>
        <time>2016-03-07T14:38:13Z</time>
      </trkpt>
      <trkpt lat="48.20609" lon="-3.11042">
        <ele>123</ele>
        <time>2016-03-07T14:38:16Z</time>
      </trkpt>
      <trkpt lat="48.20605" lon="-3.11043">
        <ele>123</ele>
        <time>2016-03-07T14:38:20Z</time>
      </trkpt>
      <trkpt lat="48.20601" lon="-3.11044">
        <ele>123</ele>
        <time>2016-03-07T14:38:24Z</time>
      </trkpt>
      <trkpt lat="48.20598" lon="-3.11047">
        <ele>123</ele>
        <time>2016-03-07T14:38:28Z</time>
      </trkpt>
      <trkpt lat="48.20596" lon="-3.11048">
        <ele>123</ele>
        <time>2016-03-07T14:38:32Z</time>
      </trkpt>
      <trkpt lat="48.20593" lon="-3.11051">
        <ele>123</ele>
        <time>2016-03-07T14:38:36Z</time>
      </trkpt>
      <trkpt lat="48.2059" lon="-3.11055">
        <ele>123</ele>
        <time>2016-03-07T14:38:40Z</time>
      </trkpt>
      <trkpt lat="48.20587" lon="-3.1106">
        <ele>123</ele>
        <time>2016-03-07T14:38:44Z</time>
      </trkpt>
      <trkpt lat="48.20584" lon="-3.11064">
        <ele>123</ele>
        <time>2016-03-07T14:38:48Z</time>
      </trkpt>
      <trkpt lat="48.20582" lon="-3.11067">
        <ele>123</ele>
        <time>2016-03-07T14:38:52Z</time>
      </trkpt>
      <trkpt lat="48.20579" lon="-3.11071">
        <ele>123</ele>
        <time>2016-03-07T14:38:56Z</time>
      </trkpt>
      <trkpt lat="48.20578" lon="-3.11076">
        <ele>123</ele>
        <time>2016-03-07T14:39:00Z</time>
      </trkpt>
      <trkpt lat="48.20577" lon="-3.1108">
        <ele>123</ele>
        <time>2016-03-07T14:39:05Z</time>
      </trkpt>
      <trkpt lat="48.20576" lon="-3.11086">
        <ele>123</ele>
        <time>2016-03-07T14:39:09Z</time>
      </trkpt>
      <trkpt lat="48.20576" lon="-3.11092">
        <ele>123</ele>
        <time>2016-03-07T14:39:13Z</time>
      </trkpt>
      <trkpt lat="48.20576" lon="-3.11098">
        <ele>122</ele>
        <time>2016-03-07T14:39:17Z</time>
      </trkpt>
      <trkpt lat="48.20576" lon="-3.11103">
        <ele>122</ele>
        <time>2016-03-07T14:39:21Z</time>
      </trkpt>
      <trkpt lat="48.20576" lon="-3.11107">
        <ele>122</ele>
        <time>2016-03-07T14:39:25Z</time>
      </trkpt>
      <trkpt lat="48.20577" lon="-3.11112">
        <ele>122</ele>
        <time>2016-03-07T14:39:28Z</time>
      </trkpt>
      <trkpt lat="48.20577" lon="-3.11118">
        <ele>122</ele>
        <time>2016-03-07T14:39:32Z</time>
      </trkpt>
      <trkpt lat="48.20576" lon="-3.11124">
        <ele>122</ele>
        <time>2016-03-07T14:39:36Z</time>
      </trkpt>
      <trkpt lat="48.20575" lon="-3.1113">
        <ele>122</ele>
        <time>2016-03-07T14:39:40Z</time>
      </trkpt>
      <trkpt lat="48.20575" lon="-3.11135">
        <ele>122</ele>
        <time>2016-03-07T14:39:44Z</time>
      </trkpt>
      <trkpt lat="48.20574" lon="-3.11141">
        <ele>122</ele>
        <time>2016-03-07T14:39:48Z</time>
      </trkpt>
      <trkpt lat="48.20574" lon="-3.11145">
        <ele>122</ele>
        <time>2016-03-07T14:39:51Z</time>
      </trkpt>
      <trkpt lat="48.20574" lon="-3.11151">
        <ele>122</ele>
        <time>2016-03-07T14:39:55Z</time>
      </trkpt>
      <trkpt lat="48.20574" lon="-3.11156">
        <ele>122</ele>
        <time>2016-03-07T14:39:59Z</time>
      </trkpt>
      <trkpt lat="48.20574" lon="-3.11161">
        <ele>122</ele>
        <time>2016-03-07T14:40:02Z</time>
      </trkpt>
      <trkpt lat="48.20573" lon="-3.11167">
        <ele>122</ele>
        <time>2016-03-07T14:40:06Z</time>
      </trkpt>
      <trkpt lat="48.20573" lon="-3.11172">
        <ele>122</ele>
        <time>2016-03-07T14:40:10Z</time>
      </trkpt>
      <trkpt lat="48.20573" lon="-3.11176">
        <ele>122</ele>
        <time>2016-03-07T14:40:13Z</time>
      </trkpt>
      <trkpt lat="48.20573" lon="-3.11181">
        <ele>122</ele>
        <time>2016-03-07T14:40:17Z</time>
      </trkpt>
      <trkpt lat="48.20573" lon="-3.11185">
        <ele>122</ele>
        <time>2016-03-07T14:40:21Z</time>
      </trkpt>
      <trkpt lat="48.20574" lon="-3.11189">
        <ele>122</ele>
        <time>2016-03-07T14:40:25Z</time>
      </trkpt>
      <trkpt lat="48.20575" lon="-3.11194">
        <ele>122</ele>
        <time>2016-03-07T14:40:29Z</time>
      </trkpt>
      <trkpt lat="48.20575" lon="-3.11199">
        <ele>122</ele>
        <time>2016-03-07T14:40:33Z</time>
      </trkpt>
      <trkpt lat="48.20576" lon="-3.11205">
        <ele>122</ele>
        <time>2016-03-07T14:40:37Z</time>
      </trkpt>
      <trkpt lat="48.20577" lon="-3.1121">
        <ele>122</ele>
        <time>2016-03-07T14:40:41Z</time>
      </trkpt>
      <trkpt lat="48.20578" lon="-3.11215">
        <ele>122</ele>
        <time>2016-03-07T14:40:45Z</time>
      </trkpt>
      <trkpt lat="48.20579" lon="-3.1122">
        <ele>122</ele>
        <time>2016-03-07T14:40:49Z</time>
      </trkpt>
      <trkpt lat="48.2058" lon="-3.11225">
        <ele>122</ele>
        <time>2016-03-07T14:40:53Z</time>
      </trkpt>
      <trkpt lat="48.20581" lon="-3.11229">
        <ele>122</ele>
        <time>2016-03-07T14:40:57Z</time>
      </trkpt>
      <trkpt lat="48.20582" lon="-3.11234">
        <ele>122</ele>
        <time>2016-03-07T14:41:01Z</time>
      </trkpt>
      <trkpt lat="48.20583" lon="-3.11239">
        <ele>122</ele>
        <time>2016-03-07T14:41:05Z</time>
      </trkpt>
      <trkpt lat="48.20585" lon="-3.11244">
        <ele>122</ele>
        <time>2016-03-07T14:41:09Z</time>
      </trkpt>
      <trkpt lat="48.20586" lon="-3.11249">
        <ele>122</ele>
        <time>2016-03-07T14:41:13Z</time>
      </trkpt>
      <trkpt lat="48.20586" lon="-3.11253">
        <ele>122</ele>
        <time>2016-03-07T14:41:17Z</time>
      </trkpt>
      <trkpt lat="48.20587" lon="-3.11257">
        <ele>122</ele>
        <time>2016-03-07T14:41:21Z</time>
      </trkpt>
      <trkpt lat="48.20588" lon="-3.11262">
        <ele>122</ele>
        <time>2016-03-07T14:41:26Z</time>
      </trkpt>
      <trkpt lat="48.20589" lon="-3.11266">
        <ele>122</ele>
        <time>2016-03-07T14:41:30Z</time>
      </trkpt>
      <trkpt lat="48.2059" lon="-3.1127">
        <ele>122</ele>
        <time>2016-03-07T14:41:34Z</time>
      </trkpt>
      <trkpt lat="48.20591" lon="-3.11274">
        <ele>122</ele>
        <time>2016-03-07T14:41:39Z</time>
      </trkpt>
      <trkpt lat="48.20593" lon="-3.11278">
        <ele>122</ele>
        <time>2016-03-07T14:41:43Z</time>
      </trkpt>
      <trkpt lat="48.20594" lon="-3.11284">
        <ele>122</ele>
        <time>2016-03-07T14:41:47Z</time>
      </trkpt>
      <trkpt lat="48.20596" lon="-3.1129">
        <ele>122</ele>
        <time>2016-03-07T14:41:51Z</time>
      </trkpt>
      <trkpt lat="48.20598" lon="-3.11294">
        <ele>122</ele>
        <time>2016-03-07T14:41:55Z</time>
      </trkpt>
      <trkpt lat="48.206" lon="-3.11299">
        <ele>122</ele>
        <time>2016-03-07T14:41:59Z</time>
      </trkpt>
      <trkpt lat="48.20601" lon="-3.11303">
        <ele>122</ele>
        <time>2016-03-07T14:42:02Z</time>
      </trkpt>
      <trkpt lat="48.20603" lon="-3.11307">
        <ele>122</ele>
        <time>2016-03-07T14:42:05Z</time>
      </trkpt>
      <trkpt lat="48.20605" lon="-3.11311">
        <ele>122</ele>
        <time>2016-03-07T14:42:09Z</time>
      </trkpt>
      <trkpt lat="48.20607" lon="-3.11315">
        <ele>122</ele>
        <time>2016-03-07T14:42:13Z</time>
      </trkpt>
      <trkpt lat="48.2061" lon="-3.1132">
        <ele>122</ele>
        <time>2016-03-07T14:42:17Z</time>
      </trkpt>
      <trkpt lat="48.20612" lon="-3.11323">
        <ele>122</ele>
        <time>2016-03-07T14:42:20Z</time>
      </trkpt>
      <trkpt lat="48.20613" lon="-3.11328">
        <ele>122</ele>
        <time>2016-03-07T14:42:24Z</time>
      </trkpt>
      <trkpt lat="48.20615" lon="-3.11331">
        <ele>122</ele>
        <time>2016-03-07T14:42:28Z</time>
      </trkpt>
      <trkpt lat="48.20617" lon="-3.11335">
        <ele>122</ele>
        <time>2016-03-07T14:42:32Z</time>
      </trkpt>
      <trkpt lat="48.2062" lon="-3.11339">
        <ele>122</ele>
        <time>2016-03-07T14:42:36Z</time>
      </trkpt>
      <trkpt lat="48.20622" lon="-3.11342">
        <ele>122</ele>
        <time>2016-03-07T14:42:39Z</time>
      </trkpt>
      <trkpt lat="48.20624" lon="-3.11346">
        <ele>122</ele>
        <time>2016-03-07T14:42:43Z</time>
      </trkpt>
      <trkpt lat="48.20626" lon="-3.1135">
        <ele>122</ele>
        <time>2016-03-07T14:42:47Z</time>
      </trkpt>
      <trkpt lat="48.20629" lon="-3.11354">
        <ele>122</ele>
        <time>2016-03-07T14:42:51Z</time>
      </trkpt>
      <trkpt lat="48.20633" lon="-3.11359">
        <ele>122</ele>
        <time>2016-03-07T14:42:55Z</time>
      </trkpt>
      <trkpt lat="48.20635" lon="-3.11363">
        <ele>122</ele>
        <time>2016-03-07T14:42:59Z</time>
      </trkpt>
      <trkpt lat="48.20638" lon="-3.11366">
        <ele>122</ele>
        <time>2016-03-07T14:43:02Z</time>
      </trkpt>
      <trkpt lat="48.20641" lon="-3.1137">
        <ele>122</ele>
        <time>2016-03-07T14:43:06Z</time>
      </trkpt>
      <trkpt lat="48.20643" lon="-3.11375">
        <ele>122</ele>
        <time>2016-03-07T14:43:09Z</time>
      </trkpt>
      <trkpt lat="48.20645" lon="-3.11379">
        <ele>122</ele>
        <time>2016-03-07T14:43:12Z</time>
      </trkpt>
      <trkpt lat="48.20648" lon="-3.11383">
        <ele>122</ele>
        <time>2016-03-07T14:43:16Z</time>
      </trkpt>
      <trkpt lat="48.20651" lon="-3.11387">
        <ele>122</ele>
        <time>2016-03-07T14:43:20Z</time>
      </trkpt>
      <trkpt lat="48.20652" lon="-3.11392">
        <ele>122</ele>
        <time>2016-03-07T14:43:24Z</time>
      </trkpt>
      <trkpt lat="48.20655" lon="-3.11397">
        <ele>122</ele>
        <time>2016-03-07T14:43:29Z</time>
      </trkpt>
      <trkpt lat="48.20657" lon="-3.11401">
        <ele>122</ele>
        <time>2016-03-07T14:43:33Z</time>
      </trkpt>
      <trkpt lat="48.2066" lon="-3.11404">
        <ele>122</ele>
        <time>2016-03-07T14:43:36Z</time>
      </trkpt>
      <trkpt lat="48.20662" lon="-3.11408">
        <ele>122</ele>
        <time>2016-03-07T14:43:40Z</time>
      </trkpt>
      <trkpt lat="48.20664" lon="-3.11414">
        <ele>122</ele>
        <time>2016-03-07T14:43:44Z</time>
      </trkpt>
      <trkpt lat="48.20667" lon="-3.11418">
        <ele>122</ele>
        <time>2016-03-07T14:43:48Z</time>
      </trkpt>
      <trkpt lat="48.2067" lon="-3.11422">
        <ele>122</ele>
        <time>2016-03-07T14:43:52Z</time>
      </trkpt>
      <trkpt lat="48.20673" lon="-3.11426">
        <ele>122</ele>
        <time>2016-03-07T14:43:56Z</time>
      </trkpt>
      <trkpt lat="48.20674" lon="-3.11431">
        <ele>122</ele>
        <time>2016-03-07T14:44:00Z</time>
      </trkpt>
      <trkpt lat="48.20677" lon="-3.11434">
        <ele>122</ele>
        <time>2016-03-07T14:44:04Z</time>
      </trkpt>
      <trkpt lat="48.2068" lon="-3.11438">
        <ele>122</ele>
        <time>2016-03-07T14:44:08Z</time>
      </trkpt>
      <trkpt lat="48.20681" lon="-3.11442">
        <ele>122</ele>
        <time>2016-03-07T14:44:12Z</time>
      </trkpt>
      <trkpt lat="48.20684" lon="-3.11446">
        <ele>122</ele>
        <time>2016-03-07T14:44:16Z</time>
      </trkpt>
      <trkpt lat="48.20687" lon="-3.11449">
        <ele>122</ele>
        <time>2016-03-07T14:44:20Z</time>
      </trkpt>
      <trkpt lat="48.20691" lon="-3.11452">
        <ele>122</ele>
        <time>2016-03-07T14:44:24Z</time>
      </trkpt>
      <trkpt lat="48.20693" lon="-3.11456">
        <ele>122</ele>
        <time>2016-03-07T14:44:28Z</time>
      </trkpt>
      <trkpt lat="48.20695" lon="-3.1146">
        <ele>122</ele>
        <time>2016-03-07T14:44:32Z</time>
      </trkpt>
      <trkpt lat="48.20696" lon="-3.11465">
        <ele>122</ele>
        <time>2016-03-07T14:44:36Z</time>
      </trkpt>
      <trkpt lat="48.20698" lon="-3.11469">
        <ele>122</ele>
        <time>2016-03-07T14:44:40Z</time>
      </trkpt>
      <trkpt lat="48.207" lon="-3.11473">
        <ele>122</ele>
        <time>2016-03-07T14:44:44Z</time>
      </trkpt>
      <trkpt lat="48.20702" lon="-3.11477">
        <ele>122</ele>
        <time>2016-03-07T14:44:48Z</time>
      </trkpt>
      <trkpt lat="48.20705" lon="-3.1148">
        <ele>122</ele>
        <time>2016-03-07T14:44:52Z</time>
      </trkpt>
      <trkpt lat="48.20707" lon="-3.11485">
        <ele>122</ele>
        <time>2016-03-07T14:44:56Z</time>
      </trkpt>
      <trkpt lat="48.20708" lon="-3.11488">
        <ele>122</ele>
        <time>2016-03-07T14:44:59Z</time>
      </trkpt>
      <trkpt lat="48.20711" lon="-3.11491">
        <ele>122</ele>
        <time>2016-03-07T14:45:03Z</time>
      </trkpt>
      <trkpt lat="48.20713" lon="-3.11494">
        <ele>122</ele>
        <time>2016-03-07T14:45:06Z</time>
      </trkpt>
      <trkpt lat="48.20715" lon="-3.11498">
        <ele>122</ele>
        <time>2016-03-07T14:45:10Z</time>
      </trkpt>
      <trkpt lat="48.20718" lon="-3.11501">
        <ele>122</ele>
        <time>2016-03-07T14:45:14Z</time>
      </trkpt>
      <trkpt lat="48.20722" lon="-3.11505">
        <ele>122</ele>
        <time>2016-03-07T14:45:18Z</time>
      </trkpt>
      <trkpt lat="48.20725" lon="-3.11509">
        <ele>122</ele>
        <time>2016-03-07T14:45:22Z</time>
      </trkpt>
      <trkpt lat="48.20728" lon="-3.11512">
        <ele>122</ele>
        <time>2016-03-07T14:45:25Z</time>
      </trkpt>
      <trkpt lat="48.20732" lon="-3.11515">
        <ele>122</ele>
        <time>2016-03-07T14:45:29Z</time>
      </trkpt>
      <trkpt lat="48.20735" lon="-3.11518">
        <ele>122</ele>
        <time>2016-03-07T14:45:33Z</time>
      </trkpt>
      <trkpt lat="48.20737" lon="-3.1152">
        <ele>122</ele>
        <time>2016-03-07T14:45:36Z</time>
      </trkpt>
      <trkpt lat="48.2074" lon="-3.11523">
        <ele>122</ele>
        <time>2016-03-07T14:45:40Z</time>
      </trkpt>
      <trkpt lat="48.20743" lon="-3.11526">
        <ele>122</ele>
        <time>2016-03-07T14:45:44Z</time>
      </trkpt>
      <trkpt lat="48.20746" lon="-3.11528">
        <ele>122</ele>
        <time>2016-03-07T14:45:48Z</time>
      </trkpt>
      <trkpt lat="48.20749" lon="-3.1153">
        <ele>122</ele>
        <time>2016-03-07T14:45:51Z</time>
      </trkpt>
      <trkpt lat="48.20751" lon="-3.11533">
        <ele>122</ele>
        <time>2016-03-07T14:45:54Z</time>
      </trkpt>
      <trkpt lat="48.20753" lon="-3.11537">
        <ele>122</ele>
        <time>2016-03-07T14:45:57Z</time>
      </trkpt>
      <trkpt lat="48.20754" lon="-3.1154">
        <ele>122</ele>
        <time>2016-03-07T14:46:00Z</time>
      </trkpt>
      <trkpt lat="48.20757" lon="-3.11542">
        <ele>122</ele>
        <time>2016-03-07T14:46:04Z</time>
      </trkpt>
      <trkpt lat="48.2076" lon="-3.11544">
        <ele>122</ele>
        <time>2016-03-07T14:46:09Z</time>
      </trkpt>
      <trkpt lat="48.20763" lon="-3.11548">
        <ele>122</ele>
        <time>2016-03-07T14:46:13Z</time>
      </trkpt>
      <trkpt lat="48.20766" lon="-3.11551">
        <ele>122</ele>
        <time>2016-03-07T14:46:16Z</time>
      </trkpt>
      <trkpt lat="48.20769" lon="-3.11554">
        <ele>122</ele>
        <time>2016-03-07T14:46:19Z</time>
      </trkpt>
      <trkpt lat="48.20773" lon="-3.11557">
        <ele>122</ele>
        <time>2016-03-07T14:46:23Z</time>
      </trkpt>
      <trkpt lat="48.20776" lon="-3.11559">
        <ele>122</ele>
        <time>2016-03-07T14:46:27Z</time>
      </trkpt>
      <trkpt lat="48.20779" lon="-3.11564">
        <ele>122</ele>
        <time>2016-03-07T14:46:31Z</time>
      </trkpt>
      <trkpt lat="48.20782" lon="-3.11566">
        <ele>122</ele>
        <time>2016-03-07T14:46:35Z</time>
      </trkpt>
      <trkpt lat="48.20786" lon="-3.11567">
        <ele>122</ele>
        <time>2016-03-07T14:46:39Z</time>
      </trkpt>
      <trkpt lat="48.20789" lon="-3.1157">
        <ele>122</ele>
        <time>2016-03-07T14:46:43Z</time>
      </trkpt>
      <trkpt lat="48.20792" lon="-3.11573">
        <ele>122</ele>
        <time>2016-03-07T14:46:47Z</time>
      </trkpt>
      <trkpt lat="48.20795" lon="-3.11575">
        <ele>122</ele>
        <time>2016-03-07T14:46:51Z</time>
      </trkpt>
      <trkpt lat="48.20798" lon="-3.11577">
        <ele>122</ele>
        <time>2016-03-07T14:46:55Z</time>
      </trkpt>
      <trkpt lat="48.208" lon="-3.1158">
        <ele>122</ele>
        <time>2016-03-07T14:46:59Z</time>
      </trkpt>
      <trkpt lat="48.20803" lon="-3.11582">
        <ele>122</ele>
        <time>2016-03-07T14:47:03Z</time>
      </trkpt>
      <trkpt lat="48.20805" lon="-3.11584">
        <ele>122</ele>
        <time>2016-03-07T14:47:06Z</time>
      </trkpt>
      <trkpt lat="48.20808" lon="-3.11586">
        <ele>122</ele>
        <time>2016-03-07T14:47:10Z</time>
      </trkpt>
      <trkpt lat="48.20811" lon="-3.11588">
        <ele>122</ele>
        <time>2016-03-07T14:47:14Z</time>
      </trkpt>
      <trkpt lat="48.20814" lon="-3.11589">
        <ele>122</ele>
        <time>2016-03-07T14:47:18Z</time>
      </trkpt>
      <trkpt lat="48.20817" lon="-3.11591">
        <ele>122</ele>
        <time>2016-03-07T14:47:22Z</time>
      </trkpt>
      <trkpt lat="48.20821" lon="-3.11594">
        <ele>122</ele>
        <time>2016-03-07T14:47:26Z</time>
      </trkpt>
      <trkpt lat="48.20824" lon="-3.11595">
        <ele>122</ele>
        <time>2016-03-07T14:47:29Z</time>
      </trkpt>
      <trkpt lat="48.20827" lon="-3.11598">
        <ele>122</ele>
        <time>2016-03-07T14:47:33Z</time>
      </trkpt>
      <trkpt lat="48.2083" lon="-3.116">
        <ele>122</ele>
        <time>2016-03-07T14:47:36Z</time>
      </trkpt>
      <trkpt lat="48.20835" lon="-3.11601">
        <ele>122</ele>
        <time>2016-03-07T14:47:39Z</time>
      </trkpt>
      <trkpt lat="48.20838" lon="-3.11603">
        <ele>122</ele>
        <time>2016-03-07T14:47:43Z</time>
      </trkpt>
      <trkpt lat="48.20842" lon="-3.11604">
        <ele>122</ele>
        <time>2016-03-07T14:47:46Z</time>
      </trkpt>
      <trkpt lat="48.20845" lon="-3.11605">
        <ele>122</ele>
        <time>2016-03-07T14:47:49Z</time>
      </trkpt>
      <trkpt lat="48.20849" lon="-3.11606">
        <ele>122</ele>
        <time>2016-03-07T14:47:52Z</time>
      </trkpt>
      <trkpt lat="48.20852" lon="-3.11607">
        <ele>122</ele>
        <time>2016-03-07T14:47:55Z</time>
      </trkpt>
      <trkpt lat="48.20855" lon="-3.11607">
        <ele>122</ele>
        <time>2016-03-07T14:47:59Z</time>
      </trkpt>
      <trkpt lat="48.20857" lon="-3.11609">
        <ele>122</ele>
        <time>2016-03-07T14:48:05Z</time>
      </trkpt>
      <trkpt lat="48.20858" lon="-3.11609">
        <ele>122</ele>
        <time>2016-03-07T14:48:09Z</time>
      </trkpt>
      <trkpt lat="48.2086" lon="-3.11609">
        <ele>123</ele>
        <time>2016-03-07T14:48:14Z</time>
      </trkpt>
      <trkpt lat="48.20863" lon="-3.1161">
        <ele>123</ele>
        <time>2016-03-07T14:48:17Z</time>
      </trkpt>
      <trkpt lat="48.20866" lon="-3.11613">
        <ele>123</ele>
        <time>2016-03-07T14:48:21Z</time>
      </trkpt>
      <trkpt lat="48.2087" lon="-3.11613">
        <ele>123</ele>
        <time>2016-03-07T14:48:25Z</time>
      </trkpt>
      <trkpt lat="48.20873" lon="-3.11614">
        <ele>123</ele>
        <time>2016-03-07T14:48:29Z</time>
      </trkpt>
      <trkpt lat="48.20876" lon="-3.11615">
        <ele>123</ele>
        <time>2016-03-07T14:48:32Z</time>
      </trkpt>
      <trkpt lat="48.20879" lon="-3.11616">
        <ele>123</ele>
        <time>2016-03-07T14:48:36Z</time>
      </trkpt>
      <trkpt lat="48.20882" lon="-3.11614">
        <ele>123</ele>
        <time>2016-03-07T14:48:40Z</time>
      </trkpt>
      <trkpt lat="48.20884" lon="-3.11614">
        <ele>123</ele>
        <time>2016-03-07T14:48:43Z</time>
      </trkpt>
      <trkpt lat="48.20887" lon="-3.11619">
        <ele>123</ele>
        <time>2016-03-07T14:48:58Z</time>
      </trkpt>
      <trkpt lat="48.20888" lon="-3.11619">
        <ele>123</ele>
        <time>2016-03-07T14:49:01Z</time>
      </trkpt>
      <trkpt lat="48.20891" lon="-3.11617">
        <ele>123</ele>
        <time>2016-03-07T14:49:05Z</time>
      </trkpt>
      <trkpt lat="48.20894" lon="-3.11615">
        <ele>123</ele>
        <time>2016-03-07T14:49:09Z</time>
      </trkpt>
      <trkpt lat="48.20895" lon="-3.11613">
        <ele>123</ele>
        <time>2016-03-07T14:49:12Z</time>
      </trkpt>
      <trkpt lat="48.20898" lon="-3.11613">
        <ele>123</ele>
        <time>2016-03-07T14:49:16Z</time>
      </trkpt>
      <trkpt lat="48.209" lon="-3.11611">
        <ele>123</ele>
        <time>2016-03-07T14:49:19Z</time>
      </trkpt>
      <trkpt lat="48.20903" lon="-3.11609">
        <ele>123</ele>
        <time>2016-03-07T14:49:23Z</time>
      </trkpt>
      <trkpt lat="48.20906" lon="-3.11607">
        <ele>123</ele>
        <time>2016-03-07T14:49:28Z</time>
      </trkpt>
      <trkpt lat="48.20909" lon="-3.11603">
        <ele>123</ele>
        <time>2016-03-07T14:49:33Z</time>
      </trkpt>
      <trkpt lat="48.20911" lon="-3.116">
        <ele>123</ele>
        <time>2016-03-07T14:49:36Z</time>
      </trkpt>
      <trkpt lat="48.20914" lon="-3.11596">
        <ele>123</ele>
        <time>2016-03-07T14:49:40Z</time>
      </trkpt>
      <trkpt lat="48.20917" lon="-3.11594">
        <ele>123</ele>
        <time>2016-03-07T14:49:44Z</time>
      </trkpt>
      <trkpt lat="48.20921" lon="-3.1159">
        <ele>123</ele>
        <time>2016-03-07T14:49:47Z</time>
      </trkpt>
      <trkpt lat="48.20924" lon="-3.11588">
        <ele>123</ele>
        <time>2016-03-07T14:49:51Z</time>
      </trkpt>
      <trkpt lat="48.20927" lon="-3.11588">
        <ele>123</ele>
        <time>2016-03-07T14:49:55Z</time>
      </trkpt>
      <trkpt lat="48.20929" lon="-3.11586">
        <ele>124</ele>
        <time>2016-03-07T14:49:58Z</time>
      </trkpt>
      <trkpt lat="48.20932" lon="-3.11583">
        <ele>124</ele>
        <time>2016-03-07T14:50:02Z</time>
      </trkpt>
      <trkpt lat="48.20935" lon="-3.11581">
        <ele>125</ele>
        <time>2016-03-07T14:50:05Z</time>
      </trkpt>
      <trkpt lat="48.20937" lon="-3.1158">
        <ele>125</ele>
        <time>2016-03-07T14:50:09Z</time>
      </trkpt>
      <trkpt lat="48.2094" lon="-3.11581">
        <ele>125</ele>
        <time>2016-03-07T14:50:12Z</time>
      </trkpt>
      <trkpt lat="48.20944" lon="-3.1158">
        <ele>126</ele>
        <time>2016-03-07T14:50:15Z</time>
      </trkpt>
      <trkpt lat="48.20947" lon="-3.11581">
        <ele>127</ele>
        <time>2016-03-07T14:50:18Z</time>
      </trkpt>
      <trkpt lat="48.2095" lon="-3.11579">
        <ele>128</ele>
        <time>2016-03-07T14:50:21Z</time>
      </trkpt>
      <trkpt lat="48.20954" lon="-3.11579">
        <ele>128</ele>
        <time>2016-03-07T14:50:24Z</time>
      </trkpt>
      <trkpt lat="48.20957" lon="-3.11578">
        <ele>128</ele>
        <time>2016-03-07T14:50:27Z</time>
      </trkpt>
      <trkpt lat="48.20961" lon="-3.11579">
        <ele>128</ele>
        <time>2016-03-07T14:50:30Z</time>
      </trkpt>
      <trkpt lat="48.20962" lon="-3.1158">
        <ele>128</ele>
        <time>2016-03-07T14:50:33Z</time>
      </trkpt>
      <trkpt lat="48.20965" lon="-3.1158">
        <ele>128</ele>
        <time>2016-03-07T14:50:36Z</time>
      </trkpt>
      <trkpt lat="48.20968" lon="-3.11582">
        <ele>128</ele>
        <time>2016-03-07T14:50:39Z</time>
      </trkpt>
      <trkpt lat="48.20969" lon="-3.11583">
        <ele>128</ele>
        <time>2016-03-07T14:50:42Z</time>
      </trkpt>
      <trkpt lat="48.20972" lon="-3.11586">
        <ele>128</ele>
        <time>2016-03-07T14:50:46Z</time>
      </trkpt>
      <trkpt lat="48.20976" lon="-3.11588">
        <ele>128</ele>
        <time>2016-03-07T14:50:50Z</time>
      </trkpt>
      <trkpt lat="48.20979" lon="-3.11591">
        <ele>128</ele>
        <time>2016-03-07T14:50:53Z</time>
      </trkpt>
      <trkpt lat="48.20982" lon="-3.11594">
        <ele>128</ele>
        <time>2016-03-07T14:50:56Z</time>
      </trkpt>
      <trkpt lat="48.20986" lon="-3.11597">
        <ele>128</ele>
        <time>2016-03-07T14:51:00Z</time>
      </trkpt>
      <trkpt lat="48.20988" lon="-3.11602">
        <ele>128</ele>
        <time>2016-03-07T14:51:05Z</time>
      </trkpt>
      <trkpt lat="48.20991" lon="-3.11605">
        <ele>128</ele>
        <time>2016-03-07T14:51:10Z</time>
      </trkpt>
      <trkpt lat="48.20994" lon="-3.1161">
        <ele>126</ele>
        <time>2016-03-07T14:51:14Z</time>
      </trkpt>
      <trkpt lat="48.20996" lon="-3.11612">
        <ele>126</ele>
        <time>2016-03-07T14:51:17Z</time>
      </trkpt>
      <trkpt lat="48.20997" lon="-3.11614">
        <ele>126</ele>
        <time>2016-03-07T14:51:20Z</time>
      </trkpt>
      <trkpt lat="48.20998" lon="-3.11616">
        <ele>126</ele>
        <time>2016-03-07T14:51:27Z</time>
      </trkpt>
      <trkpt lat="48.20998" lon="-3.11618">
        <ele>126</ele>
        <time>2016-03-07T14:51:34Z</time>
      </trkpt>
      <trkpt lat="48.21" lon="-3.11623">
        <ele>126</ele>
        <time>2016-03-07T14:51:38Z</time>
      </trkpt>
      <trkpt lat="48.21003" lon="-3.11628">
        <ele>126</ele>
        <time>2016-03-07T14:51:43Z</time>
      </trkpt>
      <trkpt lat="48.21004" lon="-3.11634">
        <ele>126</ele>
        <time>2016-03-07T14:51:46Z</time>
      </trkpt>
      <trkpt lat="48.21006" lon="-3.1164">
        <ele>126</ele>
        <time>2016-03-07T14:51:49Z</time>
      </trkpt>
      <trkpt lat="48.21008" lon="-3.11646">
        <ele>126</ele>
        <time>2016-03-07T14:51:53Z</time>
      </trkpt>
      <trkpt lat="48.21011" lon="-3.1165">
        <ele>126</ele>
        <time>2016-03-07T14:51:57Z</time>
      </trkpt>
      <trkpt lat="48.21012" lon="-3.11654">
        <ele>126</ele>
        <time>2016-03-07T14:52:01Z</time>
      </trkpt>
      <trkpt lat="48.21014" lon="-3.11658">
        <ele>126</ele>
        <time>2016-03-07T14:52:05Z</time>
      </trkpt>
      <trkpt lat="48.21017" lon="-3.11663">
        <ele>126</ele>
        <time>2016-03-07T14:52:09Z</time>
      </trkpt>
      <trkpt lat="48.21019" lon="-3.11667">
        <ele>126</ele>
        <time>2016-03-07T14:52:13Z</time>
      </trkpt>
      <trkpt lat="48.21022" lon="-3.11672">
        <ele>126</ele>
        <time>2016-03-07T14:52:17Z</time>
      </trkpt>
      <trkpt lat="48.21023" lon="-3.11678">
        <ele>126</ele>
        <time>2016-03-07T14:52:21Z</time>
      </trkpt>
      <trkpt lat="48.21025" lon="-3.11683">
        <ele>125</ele>
        <time>2016-03-07T14:52:25Z</time>
      </trkpt>
      <trkpt lat="48.21027" lon="-3.11687">
        <ele>125</ele>
        <time>2016-03-07T14:52:29Z</time>
      </trkpt>
      <trkpt lat="48.2103" lon="-3.11692">
        <ele>125</ele>
        <time>2016-03-07T14:52:33Z</time>
      </trkpt>
      <trkpt lat="48.21032" lon="-3.11698">
        <ele>125</ele>
        <time>2016-03-07T14:52:37Z</time>
      </trkpt>
      <trkpt lat="48.21032" lon="-3.11703">
        <ele>125</ele>
        <time>2016-03-07T14:52:41Z</time>
      </trkpt>
      <trkpt lat="48.21034" lon="-3.11708">
        <ele>125</ele>
        <time>2016-03-07T14:52:45Z</time>
      </trkpt>
      <trkpt lat="48.21035" lon="-3.11712">
        <ele>125</ele>
        <time>2016-03-07T14:52:49Z</time>
      </trkpt>
      <trkpt lat="48.21037" lon="-3.11716">
        <ele>125</ele>
        <time>2016-03-07T14:52:53Z</time>
      </trkpt>
      <trkpt lat="48.21038" lon="-3.11721">
        <ele>125</ele>
        <time>2016-03-07T14:52:57Z</time>
      </trkpt>
      <trkpt lat="48.21041" lon="-3.11725">
        <ele>125</ele>
        <time>2016-03-07T14:53:01Z</time>
      </trkpt>
      <trkpt lat="48.21043" lon="-3.11727">
        <ele>125</ele>
        <time>2016-03-07T14:53:04Z</time>
      </trkpt>
      <trkpt lat="48.21046" lon="-3.11732">
        <ele>125</ele>
        <time>2016-03-07T14:53:08Z</time>
      </trkpt>
      <trkpt lat="48.21048" lon="-3.11737">
        <ele>124</ele>
        <time>2016-03-07T14:53:12Z</time>
      </trkpt>
      <trkpt lat="48.21051" lon="-3.11741">
        <ele>124</ele>
        <time>2016-03-07T14:53:16Z</time>
      </trkpt>
      <trkpt lat="48.21052" lon="-3.11745">
        <ele>124</ele>
        <time>2016-03-07T14:53:20Z</time>
      </trkpt>
      <trkpt lat="48.21054" lon="-3.11751">
        <ele>124</ele>
        <time>2016-03-07T14:53:24Z</time>
      </trkpt>
      <trkpt lat="48.21054" lon="-3.11756">
        <ele>124</ele>
        <time>2016-03-07T14:53:27Z</time>
      </trkpt>
      <trkpt lat="48.21056" lon="-3.11761">
        <ele>124</ele>
        <time>2016-03-07T14:53:31Z</time>
      </trkpt>
      <trkpt lat="48.21057" lon="-3.11765">
        <ele>124</ele>
        <time>2016-03-07T14:53:35Z</time>
      </trkpt>
      <trkpt lat="48.21059" lon="-3.11769">
        <ele>123</ele>
        <time>2016-03-07T14:53:39Z</time>
      </trkpt>
      <trkpt lat="48.21061" lon="-3.11774">
        <ele>122</ele>
        <time>2016-03-07T14:53:43Z</time>
      </trkpt>
      <trkpt lat="48.21061" lon="-3.1178">
        <ele>122</ele>
        <time>2016-03-07T14:53:47Z</time>
      </trkpt>
      <trkpt lat="48.21062" lon="-3.11787">
        <ele>122</ele>
        <time>2016-03-07T14:53:51Z</time>
      </trkpt>
      <trkpt lat="48.21063" lon="-3.11793">
        <ele>122</ele>
        <time>2016-03-07T14:53:55Z</time>
      </trkpt>
      <trkpt lat="48.21064" lon="-3.11797">
        <ele>122</ele>
        <time>2016-03-07T14:53:58Z</time>
      </trkpt>
      <trkpt lat="48.21067" lon="-3.11803">
        <ele>122</ele>
        <time>2016-03-07T14:54:02Z</time>
      </trkpt>
      <trkpt lat="48.21067" lon="-3.11807">
        <ele>122</ele>
        <time>2016-03-07T14:54:05Z</time>
      </trkpt>
      <trkpt lat="48.21069" lon="-3.11811">
        <ele>122</ele>
        <time>2016-03-07T14:54:08Z</time>
      </trkpt>
      <trkpt lat="48.21069" lon="-3.11817">
        <ele>122</ele>
        <time>2016-03-07T14:54:12Z</time>
      </trkpt>
      <trkpt lat="48.21071" lon="-3.11821">
        <ele>123</ele>
        <time>2016-03-07T14:54:15Z</time>
      </trkpt>
      <trkpt lat="48.21074" lon="-3.11827">
        <ele>125</ele>
        <time>2016-03-07T14:54:19Z</time>
      </trkpt>
      <trkpt lat="48.21075" lon="-3.11831">
        <ele>125</ele>
        <time>2016-03-07T14:54:23Z</time>
      </trkpt>
      <trkpt lat="48.21076" lon="-3.11837">
        <ele>125</ele>
        <time>2016-03-07T14:54:26Z</time>
      </trkpt>
      <trkpt lat="48.21077" lon="-3.11842">
        <ele>125</ele>
        <time>2016-03-07T14:54:29Z</time>
      </trkpt>
      <trkpt lat="48.21078" lon="-3.11847">
        <ele>125</ele>
        <time>2016-03-07T14:54:32Z</time>
      </trkpt>
      <trkpt lat="48.21077" lon="-3.11854">
        <ele>125</ele>
        <time>2016-03-07T14:54:36Z</time>
      </trkpt>
      <trkpt lat="48.21077" lon="-3.11859">
        <ele>126</ele>
        <time>2016-03-07T14:54:41Z</time>
      </trkpt>
      <trkpt lat="48.21078" lon="-3.11863">
        <ele>126</ele>
        <time>2016-03-07T14:54:44Z</time>
      </trkpt>
      <trkpt lat="48.21079" lon="-3.11867">
        <ele>126</ele>
        <time>2016-03-07T14:54:47Z</time>
      </trkpt>
      <trkpt lat="48.21078" lon="-3.11872">
        <ele>126</ele>
        <time>2016-03-07T14:54:51Z</time>
      </trkpt>
      <trkpt lat="48.21078" lon="-3.11877">
        <ele>126</ele>
        <time>2016-03-07T14:54:54Z</time>
      </trkpt>
      <trkpt lat="48.21079" lon="-3.11881">
        <ele>126</ele>
        <time>2016-03-07T14:54:57Z</time>
      </trkpt>
      <trkpt lat="48.2108" lon="-3.11885">
        <ele>127</ele>
        <time>2016-03-07T14:55:00Z</time>
      </trkpt>
      <trkpt lat="48.2108" lon="-3.11893">
        <ele>127</ele>
        <time>2016-03-07T14:55:04Z</time>
      </trkpt>
      <trkpt lat="48.21081" lon="-3.11899">
        <ele>127</ele>
        <time>2016-03-07T14:55:08Z</time>
      </trkpt>
      <trkpt lat="48.21082" lon="-3.11904">
        <ele>127</ele>
        <time>2016-03-07T14:55:11Z</time>
      </trkpt>
      <trkpt lat="48.21083" lon="-3.11911">
        <ele>127</ele>
        <time>2016-03-07T14:55:15Z</time>
      </trkpt>
      <trkpt lat="48.21082" lon="-3.11917">
        <ele>127</ele>
        <time>2016-03-07T14:55:19Z</time>
      </trkpt>
      <trkpt lat="48.21083" lon="-3.11924">
        <ele>127</ele>
        <time>2016-03-07T14:55:23Z</time>
      </trkpt>
      <trkpt lat="48.21083" lon="-3.11929">
        <ele>127</ele>
        <time>2016-03-07T14:55:26Z</time>
      </trkpt>
      <trkpt lat="48.21083" lon="-3.11932">
        <ele>127</ele>
        <time>2016-03-07T14:55:29Z</time>
      </trkpt>
      <trkpt lat="48.21084" lon="-3.11936">
        <ele>127</ele>
        <time>2016-03-07T14:55:33Z</time>
      </trkpt>
      <trkpt lat="48.21083" lon="-3.11941">
        <ele>128</ele>
        <time>2016-03-07T14:55:36Z</time>
      </trkpt>
      <trkpt lat="48.21083" lon="-3.11946">
        <ele>129</ele>
        <time>2016-03-07T14:55:39Z</time>
      </trkpt>
      <trkpt lat="48.21083" lon="-3.11951">
        <ele>129</ele>
        <time>2016-03-07T14:55:42Z</time>
      </trkpt>
      <trkpt lat="48.21083" lon="-3.11956">
        <ele>129</ele>
        <time>2016-03-07T14:55:46Z</time>
      </trkpt>
      <trkpt lat="48.21084" lon="-3.11961">
        <ele>129</ele>
        <time>2016-03-07T14:55:49Z</time>
      </trkpt>
      <trkpt lat="48.21085" lon="-3.11965">
        <ele>129</ele>
        <time>2016-03-07T14:55:52Z</time>
      </trkpt>
      <trkpt lat="48.21085" lon="-3.11971">
        <ele>129</ele>
        <time>2016-03-07T14:55:56Z</time>
      </trkpt>
      <trkpt lat="48.21086" lon="-3.11977">
        <ele>129</ele>
        <time>2016-03-07T14:55:59Z</time>
      </trkpt>
      <trkpt lat="48.21085" lon="-3.11982">
        <ele>129</ele>
        <time>2016-03-07T14:56:02Z</time>
      </trkpt>
      <trkpt lat="48.21086" lon="-3.11988">
        <ele>129</ele>
        <time>2016-03-07T14:56:05Z</time>
      </trkpt>
      <trkpt lat="48.21086" lon="-3.11993">
        <ele>129</ele>
        <time>2016-03-07T14:56:08Z</time>
      </trkpt>
      <trkpt lat="48.21086" lon="-3.11998">
        <ele>129</ele>
        <time>2016-03-07T14:56:11Z</time>
      </trkpt>
      <trkpt lat="48.21085" lon="-3.12003">
        <ele>129</ele>
        <time>2016-03-07T14:56:14Z</time>
      </trkpt>
      <trkpt lat="48.21085" lon="-3.12009">
        <ele>129</ele>
        <time>2016-03-07T14:56:18Z</time>
      </trkpt>
      <trkpt lat="48.21085" lon="-3.12014">
        <ele>129</ele>
        <time>2016-03-07T14:56:21Z</time>
      </trkpt>
      <trkpt lat="48.21084" lon="-3.1202">
        <ele>129</ele>
        <time>2016-03-07T14:56:25Z</time>
      </trkpt>
      <trkpt lat="48.21084" lon="-3.12024">
        <ele>129</ele>
        <time>2016-03-07T14:56:29Z</time>
      </trkpt>
      <trkpt lat="48.21084" lon="-3.12029">
        <ele>129</ele>
        <time>2016-03-07T14:56:32Z</time>
      </trkpt>
      <trkpt lat="48.21083" lon="-3.12034">
        <ele>129</ele>
        <time>2016-03-07T14:56:36Z</time>
      </trkpt>
      <trkpt lat="48.21083" lon="-3.12039">
        <ele>129</ele>
        <time>2016-03-07T14:56:40Z</time>
      </trkpt>
      <trkpt lat="48.21082" lon="-3.12045">
        <ele>129</ele>
        <time>2016-03-07T14:56:44Z</time>
      </trkpt>
      <trkpt lat="48.21081" lon="-3.12051">
        <ele>129</ele>
        <time>2016-03-07T14:56:48Z</time>
      </trkpt>
      <trkpt lat="48.21081" lon="-3.12057">
        <ele>129</ele>
        <time>2016-03-07T14:56:52Z</time>
      </trkpt>
      <trkpt lat="48.21081" lon="-3.12064">
        <ele>129</ele>
        <time>2016-03-07T14:56:56Z</time>
      </trkpt>
      <trkpt lat="48.21082" lon="-3.1207">
        <ele>129</ele>
        <time>2016-03-07T14:57:00Z</time>
      </trkpt>
      <trkpt lat="48.21082" lon="-3.12074">
        <ele>129</ele>
        <time>2016-03-07T14:57:03Z</time>
      </trkpt>
      <trkpt lat="48.21081" lon="-3.1208">
        <ele>128</ele>
        <time>2016-03-07T14:57:07Z</time>
      </trkpt>
      <trkpt lat="48.21081" lon="-3.12086">
        <ele>128</ele>
        <time>2016-03-07T14:57:11Z</time>
      </trkpt>
      <trkpt lat="48.21081" lon="-3.1209">
        <ele>127</ele>
        <time>2016-03-07T14:57:15Z</time>
      </trkpt>
      <trkpt lat="48.2108" lon="-3.12096">
        <ele>126</ele>
        <time>2016-03-07T14:57:19Z</time>
      </trkpt>
      <trkpt lat="48.2108" lon="-3.12101">
        <ele>126</ele>
        <time>2016-03-07T14:57:22Z</time>
      </trkpt>
      <trkpt lat="48.21079" lon="-3.12107">
        <ele>126</ele>
        <time>2016-03-07T14:57:26Z</time>
      </trkpt>
      <trkpt lat="48.21079" lon="-3.12112">
        <ele>126</ele>
        <time>2016-03-07T14:57:30Z</time>
      </trkpt>
      <trkpt lat="48.21078" lon="-3.12117">
        <ele>126</ele>
        <time>2016-03-07T14:57:34Z</time>
      </trkpt>
      <trkpt lat="48.21077" lon="-3.12122">
        <ele>126</ele>
        <time>2016-03-07T14:57:38Z</time>
      </trkpt>
      <trkpt lat="48.21077" lon="-3.12126">
        <ele>126</ele>
        <time>2016-03-07T14:57:41Z</time>
      </trkpt>
      <trkpt lat="48.21077" lon="-3.12132">
        <ele>126</ele>
        <time>2016-03-07T14:57:45Z</time>
      </trkpt>
      <trkpt lat="48.21077" lon="-3.12138">
        <ele>125</ele>
        <time>2016-03-07T14:57:49Z</time>
      </trkpt>
      <trkpt lat="48.21077" lon="-3.12142">
        <ele>124</ele>
        <time>2016-03-07T14:57:52Z</time>
      </trkpt>
      <trkpt lat="48.21076" lon="-3.12147">
        <ele>124</ele>
        <time>2016-03-07T14:57:55Z</time>
      </trkpt>
      <trkpt lat="48.21076" lon="-3.12153">
        <ele>124</ele>
        <time>2016-03-07T14:57:59Z</time>
      </trkpt>
      <trkpt lat="48.21076" lon="-3.12158">
        <ele>124</ele>
        <time>2016-03-07T14:58:03Z</time>
      </trkpt>
      <trkpt lat="48.21076" lon="-3.12164">
        <ele>124</ele>
        <time>2016-03-07T14:58:07Z</time>
      </trkpt>
      <trkpt lat="48.21075" lon="-3.12171">
        <ele>124</ele>
        <time>2016-03-07T14:58:11Z</time>
      </trkpt>
      <trkpt lat="48.21075" lon="-3.12175">
        <ele>124</ele>
        <time>2016-03-07T14:58:14Z</time>
      </trkpt>
      <trkpt lat="48.21075" lon="-3.12181">
        <ele>124</ele>
        <time>2016-03-07T14:58:18Z</time>
      </trkpt>
      <trkpt lat="48.21075" lon="-3.12188">
        <ele>124</ele>
        <time>2016-03-07T14:58:22Z</time>
      </trkpt>
      <trkpt lat="48.21075" lon="-3.12193">
        <ele>124</ele>
        <time>2016-03-07T14:58:25Z</time>
      </trkpt>
      <trkpt lat="48.21075" lon="-3.12198">
        <ele>124</ele>
        <time>2016-03-07T14:58:29Z</time>
      </trkpt>
      <trkpt lat="48.21075" lon="-3.12204">
        <ele>124</ele>
        <time>2016-03-07T14:58:33Z</time>
      </trkpt>
      <trkpt lat="48.21075" lon="-3.1221">
        <ele>124</ele>
        <time>2016-03-07T14:58:37Z</time>
      </trkpt>
      <trkpt lat="48.21074" lon="-3.12215">
        <ele>124</ele>
        <time>2016-03-07T14:58:41Z</time>
      </trkpt>
      <trkpt lat="48.21075" lon="-3.1222">
        <ele>124</ele>
        <time>2016-03-07T14:58:44Z</time>
      </trkpt>
      <trkpt lat="48.21075" lon="-3.12225">
        <ele>124</ele>
        <time>2016-03-07T14:58:48Z</time>
      </trkpt>
      <trkpt lat="48.21074" lon="-3.1223">
        <ele>124</ele>
        <time>2016-03-07T14:58:52Z</time>
      </trkpt>
      <trkpt lat="48.21075" lon="-3.12235">
        <ele>124</ele>
        <time>2016-03-07T14:58:55Z</time>
      </trkpt>
      <trkpt lat="48.21074" lon="-3.12241">
        <ele>124</ele>
        <time>2016-03-07T14:58:59Z</time>
      </trkpt>
      <trkpt lat="48.21074" lon="-3.12248">
        <ele>124</ele>
        <time>2016-03-07T14:59:03Z</time>
      </trkpt>
      <trkpt lat="48.21074" lon="-3.12253">
        <ele>124</ele>
        <time>2016-03-07T14:59:07Z</time>
      </trkpt>
      <trkpt lat="48.21074" lon="-3.12259">
        <ele>124</ele>
        <time>2016-03-07T14:59:11Z</time>
      </trkpt>
      <trkpt lat="48.21074" lon="-3.12265">
        <ele>124</ele>
        <time>2016-03-07T14:59:15Z</time>
      </trkpt>
      <trkpt lat="48.21074" lon="-3.1227">
        <ele>124</ele>
        <time>2016-03-07T14:59:18Z</time>
      </trkpt>
      <trkpt lat="48.21074" lon="-3.12275">
        <ele>124</ele>
        <time>2016-03-07T14:59:21Z</time>
      </trkpt>
      <trkpt lat="48.21074" lon="-3.12281">
        <ele>124</ele>
        <time>2016-03-07T14:59:25Z</time>
      </trkpt>
      <trkpt lat="48.21074" lon="-3.12285">
        <ele>124</ele>
        <time>2016-03-07T14:59:28Z</time>
      </trkpt>
      <trkpt lat="48.21074" lon="-3.12291">
        <ele>124</ele>
        <time>2016-03-07T14:59:32Z</time>
      </trkpt>
      <trkpt lat="48.21074" lon="-3.12296">
        <ele>124</ele>
        <time>2016-03-07T14:59:36Z</time>
      </trkpt>
      <trkpt lat="48.21074" lon="-3.12302">
        <ele>124</ele>
        <time>2016-03-07T14:59:40Z</time>
      </trkpt>
      <trkpt lat="48.21073" lon="-3.12307">
        <ele>124</ele>
        <time>2016-03-07T14:59:44Z</time>
      </trkpt>
      <trkpt lat="48.21073" lon="-3.12314">
        <ele>124</ele>
        <time>2016-03-07T14:59:48Z</time>
      </trkpt>
      <trkpt lat="48.21072" lon="-3.12318">
        <ele>124</ele>
        <time>2016-03-07T14:59:51Z</time>
      </trkpt>
      <trkpt lat="48.21072" lon="-3.12324">
        <ele>124</ele>
        <time>2016-03-07T14:59:54Z</time>
      </trkpt>
      <trkpt lat="48.21072" lon="-3.12329">
        <ele>124</ele>
        <time>2016-03-07T14:59:57Z</time>
      </trkpt>
      <trkpt lat="48.21071" lon="-3.12334">
        <ele>124</ele>
        <time>2016-03-07T15:00:01Z</time>
      </trkpt>
      <trkpt lat="48.2107" lon="-3.12341">
        <ele>124</ele>
        <time>2016-03-07T15:00:05Z</time>
      </trkpt>
      <trkpt lat="48.21069" lon="-3.12346">
        <ele>124</ele>
        <time>2016-03-07T15:00:08Z</time>
      </trkpt>
      <trkpt lat="48.21069" lon="-3.12351">
        <ele>124</ele>
        <time>2016-03-07T15:00:12Z</time>
      </trkpt>
      <trkpt lat="48.21069" lon="-3.12356">
        <ele>124</ele>
        <time>2016-03-07T15:00:15Z</time>
      </trkpt>
      <trkpt lat="48.21069" lon="-3.12361">
        <ele>124</ele>
        <time>2016-03-07T15:00:19Z</time>
      </trkpt>
      <trkpt lat="48.21068" lon="-3.12366">
        <ele>124</ele>
        <time>2016-03-07T15:00:23Z</time>
      </trkpt>
      <trkpt lat="48.21068" lon="-3.12371">
        <ele>124</ele>
        <time>2016-03-07T15:00:26Z</time>
      </trkpt>
      <trkpt lat="48.21067" lon="-3.12375">
        <ele>124</ele>
        <time>2016-03-07T15:00:29Z</time>
      </trkpt>
      <trkpt lat="48.21066" lon="-3.1238">
        <ele>124</ele>
        <time>2016-03-07T15:00:32Z</time>
      </trkpt>
      <trkpt lat="48.21065" lon="-3.12386">
        <ele>124</ele>
        <time>2016-03-07T15:00:36Z</time>
      </trkpt>
      <trkpt lat="48.21064" lon="-3.12391">
        <ele>124</ele>
        <time>2016-03-07T15:00:39Z</time>
      </trkpt>
      <trkpt lat="48.21064" lon="-3.12398">
        <ele>124</ele>
        <time>2016-03-07T15:00:43Z</time>
      </trkpt>
      <trkpt lat="48.21063" lon="-3.12404">
        <ele>124</ele>
        <time>2016-03-07T15:00:47Z</time>
      </trkpt>
      <trkpt lat="48.21062" lon="-3.12408">
        <ele>124</ele>
        <time>2016-03-07T15:00:50Z</time>
      </trkpt>
      <trkpt lat="48.21062" lon="-3.12413">
        <ele>124</ele>
        <time>2016-03-07T15:00:53Z</time>
      </trkpt>
      <trkpt lat="48.21061" lon="-3.12418">
        <ele>124</ele>
        <time>2016-03-07T15:00:56Z</time>
      </trkpt>
      <trkpt lat="48.2106" lon="-3.12423">
        <ele>124</ele>
        <time>2016-03-07T15:00:59Z</time>
      </trkpt>
      <trkpt lat="48.21059" lon="-3.12428">
        <ele>124</ele>
        <time>2016-03-07T15:01:03Z</time>
      </trkpt>
      <trkpt lat="48.21059" lon="-3.12433">
        <ele>124</ele>
        <time>2016-03-07T15:01:06Z</time>
      </trkpt>
      <trkpt lat="48.21059" lon="-3.12438">
        <ele>124</ele>
        <time>2016-03-07T15:01:10Z</time>
      </trkpt>
      <trkpt lat="48.21059" lon="-3.12442">
        <ele>124</ele>
        <time>2016-03-07T15:01:21Z</time>
      </trkpt>
      <trkpt lat="48.21058" lon="-3.12443">
        <ele>124</ele>
        <time>2016-03-07T15:01:25Z</time>
      </trkpt>
      <trkpt lat="48.21059" lon="-3.12443">
        <ele>124</ele>
        <time>2016-03-07T15:01:30Z</time>
      </trkpt>
      <trkpt lat="48.21059" lon="-3.12444">
        <ele>126</ele>
        <time>2016-03-07T15:01:34Z</time>
      </trkpt>
      <trkpt lat="48.21058" lon="-3.12446">
        <ele>127</ele>
        <time>2016-03-07T15:01:40Z</time>
      </trkpt>
      <trkpt lat="48.21057" lon="-3.12446">
        <ele>127</ele>
        <time>2016-03-07T15:01:43Z</time>
      </trkpt>
      <trkpt lat="48.21056" lon="-3.12446">
        <ele>127</ele>
        <time>2016-03-07T15:01:48Z</time>
      </trkpt>
      <trkpt lat="48.21055" lon="-3.12445">
        <ele>127</ele>
        <time>2016-03-07T15:02:04Z</time>
      </trkpt>
      <trkpt lat="48.21055" lon="-3.12443">
        <ele>127</ele>
        <time>2016-03-07T15:02:22Z</time>
      </trkpt>
      <trkpt lat="48.21057" lon="-3.12442">
        <ele>127</ele>
        <time>2016-03-07T15:02:25Z</time>
      </trkpt>
      <trkpt lat="48.21058" lon="-3.12441">
        <ele>127</ele>
        <time>2016-03-07T15:02:29Z</time>
      </trkpt>
      <trkpt lat="48.21059" lon="-3.12442">
        <ele>127</ele>
        <time>2016-03-07T15:02:33Z</time>
      </trkpt>
      <trkpt lat="48.21061" lon="-3.12442">
        <ele>127</ele>
        <time>2016-03-07T15:02:36Z</time>
      </trkpt>
      <trkpt lat="48.21064" lon="-3.12443">
        <ele>127</ele>
        <time>2016-03-07T15:02:43Z</time>
      </trkpt>
      <trkpt lat="48.21064" lon="-3.12445">
        <ele>127</ele>
        <time>2016-03-07T15:02:57Z</time>
      </trkpt>
      <trkpt lat="48.21065" lon="-3.12445">
        <ele>127</ele>
        <time>2016-03-07T15:03:02Z</time>
      </trkpt>
      <trkpt lat="48.21065" lon="-3.12447">
        <ele>127</ele>
        <time>2016-03-07T15:03:13Z</time>
      </trkpt>
      <trkpt lat="48.21064" lon="-3.12446">
        <ele>124</ele>
        <time>2016-03-07T15:04:27Z</time>
      </trkpt>
      <trkpt lat="48.21063" lon="-3.12446">
        <ele>124</ele>
        <time>2016-03-07T15:04:33Z</time>
      </trkpt>
      <trkpt lat="48.21064" lon="-3.12446">
        <ele>124</ele>
        <time>2016-03-07T15:04:46Z</time>
      </trkpt>
      <trkpt lat="48.21063" lon="-3.12446">
        <ele>124</ele>
        <time>2016-03-07T15:05:01Z</time>
      </trkpt>
      <trkpt lat="48.21064" lon="-3.12447">
        <ele>124</ele>
        <time>2016-03-07T15:05:04Z</time>
      </trkpt>
      <trkpt lat="48.21064" lon="-3.12445">
        <ele>124</ele>
        <time>2016-03-07T15:05:20Z</time>
      </trkpt>
      <trkpt lat="48.21065" lon="-3.12443">
        <ele>124</ele>
        <time>2016-03-07T15:05:31Z</time>
      </trkpt>
      <trkpt lat="48.21066" lon="-3.12441">
        <ele>124</ele>
        <time>2016-03-07T15:05:34Z</time>
      </trkpt>
      <trkpt lat="48.2107" lon="-3.12442">
        <ele>124</ele>
        <time>2016-03-07T15:05:38Z</time>
      </trkpt>
      <trkpt lat="48.21072" lon="-3.12444">
        <ele>124</ele>
        <time>2016-03-07T15:05:41Z</time>
      </trkpt>
      <trkpt lat="48.21075" lon="-3.12444">
        <ele>124</ele>
        <time>2016-03-07T15:05:44Z</time>
      </trkpt>
      <trkpt lat="48.21079" lon="-3.12442">
        <ele>124</ele>
        <time>2016-03-07T15:05:48Z</time>
      </trkpt>
      <trkpt lat="48.21082" lon="-3.12442">
        <ele>124</ele>
        <time>2016-03-07T15:05:52Z</time>
      </trkpt>
      <trkpt lat="48.21086" lon="-3.12441">
        <ele>124</ele>
        <time>2016-03-07T15:05:56Z</time>
      </trkpt>
      <trkpt lat="48.21089" lon="-3.12441">
        <ele>124</ele>
        <time>2016-03-07T15:06:00Z</time>
      </trkpt>
      <trkpt lat="48.21092" lon="-3.12441">
        <ele>124</ele>
        <time>2016-03-07T15:06:04Z</time>
      </trkpt>
      <trkpt lat="48.21095" lon="-3.12442">
        <ele>124</ele>
        <time>2016-03-07T15:06:08Z</time>
      </trkpt>
      <trkpt lat="48.21098" lon="-3.12442">
        <ele>124</ele>
        <time>2016-03-07T15:06:12Z</time>
      </trkpt>
      <trkpt lat="48.21101" lon="-3.12442">
        <ele>125</ele>
        <time>2016-03-07T15:06:15Z</time>
      </trkpt>
      <trkpt lat="48.21105" lon="-3.1244">
        <ele>128</ele>
        <time>2016-03-07T15:06:22Z</time>
      </trkpt>
      <trkpt lat="48.21106" lon="-3.1244">
        <ele>129</ele>
        <time>2016-03-07T15:06:25Z</time>
      </trkpt>
      <trkpt lat="48.21109" lon="-3.12443">
        <ele>130</ele>
        <time>2016-03-07T15:06:28Z</time>
      </trkpt>
      <trkpt lat="48.21112" lon="-3.12449">
        <ele>130</ele>
        <time>2016-03-07T15:06:31Z</time>
      </trkpt>
      <trkpt lat="48.21112" lon="-3.12454">
        <ele>130</ele>
        <time>2016-03-07T15:06:34Z</time>
      </trkpt>
      <trkpt lat="48.21112" lon="-3.12459">
        <ele>130</ele>
        <time>2016-03-07T15:06:37Z</time>
      </trkpt>
      <trkpt lat="48.21112" lon="-3.12463">
        <ele>130</ele>
        <time>2016-03-07T15:06:41Z</time>
      </trkpt>
      <trkpt lat="48.21112" lon="-3.12469">
        <ele>130</ele>
        <time>2016-03-07T15:06:44Z</time>
      </trkpt>
      <trkpt lat="48.21113" lon="-3.12474">
        <ele>130</ele>
        <time>2016-03-07T15:06:47Z</time>
      </trkpt>
      <trkpt lat="48.21113" lon="-3.1248">
        <ele>130</ele>
        <time>2016-03-07T15:06:51Z</time>
      </trkpt>
      <trkpt lat="48.21114" lon="-3.12486">
        <ele>130</ele>
        <time>2016-03-07T15:06:55Z</time>
      </trkpt>
      <trkpt lat="48.21113" lon="-3.1249">
        <ele>130</ele>
        <time>2016-03-07T15:06:58Z</time>
      </trkpt>
      <trkpt lat="48.21112" lon="-3.12496">
        <ele>130</ele>
        <time>2016-03-07T15:07:02Z</time>
      </trkpt>
      <trkpt lat="48.21113" lon="-3.125">
        <ele>130</ele>
        <time>2016-03-07T15:07:06Z</time>
      </trkpt>
      <trkpt lat="48.21113" lon="-3.12505">
        <ele>130</ele>
        <time>2016-03-07T15:07:09Z</time>
      </trkpt>
      <trkpt lat="48.21112" lon="-3.1251">
        <ele>130</ele>
        <time>2016-03-07T15:07:12Z</time>
      </trkpt>
      <trkpt lat="48.21111" lon="-3.12514">
        <ele>130</ele>
        <time>2016-03-07T15:07:15Z</time>
      </trkpt>
      <trkpt lat="48.21111" lon="-3.1252">
        <ele>130</ele>
        <time>2016-03-07T15:07:19Z</time>
      </trkpt>
      <trkpt lat="48.2111" lon="-3.12525">
        <ele>130</ele>
        <time>2016-03-07T15:07:22Z</time>
      </trkpt>
      <trkpt lat="48.21109" lon="-3.1253">
        <ele>130</ele>
        <time>2016-03-07T15:07:26Z</time>
      </trkpt>
      <trkpt lat="48.21107" lon="-3.12535">
        <ele>130</ele>
        <time>2016-03-07T15:07:29Z</time>
      </trkpt>
      <trkpt lat="48.21106" lon="-3.1254">
        <ele>130</ele>
        <time>2016-03-07T15:07:32Z</time>
      </trkpt>
      <trkpt lat="48.21106" lon="-3.12545">
        <ele>130</ele>
        <time>2016-03-07T15:07:35Z</time>
      </trkpt>
      <trkpt lat="48.21106" lon="-3.1255">
        <ele>130</ele>
        <time>2016-03-07T15:07:38Z</time>
      </trkpt>
      <trkpt lat="48.21106" lon="-3.12555">
        <ele>130</ele>
        <time>2016-03-07T15:07:41Z</time>
      </trkpt>
      <trkpt lat="48.21107" lon="-3.12559">
        <ele>130</ele>
        <time>2016-03-07T15:07:46Z</time>
      </trkpt>
      <trkpt lat="48.21106" lon="-3.12562">
        <ele>130</ele>
        <time>2016-03-07T15:07:51Z</time>
      </trkpt>
      <trkpt lat="48.21105" lon="-3.12567">
        <ele>130</ele>
        <time>2016-03-07T15:07:54Z</time>
      </trkpt>
      <trkpt lat="48.21104" lon="-3.12572">
        <ele>130</ele>
        <time>2016-03-07T15:07:57Z</time>
      </trkpt>
      <trkpt lat="48.21104" lon="-3.12579">
        <ele>130</ele>
        <time>2016-03-07T15:08:01Z</time>
      </trkpt>
      <trkpt lat="48.21104" lon="-3.12584">
        <ele>130</ele>
        <time>2016-03-07T15:08:05Z</time>
      </trkpt>
      <trkpt lat="48.21104" lon="-3.12589">
        <ele>130</ele>
        <time>2016-03-07T15:08:08Z</time>
      </trkpt>
      <trkpt lat="48.21105" lon="-3.12594">
        <ele>130</ele>
        <time>2016-03-07T15:08:12Z</time>
      </trkpt>
      <trkpt lat="48.21106" lon="-3.12596">
        <ele>130</ele>
        <time>2016-03-07T15:08:16Z</time>
      </trkpt>
      <trkpt lat="48.21105" lon="-3.12598">
        <ele>130</ele>
        <time>2016-03-07T15:08:22Z</time>
      </trkpt>
      <trkpt lat="48.21106" lon="-3.12599">
        <ele>130</ele>
        <time>2016-03-07T15:08:25Z</time>
      </trkpt>
      <trkpt lat="48.21106" lon="-3.12601">
        <ele>130</ele>
        <time>2016-03-07T15:08:28Z</time>
      </trkpt>
      <trkpt lat="48.21107" lon="-3.12606">
        <ele>130</ele>
        <time>2016-03-07T15:08:33Z</time>
      </trkpt>
      <trkpt lat="48.21107" lon="-3.12608">
        <ele>130</ele>
        <time>2016-03-07T15:08:36Z</time>
      </trkpt>
      <trkpt lat="48.21108" lon="-3.12611">
        <ele>130</ele>
        <time>2016-03-07T15:08:40Z</time>
      </trkpt>
      <trkpt lat="48.21111" lon="-3.12614">
        <ele>130</ele>
        <time>2016-03-07T15:08:48Z</time>
      </trkpt>
      <trkpt lat="48.21114" lon="-3.12615">
        <ele>130</ele>
        <time>2016-03-07T15:08:53Z</time>
      </trkpt>
      <trkpt lat="48.21115" lon="-3.12617">
        <ele>130</ele>
        <time>2016-03-07T15:08:56Z</time>
      </trkpt>
      <trkpt lat="48.21117" lon="-3.12619">
        <ele>130</ele>
        <time>2016-03-07T15:09:00Z</time>
      </trkpt>
      <trkpt lat="48.21119" lon="-3.12621">
        <ele>130</ele>
        <time>2016-03-07T15:09:03Z</time>
      </trkpt>
      <trkpt lat="48.21119" lon="-3.12625">
        <ele>130</ele>
        <time>2016-03-07T15:09:35Z</time>
      </trkpt>
      <trkpt lat="48.21117" lon="-3.12625">
        <ele>130</ele>
        <time>2016-03-07T15:09:47Z</time>
      </trkpt>
      <trkpt lat="48.21119" lon="-3.12626">
        <ele>130</ele>
        <time>2016-03-07T15:10:09Z</time>
      </trkpt>
      <trkpt lat="48.2112" lon="-3.12626">
        <ele>130</ele>
        <time>2016-03-07T15:10:26Z</time>
      </trkpt>
      <trkpt lat="48.21123" lon="-3.12625">
        <ele>130</ele>
        <time>2016-03-07T15:10:30Z</time>
      </trkpt>
      <trkpt lat="48.21124" lon="-3.12625">
        <ele>130</ele>
        <time>2016-03-07T15:10:34Z</time>
      </trkpt>
      <trkpt lat="48.21127" lon="-3.12625">
        <ele>130</ele>
        <time>2016-03-07T15:10:38Z</time>
      </trkpt>
      <trkpt lat="48.21128" lon="-3.12625">
        <ele>130</ele>
        <time>2016-03-07T15:10:46Z</time>
      </trkpt>
      <trkpt lat="48.2113" lon="-3.12623">
        <ele>130</ele>
        <time>2016-03-07T15:10:56Z</time>
      </trkpt>
      <trkpt lat="48.21132" lon="-3.12624">
        <ele>130</ele>
        <time>2016-03-07T15:11:00Z</time>
      </trkpt>
      <trkpt lat="48.21133" lon="-3.12624">
        <ele>130</ele>
        <time>2016-03-07T15:11:03Z</time>
      </trkpt>
      <trkpt lat="48.21135" lon="-3.12625">
        <ele>130</ele>
        <time>2016-03-07T15:11:07Z</time>
      </trkpt>
      <trkpt lat="48.21137" lon="-3.12626">
        <ele>130</ele>
        <time>2016-03-07T15:11:10Z</time>
      </trkpt>
      <trkpt lat="48.21138" lon="-3.12627">
        <ele>130</ele>
        <time>2016-03-07T15:11:18Z</time>
      </trkpt>
      <trkpt lat="48.21139" lon="-3.12627">
        <ele>130</ele>
        <time>2016-03-07T15:11:21Z</time>
      </trkpt>
      <trkpt lat="48.21138" lon="-3.12628">
        <ele>130</ele>
        <time>2016-03-07T15:11:36Z</time>
      </trkpt>
      <trkpt lat="48.21136" lon="-3.12627">
        <ele>130</ele>
        <time>2016-03-07T15:11:39Z</time>
      </trkpt>
      <trkpt lat="48.21134" lon="-3.12627">
        <ele>130</ele>
        <time>2016-03-07T15:11:44Z</time>
      </trkpt>
      <trkpt lat="48.21131" lon="-3.12627">
        <ele>130</ele>
        <time>2016-03-07T15:11:48Z</time>
      </trkpt>
      <trkpt lat="48.21129" lon="-3.12625">
        <ele>130</ele>
        <time>2016-03-07T15:11:51Z</time>
      </trkpt>
      <trkpt lat="48.21127" lon="-3.12622">
        <ele>132</ele>
        <time>2016-03-07T15:11:54Z</time>
      </trkpt>
      <trkpt lat="48.21125" lon="-3.12623">
        <ele>133</ele>
        <time>2016-03-07T15:11:58Z</time>
      </trkpt>
      <trkpt lat="48.21122" lon="-3.12626">
        <ele>133</ele>
        <time>2016-03-07T15:12:02Z</time>
      </trkpt>
      <trkpt lat="48.2112" lon="-3.12629">
        <ele>133</ele>
        <time>2016-03-07T15:12:06Z</time>
      </trkpt>
      <trkpt lat="48.2112" lon="-3.12633">
        <ele>132</ele>
        <time>2016-03-07T15:12:10Z</time>
      </trkpt>
      <trkpt lat="48.21119" lon="-3.12637">
        <ele>132</ele>
        <time>2016-03-07T15:12:14Z</time>
      </trkpt>
      <trkpt lat="48.21118" lon="-3.12642">
        <ele>132</ele>
        <time>2016-03-07T15:12:18Z</time>
      </trkpt>
      <trkpt lat="48.21117" lon="-3.12647">
        <ele>132</ele>
        <time>2016-03-07T15:12:22Z</time>
      </trkpt>
      <trkpt lat="48.21116" lon="-3.12652">
        <ele>131</ele>
        <time>2016-03-07T15:12:26Z</time>
      </trkpt>
      <trkpt lat="48.21115" lon="-3.12657">
        <ele>131</ele>
        <time>2016-03-07T15:12:30Z</time>
      </trkpt>
      <trkpt lat="48.21115" lon="-3.12663">
        <ele>131</ele>
        <time>2016-03-07T15:12:34Z</time>
      </trkpt>
      <trkpt lat="48.21114" lon="-3.12667">
        <ele>131</ele>
        <time>2016-03-07T15:12:38Z</time>
      </trkpt>
      <trkpt lat="48.21113" lon="-3.12672">
        <ele>131</ele>
        <time>2016-03-07T15:12:42Z</time>
      </trkpt>
      <trkpt lat="48.21112" lon="-3.12676">
        <ele>131</ele>
        <time>2016-03-07T15:12:46Z</time>
      </trkpt>
      <trkpt lat="48.21112" lon="-3.1268">
        <ele>131</ele>
        <time>2016-03-07T15:12:50Z</time>
      </trkpt>
      <trkpt lat="48.2111" lon="-3.12685">
        <ele>131</ele>
        <time>2016-03-07T15:12:54Z</time>
      </trkpt>
      <trkpt lat="48.2111" lon="-3.1269">
        <ele>131</ele>
        <time>2016-03-07T15:12:58Z</time>
      </trkpt>
      <trkpt lat="48.21111" lon="-3.12694">
        <ele>131</ele>
        <time>2016-03-07T15:13:02Z</time>
      </trkpt>
      <trkpt lat="48.21114" lon="-3.12698">
        <ele>131</ele>
        <time>2016-03-07T15:13:06Z</time>
      </trkpt>
      <trkpt lat="48.21116" lon="-3.127">
        <ele>131</ele>
        <time>2016-03-07T15:13:10Z</time>
      </trkpt>
      <trkpt lat="48.21118" lon="-3.12702">
        <ele>131</ele>
        <time>2016-03-07T15:13:13Z</time>
      </trkpt>
      <trkpt lat="48.21121" lon="-3.12702">
        <ele>131</ele>
        <time>2016-03-07T15:13:17Z</time>
      </trkpt>
      <trkpt lat="48.21125" lon="-3.12702">
        <ele>131</ele>
        <time>2016-03-07T15:13:20Z</time>
      </trkpt>
      <trkpt lat="48.21127" lon="-3.12704">
        <ele>131</ele>
        <time>2016-03-07T15:13:25Z</time>
      </trkpt>
      <trkpt lat="48.2113" lon="-3.12708">
        <ele>131</ele>
        <time>2016-03-07T15:13:30Z</time>
      </trkpt>
      <trkpt lat="48.21131" lon="-3.12708">
        <ele>131</ele>
        <time>2016-03-07T15:13:36Z</time>
      </trkpt>
      <trkpt lat="48.21132" lon="-3.12707">
        <ele>131</ele>
        <time>2016-03-07T15:13:40Z</time>
      </trkpt>
      <trkpt lat="48.21132" lon="-3.1271">
        <ele>131</ele>
        <time>2016-03-07T15:13:43Z</time>
      </trkpt>
      <trkpt lat="48.21133" lon="-3.12711">
        <ele>133</ele>
        <time>2016-03-07T15:13:47Z</time>
      </trkpt>
      <trkpt lat="48.21134" lon="-3.12713">
        <ele>134</ele>
        <time>2016-03-07T15:13:50Z</time>
      </trkpt>
      <trkpt lat="48.21135" lon="-3.12715">
        <ele>136</ele>
        <time>2016-03-07T15:13:58Z</time>
      </trkpt>
      <trkpt lat="48.21137" lon="-3.12715">
        <ele>136</ele>
        <time>2016-03-07T15:14:06Z</time>
      </trkpt>
      <trkpt lat="48.21141" lon="-3.12715">
        <ele>136</ele>
        <time>2016-03-07T15:14:10Z</time>
      </trkpt>
      <trkpt lat="48.21143" lon="-3.12719">
        <ele>136</ele>
        <time>2016-03-07T15:14:14Z</time>
      </trkpt>
      <trkpt lat="48.21147" lon="-3.12717">
        <ele>136</ele>
        <time>2016-03-07T15:14:18Z</time>
      </trkpt>
      <trkpt lat="48.2115" lon="-3.12718">
        <ele>136</ele>
        <time>2016-03-07T15:14:22Z</time>
      </trkpt>
      <trkpt lat="48.21153" lon="-3.12718">
        <ele>136</ele>
        <time>2016-03-07T15:14:26Z</time>
      </trkpt>
      <trkpt lat="48.21156" lon="-3.12719">
        <ele>136</ele>
        <time>2016-03-07T15:14:30Z</time>
      </trkpt>
      <trkpt lat="48.2116" lon="-3.12719">
        <ele>136</ele>
        <time>2016-03-07T15:14:34Z</time>
      </trkpt>
      <trkpt lat="48.21163" lon="-3.1272">
        <ele>136</ele>
        <time>2016-03-07T15:14:38Z</time>
      </trkpt>
      <trkpt lat="48.21166" lon="-3.12721">
        <ele>136</ele>
        <time>2016-03-07T15:14:42Z</time>
      </trkpt>
      <trkpt lat="48.21169" lon="-3.12722">
        <ele>136</ele>
        <time>2016-03-07T15:14:46Z</time>
      </trkpt>
      <trkpt lat="48.21172" lon="-3.12724">
        <ele>135</ele>
        <time>2016-03-07T15:14:50Z</time>
      </trkpt>
      <trkpt lat="48.21175" lon="-3.12726">
        <ele>135</ele>
        <time>2016-03-07T15:14:54Z</time>
      </trkpt>
      <trkpt lat="48.21178" lon="-3.12728">
        <ele>134</ele>
        <time>2016-03-07T15:14:58Z</time>
      </trkpt>
      <trkpt lat="48.21181" lon="-3.12729">
        <ele>134</ele>
        <time>2016-03-07T15:15:02Z</time>
      </trkpt>
      <trkpt lat="48.21184" lon="-3.12731">
        <ele>134</ele>
        <time>2016-03-07T15:15:06Z</time>
      </trkpt>
      <trkpt lat="48.21186" lon="-3.12732">
        <ele>134</ele>
        <time>2016-03-07T15:15:10Z</time>
      </trkpt>
      <trkpt lat="48.2119" lon="-3.12735">
        <ele>133</ele>
        <time>2016-03-07T15:15:15Z</time>
      </trkpt>
      <trkpt lat="48.21193" lon="-3.12736">
        <ele>133</ele>
        <time>2016-03-07T15:15:19Z</time>
      </trkpt>
      <trkpt lat="48.21196" lon="-3.12738">
        <ele>133</ele>
        <time>2016-03-07T15:15:23Z</time>
      </trkpt>
      <trkpt lat="48.212" lon="-3.1274">
        <ele>132</ele>
        <time>2016-03-07T15:15:27Z</time>
      </trkpt>
      <trkpt lat="48.21203" lon="-3.12742">
        <ele>132</ele>
        <time>2016-03-07T15:15:31Z</time>
      </trkpt>
      <trkpt lat="48.21204" lon="-3.12744">
        <ele>132</ele>
        <time>2016-03-07T15:15:35Z</time>
      </trkpt>
      <trkpt lat="48.21206" lon="-3.12745">
        <ele>132</ele>
        <time>2016-03-07T15:15:38Z</time>
      </trkpt>
      <trkpt lat="48.21208" lon="-3.12743">
        <ele>132</ele>
        <time>2016-03-07T15:15:41Z</time>
      </trkpt>
      <trkpt lat="48.21211" lon="-3.12742">
        <ele>131</ele>
        <time>2016-03-07T15:15:46Z</time>
      </trkpt>
      <trkpt lat="48.21213" lon="-3.12745">
        <ele>130</ele>
        <time>2016-03-07T15:15:50Z</time>
      </trkpt>
      <trkpt lat="48.21216" lon="-3.1275">
        <ele>129</ele>
        <time>2016-03-07T15:15:54Z</time>
      </trkpt>
      <trkpt lat="48.21219" lon="-3.12753">
        <ele>129</ele>
        <time>2016-03-07T15:15:58Z</time>
      </trkpt>
      <trkpt lat="48.21223" lon="-3.12756">
        <ele>129</ele>
        <time>2016-03-07T15:16:02Z</time>
      </trkpt>
      <trkpt lat="48.21226" lon="-3.12759">
        <ele>129</ele>
        <time>2016-03-07T15:16:06Z</time>
      </trkpt>
      <trkpt lat="48.21229" lon="-3.12762">
        <ele>129</ele>
        <time>2016-03-07T15:16:10Z</time>
      </trkpt>
      <trkpt lat="48.21232" lon="-3.12764">
        <ele>129</ele>
        <time>2016-03-07T15:16:14Z</time>
      </trkpt>
      <trkpt lat="48.21236" lon="-3.12766">
        <ele>129</ele>
        <time>2016-03-07T15:16:18Z</time>
      </trkpt>
      <trkpt lat="48.21239" lon="-3.12769">
        <ele>129</ele>
        <time>2016-03-07T15:16:22Z</time>
      </trkpt>
      <trkpt lat="48.21243" lon="-3.12772">
        <ele>129</ele>
        <time>2016-03-07T15:16:26Z</time>
      </trkpt>
      <trkpt lat="48.21246" lon="-3.12774">
        <ele>129</ele>
        <time>2016-03-07T15:16:30Z</time>
      </trkpt>
      <trkpt lat="48.21249" lon="-3.12776">
        <ele>129</ele>
        <time>2016-03-07T15:16:34Z</time>
      </trkpt>
      <trkpt lat="48.21253" lon="-3.12778">
        <ele>129</ele>
        <time>2016-03-07T15:16:37Z</time>
      </trkpt>
      <trkpt lat="48.21257" lon="-3.12781">
        <ele>129</ele>
        <time>2016-03-07T15:16:41Z</time>
      </trkpt>
      <trkpt lat="48.2126" lon="-3.12782">
        <ele>129</ele>
        <time>2016-03-07T15:16:44Z</time>
      </trkpt>
      <trkpt lat="48.21264" lon="-3.12785">
        <ele>129</ele>
        <time>2016-03-07T15:16:48Z</time>
      </trkpt>
      <trkpt lat="48.21267" lon="-3.12787">
        <ele>129</ele>
        <time>2016-03-07T15:16:52Z</time>
      </trkpt>
      <trkpt lat="48.2127" lon="-3.12789">
        <ele>129</ele>
        <time>2016-03-07T15:16:56Z</time>
      </trkpt>
      <trkpt lat="48.21273" lon="-3.12791">
        <ele>129</ele>
        <time>2016-03-07T15:17:00Z</time>
      </trkpt>
      <trkpt lat="48.21277" lon="-3.12793">
        <ele>129</ele>
        <time>2016-03-07T15:17:04Z</time>
      </trkpt>
      <trkpt lat="48.2128" lon="-3.12796">
        <ele>129</ele>
        <time>2016-03-07T15:17:08Z</time>
      </trkpt>
      <trkpt lat="48.21283" lon="-3.12798">
        <ele>129</ele>
        <time>2016-03-07T15:17:12Z</time>
      </trkpt>
      <trkpt lat="48.21286" lon="-3.12801">
        <ele>129</ele>
        <time>2016-03-07T15:17:16Z</time>
      </trkpt>
      <trkpt lat="48.21289" lon="-3.12804">
        <ele>129</ele>
        <time>2016-03-07T15:17:20Z</time>
      </trkpt>
      <trkpt lat="48.21292" lon="-3.12805">
        <ele>129</ele>
        <time>2016-03-07T15:17:23Z</time>
      </trkpt>
      <trkpt lat="48.21295" lon="-3.12807">
        <ele>129</ele>
        <time>2016-03-07T15:17:27Z</time>
      </trkpt>
      <trkpt lat="48.21298" lon="-3.12809">
        <ele>129</ele>
        <time>2016-03-07T15:17:31Z</time>
      </trkpt>
      <trkpt lat="48.21301" lon="-3.12811">
        <ele>129</ele>
        <time>2016-03-07T15:17:35Z</time>
      </trkpt>
      <trkpt lat="48.21304" lon="-3.12813">
        <ele>129</ele>
        <time>2016-03-07T15:17:39Z</time>
      </trkpt>
      <trkpt lat="48.21305" lon="-3.12814">
        <ele>129</ele>
        <time>2016-03-07T15:17:42Z</time>
      </trkpt>
      <trkpt lat="48.21309" lon="-3.12817">
        <ele>129</ele>
        <time>2016-03-07T15:17:46Z</time>
      </trkpt>
      <trkpt lat="48.21312" lon="-3.12819">
        <ele>129</ele>
        <time>2016-03-07T15:17:49Z</time>
      </trkpt>
      <trkpt lat="48.21316" lon="-3.1282">
        <ele>129</ele>
        <time>2016-03-07T15:17:52Z</time>
      </trkpt>
      <trkpt lat="48.2132" lon="-3.1282">
        <ele>129</ele>
        <time>2016-03-07T15:17:56Z</time>
      </trkpt>
      <trkpt lat="48.21323" lon="-3.12819">
        <ele>129</ele>
        <time>2016-03-07T15:17:59Z</time>
      </trkpt>
      <trkpt lat="48.21326" lon="-3.12817">
        <ele>129</ele>
        <time>2016-03-07T15:18:03Z</time>
      </trkpt>
      <trkpt lat="48.2133" lon="-3.12814">
        <ele>129</ele>
        <time>2016-03-07T15:18:07Z</time>
      </trkpt>
      <trkpt lat="48.21333" lon="-3.12812">
        <ele>129</ele>
        <time>2016-03-07T15:18:11Z</time>
      </trkpt>
      <trkpt lat="48.21336" lon="-3.1281">
        <ele>129</ele>
        <time>2016-03-07T15:18:15Z</time>
      </trkpt>
      <trkpt lat="48.21339" lon="-3.12809">
        <ele>129</ele>
        <time>2016-03-07T15:18:19Z</time>
      </trkpt>
      <trkpt lat="48.21341" lon="-3.12807">
        <ele>129</ele>
        <time>2016-03-07T15:18:23Z</time>
      </trkpt>
      <trkpt lat="48.21345" lon="-3.12805">
        <ele>129</ele>
        <time>2016-03-07T15:18:28Z</time>
      </trkpt>
      <trkpt lat="48.21346" lon="-3.12804">
        <ele>129</ele>
        <time>2016-03-07T15:18:32Z</time>
      </trkpt>
    </trkseg>
  </trk>
</gpx>